<?xml version="1.0" encoding="UTF-8" standalone="no" ?>
<gpx xmlns="http://www.topografix.com/GPX/1/1" xmlns:xsi="http://www.w3.org/2001/XMLSchema-instance" xsi:schemaLocation="http://www.topografix.com/GPX/1/1 http://www.topografix.com/GPX/1/1/gpx.xsd" version="1.1" creator="VisuGPX - https://www.visugpx.com">
  <metadata>
    <name>ME 17 02 4192506-RCA127</name>
    <desc><![CDATA[ME 17 02 4192506-RCA127]]></desc>
  </metadata>
  <trk>
    <name><![CDATA[4192506-RCA127]]></name>
    <trkseg>
      <trkpt lat="47.47189" lon="-0.56388">
        <ele>21</ele>
        <time>2021-02-12T07:42:46Z</time>
      </trkpt>
      <trkpt lat="47.47155" lon="-0.56439">
        <ele>22</ele>
        <time>2021-02-12T07:42:37Z</time>
      </trkpt>
      <trkpt lat="47.4715" lon="-0.56447">
        <ele>22</ele>
        <time>2021-02-12T07:42:36Z</time>
      </trkpt>
      <trkpt lat="47.47148" lon="-0.5645">
        <ele>22</ele>
        <time>2021-02-12T07:42:35Z</time>
      </trkpt>
      <trkpt lat="47.47112" lon="-0.56506">
        <ele>22</ele>
        <time>2021-02-12T07:42:26Z</time>
      </trkpt>
      <trkpt lat="47.47081" lon="-0.56553">
        <ele>23</ele>
        <time>2021-02-12T07:42:18Z</time>
      </trkpt>
      <trkpt lat="47.47035" lon="-0.56622">
        <ele>24</ele>
        <time>2021-02-12T07:42:06Z</time>
      </trkpt>
      <trkpt lat="47.4702" lon="-0.56647">
        <ele>24</ele>
        <time>2021-02-12T07:42:02Z</time>
      </trkpt>
      <trkpt lat="47.47008" lon="-0.56673">
        <ele>24</ele>
        <time>2021-02-12T07:41:59Z</time>
      </trkpt>
      <trkpt lat="47.46996" lon="-0.56719">
        <ele>23</ele>
        <time>2021-02-12T07:41:53Z</time>
      </trkpt>
      <trkpt lat="47.46993" lon="-0.56741">
        <ele>23</ele>
        <time>2021-02-12T07:41:50Z</time>
      </trkpt>
      <trkpt lat="47.46992" lon="-0.56765">
        <ele>22</ele>
        <time>2021-02-12T07:41:47Z</time>
      </trkpt>
      <trkpt lat="47.46993" lon="-0.56802">
        <ele>22</ele>
        <time>2021-02-12T07:41:43Z</time>
      </trkpt>
      <trkpt lat="47.47011" lon="-0.56884">
        <ele>22</ele>
        <time>2021-02-12T07:41:32Z</time>
      </trkpt>
      <trkpt lat="47.47012" lon="-0.569">
        <ele>21</ele>
        <time>2021-02-12T07:41:30Z</time>
      </trkpt>
      <trkpt lat="47.47011" lon="-0.56904">
        <ele>21</ele>
        <time>2021-02-12T07:41:30Z</time>
      </trkpt>
      <trkpt lat="47.4701" lon="-0.56909">
        <ele>21</ele>
        <time>2021-02-12T07:41:29Z</time>
      </trkpt>
      <trkpt lat="47.4701" lon="-0.56914">
        <ele>21</ele>
        <time>2021-02-12T07:41:29Z</time>
      </trkpt>
      <trkpt lat="47.47011" lon="-0.56919">
        <ele>21</ele>
        <time>2021-02-12T07:41:28Z</time>
      </trkpt>
      <trkpt lat="47.47012" lon="-0.56924">
        <ele>21</ele>
        <time>2021-02-12T07:41:27Z</time>
      </trkpt>
      <trkpt lat="47.47014" lon="-0.56927">
        <ele>21</ele>
        <time>2021-02-12T07:41:27Z</time>
      </trkpt>
      <trkpt lat="47.47015" lon="-0.56929">
        <ele>21</ele>
        <time>2021-02-12T07:41:27Z</time>
      </trkpt>
      <trkpt lat="47.47017" lon="-0.56931">
        <ele>20</ele>
        <time>2021-02-12T07:41:26Z</time>
      </trkpt>
      <trkpt lat="47.47026" lon="-0.56948">
        <ele>20</ele>
        <time>2021-02-12T07:41:24Z</time>
      </trkpt>
      <trkpt lat="47.47029" lon="-0.56959">
        <ele>20</ele>
        <time>2021-02-12T07:41:22Z</time>
      </trkpt>
      <trkpt lat="47.47044" lon="-0.57022">
        <ele>18</ele>
        <time>2021-02-12T07:41:14Z</time>
      </trkpt>
      <trkpt lat="47.47053" lon="-0.57059">
        <ele>18</ele>
        <time>2021-02-12T07:41:09Z</time>
      </trkpt>
      <trkpt lat="47.47061" lon="-0.57092">
        <ele>18</ele>
        <time>2021-02-12T07:41:05Z</time>
      </trkpt>
      <trkpt lat="47.47077" lon="-0.5716">
        <ele>19</ele>
        <time>2021-02-12T07:40:56Z</time>
      </trkpt>
      <trkpt lat="47.47104" lon="-0.57257">
        <ele>17</ele>
        <time>2021-02-12T07:40:44Z</time>
      </trkpt>
      <trkpt lat="47.47138" lon="-0.57362">
        <ele>18</ele>
        <time>2021-02-12T07:40:30Z</time>
      </trkpt>
      <trkpt lat="47.47173" lon="-0.57453">
        <ele>22</ele>
        <time>2021-02-12T07:40:17Z</time>
      </trkpt>
      <trkpt lat="47.47235" lon="-0.57589">
        <ele>20</ele>
        <time>2021-02-12T07:39:58Z</time>
      </trkpt>
      <trkpt lat="47.47252" lon="-0.57627">
        <ele>20</ele>
        <time>2021-02-12T07:39:52Z</time>
      </trkpt>
      <trkpt lat="47.47257" lon="-0.57637">
        <ele>20</ele>
        <time>2021-02-12T07:39:51Z</time>
      </trkpt>
      <trkpt lat="47.47272" lon="-0.57671">
        <ele>21</ele>
        <time>2021-02-12T07:39:46Z</time>
      </trkpt>
      <trkpt lat="47.47281" lon="-0.57692">
        <ele>22</ele>
        <time>2021-02-12T07:39:43Z</time>
      </trkpt>
      <trkpt lat="47.47284" lon="-0.57698">
        <ele>23</ele>
        <time>2021-02-12T07:39:42Z</time>
      </trkpt>
      <trkpt lat="47.47287" lon="-0.57703">
        <ele>23</ele>
        <time>2021-02-12T07:39:41Z</time>
      </trkpt>
      <trkpt lat="47.47295" lon="-0.57724">
        <ele>23</ele>
        <time>2021-02-12T07:39:38Z</time>
      </trkpt>
      <trkpt lat="47.47299" lon="-0.57733">
        <ele>24</ele>
        <time>2021-02-12T07:39:37Z</time>
      </trkpt>
      <trkpt lat="47.47307" lon="-0.57753">
        <ele>24</ele>
        <time>2021-02-12T07:39:34Z</time>
      </trkpt>
      <trkpt lat="47.47313" lon="-0.5777">
        <ele>25</ele>
        <time>2021-02-12T07:39:32Z</time>
      </trkpt>
      <trkpt lat="47.47321" lon="-0.57792">
        <ele>26</ele>
        <time>2021-02-12T07:39:29Z</time>
      </trkpt>
      <trkpt lat="47.47345" lon="-0.57862">
        <ele>28</ele>
        <time>2021-02-12T07:39:19Z</time>
      </trkpt>
      <trkpt lat="47.47347" lon="-0.57869">
        <ele>29</ele>
        <time>2021-02-12T07:39:18Z</time>
      </trkpt>
      <trkpt lat="47.4735" lon="-0.5788">
        <ele>29</ele>
        <time>2021-02-12T07:39:17Z</time>
      </trkpt>
      <trkpt lat="47.47356" lon="-0.579">
        <ele>29</ele>
        <time>2021-02-12T07:39:14Z</time>
      </trkpt>
      <trkpt lat="47.47361" lon="-0.57916">
        <ele>30</ele>
        <time>2021-02-12T07:39:12Z</time>
      </trkpt>
      <trkpt lat="47.4737" lon="-0.57962">
        <ele>30</ele>
        <time>2021-02-12T07:39:06Z</time>
      </trkpt>
      <trkpt lat="47.47372" lon="-0.57978">
        <ele>31</ele>
        <time>2021-02-12T07:39:04Z</time>
      </trkpt>
      <trkpt lat="47.47373" lon="-0.57989">
        <ele>31</ele>
        <time>2021-02-12T07:39:03Z</time>
      </trkpt>
      <trkpt lat="47.47376" lon="-0.5802">
        <ele>31</ele>
        <time>2021-02-12T07:38:59Z</time>
      </trkpt>
      <trkpt lat="47.47375" lon="-0.58042">
        <ele>32</ele>
        <time>2021-02-12T07:38:57Z</time>
      </trkpt>
      <trkpt lat="47.47375" lon="-0.58044">
        <ele>32</ele>
        <time>2021-02-12T07:38:56Z</time>
      </trkpt>
      <trkpt lat="47.47374" lon="-0.58089">
        <ele>32</ele>
        <time>2021-02-12T07:38:51Z</time>
      </trkpt>
      <trkpt lat="47.47374" lon="-0.58097">
        <ele>32</ele>
        <time>2021-02-12T07:38:50Z</time>
      </trkpt>
      <trkpt lat="47.47371" lon="-0.58167">
        <ele>34</ele>
        <time>2021-02-12T07:38:42Z</time>
      </trkpt>
      <trkpt lat="47.47371" lon="-0.58179">
        <ele>34</ele>
        <time>2021-02-12T07:38:40Z</time>
      </trkpt>
      <trkpt lat="47.47369" lon="-0.58235">
        <ele>35</ele>
        <time>2021-02-12T07:38:33Z</time>
      </trkpt>
      <trkpt lat="47.47367" lon="-0.5831">
        <ele>34</ele>
        <time>2021-02-12T07:38:24Z</time>
      </trkpt>
      <trkpt lat="47.47366" lon="-0.58326">
        <ele>34</ele>
        <time>2021-02-12T07:38:22Z</time>
      </trkpt>
      <trkpt lat="47.47365" lon="-0.58346">
        <ele>34</ele>
        <time>2021-02-12T07:38:20Z</time>
      </trkpt>
      <trkpt lat="47.47365" lon="-0.5837">
        <ele>35</ele>
        <time>2021-02-12T07:38:17Z</time>
      </trkpt>
      <trkpt lat="47.47362" lon="-0.58436">
        <ele>37</ele>
        <time>2021-02-12T07:38:09Z</time>
      </trkpt>
      <trkpt lat="47.47362" lon="-0.58475">
        <ele>38</ele>
        <time>2021-02-12T07:38:05Z</time>
      </trkpt>
      <trkpt lat="47.4736" lon="-0.58507">
        <ele>39</ele>
        <time>2021-02-12T07:38:01Z</time>
      </trkpt>
      <trkpt lat="47.47359" lon="-0.58552">
        <ele>39</ele>
        <time>2021-02-12T07:37:55Z</time>
      </trkpt>
      <trkpt lat="47.47358" lon="-0.5859">
        <ele>39</ele>
        <time>2021-02-12T07:37:51Z</time>
      </trkpt>
      <trkpt lat="47.47357" lon="-0.58607">
        <ele>39</ele>
        <time>2021-02-12T07:37:49Z</time>
      </trkpt>
      <trkpt lat="47.47357" lon="-0.58611">
        <ele>39</ele>
        <time>2021-02-12T07:37:48Z</time>
      </trkpt>
      <trkpt lat="47.47357" lon="-0.58638">
        <ele>40</ele>
        <time>2021-02-12T07:37:45Z</time>
      </trkpt>
      <trkpt lat="47.47355" lon="-0.5867">
        <ele>40</ele>
        <time>2021-02-12T07:37:41Z</time>
      </trkpt>
      <trkpt lat="47.47353" lon="-0.58727">
        <ele>41</ele>
        <time>2021-02-12T07:37:34Z</time>
      </trkpt>
      <trkpt lat="47.47352" lon="-0.58777">
        <ele>41</ele>
        <time>2021-02-12T07:37:28Z</time>
      </trkpt>
      <trkpt lat="47.47351" lon="-0.588">
        <ele>41</ele>
        <time>2021-02-12T07:37:25Z</time>
      </trkpt>
      <trkpt lat="47.47351" lon="-0.58811">
        <ele>41</ele>
        <time>2021-02-12T07:37:24Z</time>
      </trkpt>
      <trkpt lat="47.4735" lon="-0.58844">
        <ele>41</ele>
        <time>2021-02-12T07:37:20Z</time>
      </trkpt>
      <trkpt lat="47.47347" lon="-0.58919">
        <ele>42</ele>
        <time>2021-02-12T07:37:11Z</time>
      </trkpt>
      <trkpt lat="47.47346" lon="-0.5895">
        <ele>42</ele>
        <time>2021-02-12T07:37:07Z</time>
      </trkpt>
      <trkpt lat="47.47344" lon="-0.59017">
        <ele>42</ele>
        <time>2021-02-12T07:36:59Z</time>
      </trkpt>
      <trkpt lat="47.47344" lon="-0.5902">
        <ele>42</ele>
        <time>2021-02-12T07:36:59Z</time>
      </trkpt>
      <trkpt lat="47.47342" lon="-0.59078">
        <ele>43</ele>
        <time>2021-02-12T07:36:52Z</time>
      </trkpt>
      <trkpt lat="47.47339" lon="-0.59181">
        <ele>43</ele>
        <time>2021-02-12T07:36:40Z</time>
      </trkpt>
      <trkpt lat="47.47338" lon="-0.59199">
        <ele>44</ele>
        <time>2021-02-12T07:36:37Z</time>
      </trkpt>
      <trkpt lat="47.47338" lon="-0.59218">
        <ele>44</ele>
        <time>2021-02-12T07:36:35Z</time>
      </trkpt>
      <trkpt lat="47.47333" lon="-0.59408">
        <ele>48</ele>
        <time>2021-02-12T07:36:12Z</time>
      </trkpt>
      <trkpt lat="47.47332" lon="-0.5942">
        <ele>48</ele>
        <time>2021-02-12T07:36:11Z</time>
      </trkpt>
      <trkpt lat="47.47331" lon="-0.59458">
        <ele>48</ele>
        <time>2021-02-12T07:36:06Z</time>
      </trkpt>
      <trkpt lat="47.47329" lon="-0.59494">
        <ele>49</ele>
        <time>2021-02-12T07:36:02Z</time>
      </trkpt>
      <trkpt lat="47.47325" lon="-0.59631">
        <ele>51</ele>
        <time>2021-02-12T07:35:45Z</time>
      </trkpt>
      <trkpt lat="47.47325" lon="-0.5964">
        <ele>51</ele>
        <time>2021-02-12T07:35:44Z</time>
      </trkpt>
      <trkpt lat="47.47324" lon="-0.59658">
        <ele>51</ele>
        <time>2021-02-12T07:35:42Z</time>
      </trkpt>
      <trkpt lat="47.47324" lon="-0.59677">
        <ele>51</ele>
        <time>2021-02-12T07:35:40Z</time>
      </trkpt>
      <trkpt lat="47.47322" lon="-0.59766">
        <ele>53</ele>
        <time>2021-02-12T07:35:29Z</time>
      </trkpt>
      <trkpt lat="47.4732" lon="-0.59817">
        <ele>55</ele>
        <time>2021-02-12T07:35:23Z</time>
      </trkpt>
      <trkpt lat="47.47318" lon="-0.5988">
        <ele>54</ele>
        <time>2021-02-12T07:35:15Z</time>
      </trkpt>
      <trkpt lat="47.47316" lon="-0.59955">
        <ele>53</ele>
        <time>2021-02-12T07:35:06Z</time>
      </trkpt>
      <trkpt lat="47.47315" lon="-0.59959">
        <ele>53</ele>
        <time>2021-02-12T07:35:06Z</time>
      </trkpt>
      <trkpt lat="47.47315" lon="-0.59977">
        <ele>53</ele>
        <time>2021-02-12T07:35:04Z</time>
      </trkpt>
      <trkpt lat="47.47314" lon="-0.59993">
        <ele>54</ele>
        <time>2021-02-12T07:35:02Z</time>
      </trkpt>
      <trkpt lat="47.47314" lon="-0.59997">
        <ele>54</ele>
        <time>2021-02-12T07:35:01Z</time>
      </trkpt>
      <trkpt lat="47.47314" lon="-0.60005">
        <ele>54</ele>
        <time>2021-02-12T07:35:00Z</time>
      </trkpt>
      <trkpt lat="47.47314" lon="-0.60009">
        <ele>54</ele>
        <time>2021-02-12T07:35:00Z</time>
      </trkpt>
      <trkpt lat="47.47311" lon="-0.60116">
        <ele>53</ele>
        <time>2021-02-12T07:34:47Z</time>
      </trkpt>
      <trkpt lat="47.47308" lon="-0.60198">
        <ele>52</ele>
        <time>2021-02-12T07:34:37Z</time>
      </trkpt>
      <trkpt lat="47.47307" lon="-0.60216">
        <ele>52</ele>
        <time>2021-02-12T07:34:35Z</time>
      </trkpt>
      <trkpt lat="47.47306" lon="-0.60241">
        <ele>52</ele>
        <time>2021-02-12T07:34:32Z</time>
      </trkpt>
      <trkpt lat="47.47306" lon="-0.60243">
        <ele>52</ele>
        <time>2021-02-12T07:34:32Z</time>
      </trkpt>
      <trkpt lat="47.47302" lon="-0.60353">
        <ele>52</ele>
        <time>2021-02-12T07:34:18Z</time>
      </trkpt>
      <trkpt lat="47.47291" lon="-0.60715">
        <ele>52</ele>
        <time>2021-02-12T07:33:35Z</time>
      </trkpt>
      <trkpt lat="47.4729" lon="-0.60733">
        <ele>52</ele>
        <time>2021-02-12T07:33:33Z</time>
      </trkpt>
      <trkpt lat="47.4729" lon="-0.60738">
        <ele>52</ele>
        <time>2021-02-12T07:33:32Z</time>
      </trkpt>
      <trkpt lat="47.47288" lon="-0.60768">
        <ele>52</ele>
        <time>2021-02-12T07:33:28Z</time>
      </trkpt>
      <trkpt lat="47.47288" lon="-0.60778">
        <ele>51</ele>
        <time>2021-02-12T07:33:27Z</time>
      </trkpt>
      <trkpt lat="47.47285" lon="-0.60803">
        <ele>51</ele>
        <time>2021-02-12T07:33:24Z</time>
      </trkpt>
      <trkpt lat="47.47276" lon="-0.60856">
        <ele>51</ele>
        <time>2021-02-12T07:33:18Z</time>
      </trkpt>
      <trkpt lat="47.4727" lon="-0.60878">
        <ele>52</ele>
        <time>2021-02-12T07:33:15Z</time>
      </trkpt>
      <trkpt lat="47.47247" lon="-0.60956">
        <ele>51</ele>
        <time>2021-02-12T07:33:04Z</time>
      </trkpt>
      <trkpt lat="47.47218" lon="-0.61053">
        <ele>52</ele>
        <time>2021-02-12T07:32:52Z</time>
      </trkpt>
      <trkpt lat="47.4721" lon="-0.61074">
        <ele>53</ele>
        <time>2021-02-12T07:32:49Z</time>
      </trkpt>
      <trkpt lat="47.47204" lon="-0.61094">
        <ele>53</ele>
        <time>2021-02-12T07:32:46Z</time>
      </trkpt>
      <trkpt lat="47.47202" lon="-0.61097">
        <ele>53</ele>
        <time>2021-02-12T07:32:46Z</time>
      </trkpt>
      <trkpt lat="47.472" lon="-0.61106">
        <ele>53</ele>
        <time>2021-02-12T07:32:45Z</time>
      </trkpt>
      <trkpt lat="47.472" lon="-0.61111">
        <ele>53</ele>
        <time>2021-02-12T07:32:44Z</time>
      </trkpt>
      <trkpt lat="47.47201" lon="-0.61117">
        <ele>53</ele>
        <time>2021-02-12T07:32:43Z</time>
      </trkpt>
      <trkpt lat="47.47205" lon="-0.61126">
        <ele>52</ele>
        <time>2021-02-12T07:32:42Z</time>
      </trkpt>
      <trkpt lat="47.47208" lon="-0.61129">
        <ele>52</ele>
        <time>2021-02-12T07:32:41Z</time>
      </trkpt>
      <trkpt lat="47.47214" lon="-0.61131">
        <ele>52</ele>
        <time>2021-02-12T07:32:40Z</time>
      </trkpt>
      <trkpt lat="47.47216" lon="-0.61135">
        <ele>52</ele>
        <time>2021-02-12T07:32:40Z</time>
      </trkpt>
      <trkpt lat="47.47227" lon="-0.61147">
        <ele>51</ele>
        <time>2021-02-12T07:32:37Z</time>
      </trkpt>
      <trkpt lat="47.47235" lon="-0.61155">
        <ele>50</ele>
        <time>2021-02-12T07:32:35Z</time>
      </trkpt>
      <trkpt lat="47.47279" lon="-0.61217">
        <ele>49</ele>
        <time>2021-02-12T07:32:25Z</time>
      </trkpt>
      <trkpt lat="47.47295" lon="-0.6124">
        <ele>49</ele>
        <time>2021-02-12T07:32:21Z</time>
      </trkpt>
      <trkpt lat="47.47309" lon="-0.61261">
        <ele>49</ele>
        <time>2021-02-12T07:32:17Z</time>
      </trkpt>
      <trkpt lat="47.47351" lon="-0.61324">
        <ele>49</ele>
        <time>2021-02-12T07:32:06Z</time>
      </trkpt>
      <trkpt lat="47.47356" lon="-0.61345">
        <ele>49</ele>
        <time>2021-02-12T07:32:04Z</time>
      </trkpt>
      <trkpt lat="47.47357" lon="-0.61349">
        <ele>49</ele>
        <time>2021-02-12T07:32:03Z</time>
      </trkpt>
      <trkpt lat="47.47356" lon="-0.61356">
        <ele>49</ele>
        <time>2021-02-12T07:32:02Z</time>
      </trkpt>
      <trkpt lat="47.47356" lon="-0.61363">
        <ele>49</ele>
        <time>2021-02-12T07:32:02Z</time>
      </trkpt>
      <trkpt lat="47.47358" lon="-0.61377">
        <ele>49</ele>
        <time>2021-02-12T07:32:00Z</time>
      </trkpt>
      <trkpt lat="47.47361" lon="-0.61383">
        <ele>49</ele>
        <time>2021-02-12T07:31:59Z</time>
      </trkpt>
      <trkpt lat="47.47369" lon="-0.61391">
        <ele>49</ele>
        <time>2021-02-12T07:31:57Z</time>
      </trkpt>
      <trkpt lat="47.47371" lon="-0.61392">
        <ele>49</ele>
        <time>2021-02-12T07:31:57Z</time>
      </trkpt>
      <trkpt lat="47.47374" lon="-0.61397">
        <ele>49</ele>
        <time>2021-02-12T07:31:56Z</time>
      </trkpt>
      <trkpt lat="47.47377" lon="-0.61404">
        <ele>49</ele>
        <time>2021-02-12T07:31:55Z</time>
      </trkpt>
      <trkpt lat="47.47381" lon="-0.61418">
        <ele>49</ele>
        <time>2021-02-12T07:31:53Z</time>
      </trkpt>
      <trkpt lat="47.47384" lon="-0.61454">
        <ele>49</ele>
        <time>2021-02-12T07:31:49Z</time>
      </trkpt>
      <trkpt lat="47.47386" lon="-0.61474">
        <ele>49</ele>
        <time>2021-02-12T07:31:46Z</time>
      </trkpt>
      <trkpt lat="47.47389" lon="-0.61512">
        <ele>49</ele>
        <time>2021-02-12T07:31:42Z</time>
      </trkpt>
      <trkpt lat="47.4739" lon="-0.61523">
        <ele>49</ele>
        <time>2021-02-12T07:31:40Z</time>
      </trkpt>
      <trkpt lat="47.47401" lon="-0.61648">
        <ele>50</ele>
        <time>2021-02-12T07:31:25Z</time>
      </trkpt>
      <trkpt lat="47.47403" lon="-0.6168">
        <ele>50</ele>
        <time>2021-02-12T07:31:21Z</time>
      </trkpt>
      <trkpt lat="47.47408" lon="-0.61754">
        <ele>47</ele>
        <time>2021-02-12T07:31:13Z</time>
      </trkpt>
      <trkpt lat="47.47409" lon="-0.6178">
        <ele>48</ele>
        <time>2021-02-12T07:31:09Z</time>
      </trkpt>
      <trkpt lat="47.47409" lon="-0.61781">
        <ele>48</ele>
        <time>2021-02-12T07:31:09Z</time>
      </trkpt>
      <trkpt lat="47.4741" lon="-0.61794">
        <ele>48</ele>
        <time>2021-02-12T07:31:08Z</time>
      </trkpt>
      <trkpt lat="47.47411" lon="-0.61831">
        <ele>48</ele>
        <time>2021-02-12T07:31:03Z</time>
      </trkpt>
      <trkpt lat="47.47411" lon="-0.61859">
        <ele>49</ele>
        <time>2021-02-12T07:31:00Z</time>
      </trkpt>
      <trkpt lat="47.47417" lon="-0.61859">
        <ele>49</ele>
        <time>2021-02-12T07:30:59Z</time>
      </trkpt>
      <trkpt lat="47.47422" lon="-0.61859">
        <ele>49</ele>
        <time>2021-02-12T07:30:58Z</time>
      </trkpt>
      <trkpt lat="47.47429" lon="-0.61854">
        <ele>48</ele>
        <time>2021-02-12T07:30:57Z</time>
      </trkpt>
      <trkpt lat="47.47441" lon="-0.61847">
        <ele>48</ele>
        <time>2021-02-12T07:30:54Z</time>
      </trkpt>
      <trkpt lat="47.47454" lon="-0.61843">
        <ele>48</ele>
        <time>2021-02-12T07:30:52Z</time>
      </trkpt>
      <trkpt lat="47.47477" lon="-0.61848">
        <ele>48</ele>
        <time>2021-02-12T07:30:48Z</time>
      </trkpt>
      <trkpt lat="47.47494" lon="-0.61861">
        <ele>47</ele>
        <time>2021-02-12T07:30:44Z</time>
      </trkpt>
      <trkpt lat="47.47509" lon="-0.61882">
        <ele>47</ele>
        <time>2021-02-12T07:30:41Z</time>
      </trkpt>
      <trkpt lat="47.47519" lon="-0.61907">
        <ele>47</ele>
        <time>2021-02-12T07:30:37Z</time>
      </trkpt>
      <trkpt lat="47.47522" lon="-0.61931">
        <ele>47</ele>
        <time>2021-02-12T07:30:34Z</time>
      </trkpt>
      <trkpt lat="47.47522" lon="-0.61969">
        <ele>47</ele>
        <time>2021-02-12T07:30:30Z</time>
      </trkpt>
      <trkpt lat="47.47521" lon="-0.61986">
        <ele>47</ele>
        <time>2021-02-12T07:30:28Z</time>
      </trkpt>
      <trkpt lat="47.47516" lon="-0.62007">
        <ele>47</ele>
        <time>2021-02-12T07:30:25Z</time>
      </trkpt>
      <trkpt lat="47.47505" lon="-0.6203">
        <ele>48</ele>
        <time>2021-02-12T07:30:22Z</time>
      </trkpt>
      <trkpt lat="47.47533" lon="-0.62063">
        <ele>47</ele>
        <time>2021-02-12T07:30:15Z</time>
      </trkpt>
      <trkpt lat="47.47548" lon="-0.62073">
        <ele>47</ele>
        <time>2021-02-12T07:30:12Z</time>
      </trkpt>
      <trkpt lat="47.47599" lon="-0.62084">
        <ele>46</ele>
        <time>2021-02-12T07:30:03Z</time>
      </trkpt>
      <trkpt lat="47.47632" lon="-0.62095">
        <ele>45</ele>
        <time>2021-02-12T07:29:57Z</time>
      </trkpt>
      <trkpt lat="47.47741" lon="-0.62145">
        <ele>46</ele>
        <time>2021-02-12T07:29:37Z</time>
      </trkpt>
      <trkpt lat="47.47956" lon="-0.62222">
        <ele>41</ele>
        <time>2021-02-12T07:28:57Z</time>
      </trkpt>
      <trkpt lat="47.47971" lon="-0.62231">
        <ele>40</ele>
        <time>2021-02-12T07:28:54Z</time>
      </trkpt>
      <trkpt lat="47.47981" lon="-0.62243">
        <ele>40</ele>
        <time>2021-02-12T07:28:52Z</time>
      </trkpt>
      <trkpt lat="47.4799" lon="-0.6226">
        <ele>40</ele>
        <time>2021-02-12T07:28:50Z</time>
      </trkpt>
      <trkpt lat="47.48005" lon="-0.62296">
        <ele>40</ele>
        <time>2021-02-12T07:28:45Z</time>
      </trkpt>
      <trkpt lat="47.48088" lon="-0.62487">
        <ele>43</ele>
        <time>2021-02-12T07:28:17Z</time>
      </trkpt>
      <trkpt lat="47.48123" lon="-0.62573">
        <ele>44</ele>
        <time>2021-02-12T07:28:05Z</time>
      </trkpt>
      <trkpt lat="47.48167" lon="-0.62739">
        <ele>46</ele>
        <time>2021-02-12T07:27:44Z</time>
      </trkpt>
      <trkpt lat="47.48161" lon="-0.62757">
        <ele>46</ele>
        <time>2021-02-12T07:27:41Z</time>
      </trkpt>
      <trkpt lat="47.48158" lon="-0.62761">
        <ele>47</ele>
        <time>2021-02-12T07:27:41Z</time>
      </trkpt>
      <trkpt lat="47.48158" lon="-0.62767">
        <ele>47</ele>
        <time>2021-02-12T07:27:40Z</time>
      </trkpt>
      <trkpt lat="47.4816" lon="-0.62771">
        <ele>47</ele>
        <time>2021-02-12T07:27:39Z</time>
      </trkpt>
      <trkpt lat="47.48177" lon="-0.62787">
        <ele>47</ele>
        <time>2021-02-12T07:27:36Z</time>
      </trkpt>
      <trkpt lat="47.48186" lon="-0.6281">
        <ele>48</ele>
        <time>2021-02-12T07:27:32Z</time>
      </trkpt>
      <trkpt lat="47.48196" lon="-0.6285">
        <ele>49</ele>
        <time>2021-02-12T07:27:27Z</time>
      </trkpt>
      <trkpt lat="47.4823" lon="-0.63025">
        <ele>49</ele>
        <time>2021-02-12T07:27:05Z</time>
      </trkpt>
      <trkpt lat="47.48244" lon="-0.63121">
        <ele>48</ele>
        <time>2021-02-12T07:26:54Z</time>
      </trkpt>
      <trkpt lat="47.48246" lon="-0.63146">
        <ele>48</ele>
        <time>2021-02-12T07:26:51Z</time>
      </trkpt>
      <trkpt lat="47.4827" lon="-0.63157">
        <ele>48</ele>
        <time>2021-02-12T07:26:46Z</time>
      </trkpt>
      <trkpt lat="47.48282" lon="-0.6317">
        <ele>48</ele>
        <time>2021-02-12T07:26:43Z</time>
      </trkpt>
      <trkpt lat="47.48284" lon="-0.63177">
        <ele>48</ele>
        <time>2021-02-12T07:26:43Z</time>
      </trkpt>
      <trkpt lat="47.48288" lon="-0.63185">
        <ele>48</ele>
        <time>2021-02-12T07:26:41Z</time>
      </trkpt>
      <trkpt lat="47.48295" lon="-0.63192">
        <ele>48</ele>
        <time>2021-02-12T07:26:40Z</time>
      </trkpt>
      <trkpt lat="47.48298" lon="-0.63194">
        <ele>48</ele>
        <time>2021-02-12T07:26:39Z</time>
      </trkpt>
      <trkpt lat="47.48301" lon="-0.632">
        <ele>48</ele>
        <time>2021-02-12T07:26:38Z</time>
      </trkpt>
      <trkpt lat="47.48304" lon="-0.63207">
        <ele>48</ele>
        <time>2021-02-12T07:26:37Z</time>
      </trkpt>
      <trkpt lat="47.48306" lon="-0.63217">
        <ele>48</ele>
        <time>2021-02-12T07:26:36Z</time>
      </trkpt>
      <trkpt lat="47.48308" lon="-0.63228">
        <ele>48</ele>
        <time>2021-02-12T07:26:35Z</time>
      </trkpt>
      <trkpt lat="47.4831" lon="-0.63239">
        <ele>48</ele>
        <time>2021-02-12T07:26:33Z</time>
      </trkpt>
      <trkpt lat="47.48315" lon="-0.63269">
        <ele>48</ele>
        <time>2021-02-12T07:26:30Z</time>
      </trkpt>
      <trkpt lat="47.48348" lon="-0.637">
        <ele>43</ele>
        <time>2021-02-12T07:25:38Z</time>
      </trkpt>
      <trkpt lat="47.48353" lon="-0.6381">
        <ele>41</ele>
        <time>2021-02-12T07:25:24Z</time>
      </trkpt>
      <trkpt lat="47.48357" lon="-0.64035">
        <ele>41</ele>
        <time>2021-02-12T07:24:57Z</time>
      </trkpt>
      <trkpt lat="47.48359" lon="-0.6406">
        <ele>41</ele>
        <time>2021-02-12T07:24:54Z</time>
      </trkpt>
      <trkpt lat="47.48367" lon="-0.64106">
        <ele>39</ele>
        <time>2021-02-12T07:24:48Z</time>
      </trkpt>
      <trkpt lat="47.48478" lon="-0.64463">
        <ele>40</ele>
        <time>2021-02-12T07:24:01Z</time>
      </trkpt>
      <trkpt lat="47.48503" lon="-0.64552">
        <ele>42</ele>
        <time>2021-02-12T07:23:50Z</time>
      </trkpt>
      <trkpt lat="47.48615" lon="-0.65071">
        <ele>55</ele>
        <time>2021-02-12T07:22:44Z</time>
      </trkpt>
      <trkpt lat="47.48651" lon="-0.65226">
        <ele>60</ele>
        <time>2021-02-12T07:22:24Z</time>
      </trkpt>
      <trkpt lat="47.48687" lon="-0.65324">
        <ele>62</ele>
        <time>2021-02-12T07:22:11Z</time>
      </trkpt>
      <trkpt lat="47.48696" lon="-0.65353">
        <ele>63</ele>
        <time>2021-02-12T07:22:07Z</time>
      </trkpt>
      <trkpt lat="47.48702" lon="-0.65383">
        <ele>63</ele>
        <time>2021-02-12T07:22:03Z</time>
      </trkpt>
      <trkpt lat="47.48705" lon="-0.65412">
        <ele>63</ele>
        <time>2021-02-12T07:22:00Z</time>
      </trkpt>
      <trkpt lat="47.48706" lon="-0.65432">
        <ele>63</ele>
        <time>2021-02-12T07:21:57Z</time>
      </trkpt>
      <trkpt lat="47.48703" lon="-0.65475">
        <ele>63</ele>
        <time>2021-02-12T07:21:52Z</time>
      </trkpt>
      <trkpt lat="47.48695" lon="-0.65512">
        <ele>63</ele>
        <time>2021-02-12T07:21:48Z</time>
      </trkpt>
      <trkpt lat="47.48663" lon="-0.65614">
        <ele>62</ele>
        <time>2021-02-12T07:21:34Z</time>
      </trkpt>
      <trkpt lat="47.48655" lon="-0.65663">
        <ele>62</ele>
        <time>2021-02-12T07:21:28Z</time>
      </trkpt>
      <trkpt lat="47.48654" lon="-0.65688">
        <ele>61</ele>
        <time>2021-02-12T07:21:25Z</time>
      </trkpt>
      <trkpt lat="47.48659" lon="-0.65737">
        <ele>59</ele>
        <time>2021-02-12T07:21:19Z</time>
      </trkpt>
      <trkpt lat="47.48701" lon="-0.65966">
        <ele>57</ele>
        <time>2021-02-12T07:20:51Z</time>
      </trkpt>
      <trkpt lat="47.48706" lon="-0.66002">
        <ele>57</ele>
        <time>2021-02-12T07:20:46Z</time>
      </trkpt>
      <trkpt lat="47.48714" lon="-0.66082">
        <ele>58</ele>
        <time>2021-02-12T07:20:36Z</time>
      </trkpt>
      <trkpt lat="47.48715" lon="-0.6617">
        <ele>59</ele>
        <time>2021-02-12T07:20:26Z</time>
      </trkpt>
      <trkpt lat="47.48711" lon="-0.66199">
        <ele>61</ele>
        <time>2021-02-12T07:20:22Z</time>
      </trkpt>
      <trkpt lat="47.48709" lon="-0.66206">
        <ele>61</ele>
        <time>2021-02-12T07:20:21Z</time>
      </trkpt>
      <trkpt lat="47.48703" lon="-0.66215">
        <ele>61</ele>
        <time>2021-02-12T07:20:20Z</time>
      </trkpt>
      <trkpt lat="47.48702" lon="-0.6622">
        <ele>61</ele>
        <time>2021-02-12T07:20:19Z</time>
      </trkpt>
      <trkpt lat="47.48703" lon="-0.66234">
        <ele>62</ele>
        <time>2021-02-12T07:20:17Z</time>
      </trkpt>
      <trkpt lat="47.48714" lon="-0.66253">
        <ele>64</ele>
        <time>2021-02-12T07:20:14Z</time>
      </trkpt>
      <trkpt lat="47.48724" lon="-0.66292">
        <ele>64</ele>
        <time>2021-02-12T07:20:09Z</time>
      </trkpt>
      <trkpt lat="47.48758" lon="-0.66499">
        <ele>57</ele>
        <time>2021-02-12T07:19:44Z</time>
      </trkpt>
      <trkpt lat="47.48801" lon="-0.66777">
        <ele>53</ele>
        <time>2021-02-12T07:19:10Z</time>
      </trkpt>
      <trkpt lat="47.48805" lon="-0.66831">
        <ele>52</ele>
        <time>2021-02-12T07:19:03Z</time>
      </trkpt>
      <trkpt lat="47.48807" lon="-0.66973">
        <ele>53</ele>
        <time>2021-02-12T07:18:46Z</time>
      </trkpt>
      <trkpt lat="47.48812" lon="-0.67011">
        <ele>53</ele>
        <time>2021-02-12T07:18:41Z</time>
      </trkpt>
      <trkpt lat="47.48823" lon="-0.67053">
        <ele>52</ele>
        <time>2021-02-12T07:18:36Z</time>
      </trkpt>
      <trkpt lat="47.48842" lon="-0.67096">
        <ele>52</ele>
        <time>2021-02-12T07:18:30Z</time>
      </trkpt>
      <trkpt lat="47.48978" lon="-0.67355">
        <ele>49</ele>
        <time>2021-02-12T07:17:50Z</time>
      </trkpt>
      <trkpt lat="47.49078" lon="-0.67552">
        <ele>50</ele>
        <time>2021-02-12T07:17:21Z</time>
      </trkpt>
      <trkpt lat="47.49131" lon="-0.67643">
        <ele>51</ele>
        <time>2021-02-12T07:17:06Z</time>
      </trkpt>
      <trkpt lat="47.49149" lon="-0.67667">
        <ele>52</ele>
        <time>2021-02-12T07:17:02Z</time>
      </trkpt>
      <trkpt lat="47.49172" lon="-0.67689">
        <ele>53</ele>
        <time>2021-02-12T07:16:57Z</time>
      </trkpt>
      <trkpt lat="47.49196" lon="-0.67706">
        <ele>53</ele>
        <time>2021-02-12T07:16:52Z</time>
      </trkpt>
      <trkpt lat="47.4921" lon="-0.67714">
        <ele>53</ele>
        <time>2021-02-12T07:16:50Z</time>
      </trkpt>
      <trkpt lat="47.49245" lon="-0.67725">
        <ele>53</ele>
        <time>2021-02-12T07:16:43Z</time>
      </trkpt>
      <trkpt lat="47.49336" lon="-0.67744">
        <ele>51</ele>
        <time>2021-02-12T07:16:27Z</time>
      </trkpt>
      <trkpt lat="47.49365" lon="-0.67759">
        <ele>52</ele>
        <time>2021-02-12T07:16:21Z</time>
      </trkpt>
      <trkpt lat="47.49528" lon="-0.67914">
        <ele>54</ele>
        <time>2021-02-12T07:15:47Z</time>
      </trkpt>
      <trkpt lat="47.49741" lon="-0.68111">
        <ele>56</ele>
        <time>2021-02-12T07:15:02Z</time>
      </trkpt>
      <trkpt lat="47.49849" lon="-0.68207">
        <ele>58</ele>
        <time>2021-02-12T07:14:40Z</time>
      </trkpt>
      <trkpt lat="47.49867" lon="-0.68226">
        <ele>58</ele>
        <time>2021-02-12T07:14:36Z</time>
      </trkpt>
      <trkpt lat="47.49894" lon="-0.68264">
        <ele>58</ele>
        <time>2021-02-12T07:14:29Z</time>
      </trkpt>
      <trkpt lat="47.49975" lon="-0.68392">
        <ele>58</ele>
        <time>2021-02-12T07:14:08Z</time>
      </trkpt>
      <trkpt lat="47.50264" lon="-0.68929">
        <ele>66</ele>
        <time>2021-02-12T07:12:46Z</time>
      </trkpt>
      <trkpt lat="47.50274" lon="-0.68951">
        <ele>66</ele>
        <time>2021-02-12T07:12:42Z</time>
      </trkpt>
      <trkpt lat="47.50317" lon="-0.69057">
        <ele>65</ele>
        <time>2021-02-12T07:12:28Z</time>
      </trkpt>
      <trkpt lat="47.50327" lon="-0.69091">
        <ele>64</ele>
        <time>2021-02-12T07:12:23Z</time>
      </trkpt>
      <trkpt lat="47.50344" lon="-0.69202">
        <ele>63</ele>
        <time>2021-02-12T07:12:09Z</time>
      </trkpt>
      <trkpt lat="47.5035" lon="-0.69265">
        <ele>62</ele>
        <time>2021-02-12T07:12:02Z</time>
      </trkpt>
      <trkpt lat="47.50353" lon="-0.69322">
        <ele>62</ele>
        <time>2021-02-12T07:11:55Z</time>
      </trkpt>
      <trkpt lat="47.50364" lon="-0.69684">
        <ele>61</ele>
        <time>2021-02-12T07:11:11Z</time>
      </trkpt>
      <trkpt lat="47.50366" lon="-0.69722">
        <ele>61</ele>
        <time>2021-02-12T07:11:07Z</time>
      </trkpt>
      <trkpt lat="47.50381" lon="-0.6983">
        <ele>60</ele>
        <time>2021-02-12T07:10:54Z</time>
      </trkpt>
      <trkpt lat="47.50412" lon="-0.69979">
        <ele>58</ele>
        <time>2021-02-12T07:10:35Z</time>
      </trkpt>
      <trkpt lat="47.50484" lon="-0.70302">
        <ele>59</ele>
        <time>2021-02-12T07:09:54Z</time>
      </trkpt>
      <trkpt lat="47.50507" lon="-0.70381">
        <ele>59</ele>
        <time>2021-02-12T07:09:44Z</time>
      </trkpt>
      <trkpt lat="47.50524" lon="-0.70426">
        <ele>58</ele>
        <time>2021-02-12T07:09:37Z</time>
      </trkpt>
      <trkpt lat="47.50638" lon="-0.70701">
        <ele>60</ele>
        <time>2021-02-12T07:08:59Z</time>
      </trkpt>
      <trkpt lat="47.50766" lon="-0.71006">
        <ele>62</ele>
        <time>2021-02-12T07:08:15Z</time>
      </trkpt>
      <trkpt lat="47.5078" lon="-0.71054">
        <ele>62</ele>
        <time>2021-02-12T07:08:09Z</time>
      </trkpt>
      <trkpt lat="47.50803" lon="-0.71165">
        <ele>63</ele>
        <time>2021-02-12T07:07:55Z</time>
      </trkpt>
      <trkpt lat="47.50817" lon="-0.71213">
        <ele>62</ele>
        <time>2021-02-12T07:07:49Z</time>
      </trkpt>
      <trkpt lat="47.50877" lon="-0.71386">
        <ele>62</ele>
        <time>2021-02-12T07:07:26Z</time>
      </trkpt>
      <trkpt lat="47.5091" lon="-0.715">
        <ele>61</ele>
        <time>2021-02-12T07:07:11Z</time>
      </trkpt>
      <trkpt lat="47.50925" lon="-0.7154">
        <ele>61</ele>
        <time>2021-02-12T07:07:05Z</time>
      </trkpt>
      <trkpt lat="47.50976" lon="-0.71648">
        <ele>58</ele>
        <time>2021-02-12T07:06:49Z</time>
      </trkpt>
      <trkpt lat="47.50991" lon="-0.71686">
        <ele>57</ele>
        <time>2021-02-12T07:06:44Z</time>
      </trkpt>
      <trkpt lat="47.51107" lon="-0.72021">
        <ele>55</ele>
        <time>2021-02-12T07:05:59Z</time>
      </trkpt>
      <trkpt lat="47.51134" lon="-0.72131">
        <ele>54</ele>
        <time>2021-02-12T07:05:45Z</time>
      </trkpt>
      <trkpt lat="47.51179" lon="-0.72353">
        <ele>56</ele>
        <time>2021-02-12T07:05:17Z</time>
      </trkpt>
      <trkpt lat="47.51211" lon="-0.72521">
        <ele>56</ele>
        <time>2021-02-12T07:04:56Z</time>
      </trkpt>
      <trkpt lat="47.51255" lon="-0.72653">
        <ele>56</ele>
        <time>2021-02-12T07:04:38Z</time>
      </trkpt>
      <trkpt lat="47.51275" lon="-0.72703">
        <ele>56</ele>
        <time>2021-02-12T07:04:31Z</time>
      </trkpt>
      <trkpt lat="47.51299" lon="-0.72755">
        <ele>56</ele>
        <time>2021-02-12T07:04:24Z</time>
      </trkpt>
      <trkpt lat="47.51326" lon="-0.72806">
        <ele>56</ele>
        <time>2021-02-12T07:04:16Z</time>
      </trkpt>
      <trkpt lat="47.51468" lon="-0.73039">
        <ele>55</ele>
        <time>2021-02-12T07:03:38Z</time>
      </trkpt>
      <trkpt lat="47.51484" lon="-0.73068">
        <ele>55</ele>
        <time>2021-02-12T07:03:34Z</time>
      </trkpt>
      <trkpt lat="47.51525" lon="-0.7315">
        <ele>56</ele>
        <time>2021-02-12T07:03:21Z</time>
      </trkpt>
      <trkpt lat="47.51563" lon="-0.73234">
        <ele>57</ele>
        <time>2021-02-12T07:03:09Z</time>
      </trkpt>
      <trkpt lat="47.5165" lon="-0.73457">
        <ele>58</ele>
        <time>2021-02-12T07:02:38Z</time>
      </trkpt>
      <trkpt lat="47.51677" lon="-0.73515">
        <ele>58</ele>
        <time>2021-02-12T07:02:30Z</time>
      </trkpt>
      <trkpt lat="47.51703" lon="-0.73556">
        <ele>58</ele>
        <time>2021-02-12T07:02:23Z</time>
      </trkpt>
      <trkpt lat="47.51751" lon="-0.73617">
        <ele>59</ele>
        <time>2021-02-12T07:02:12Z</time>
      </trkpt>
      <trkpt lat="47.51768" lon="-0.73644">
        <ele>60</ele>
        <time>2021-02-12T07:02:07Z</time>
      </trkpt>
      <trkpt lat="47.51778" lon="-0.73669">
        <ele>60</ele>
        <time>2021-02-12T07:02:04Z</time>
      </trkpt>
      <trkpt lat="47.51819" lon="-0.73803">
        <ele>59</ele>
        <time>2021-02-12T07:01:46Z</time>
      </trkpt>
      <trkpt lat="47.51845" lon="-0.73877">
        <ele>59</ele>
        <time>2021-02-12T07:01:36Z</time>
      </trkpt>
      <trkpt lat="47.51855" lon="-0.739">
        <ele>59</ele>
        <time>2021-02-12T07:01:33Z</time>
      </trkpt>
      <trkpt lat="47.51874" lon="-0.73928">
        <ele>59</ele>
        <time>2021-02-12T07:01:28Z</time>
      </trkpt>
      <trkpt lat="47.51901" lon="-0.73956">
        <ele>59</ele>
        <time>2021-02-12T07:01:22Z</time>
      </trkpt>
      <trkpt lat="47.51942" lon="-0.73992">
        <ele>58</ele>
        <time>2021-02-12T07:01:14Z</time>
      </trkpt>
      <trkpt lat="47.52132" lon="-0.74142">
        <ele>52</ele>
        <time>2021-02-12T07:00:35Z</time>
      </trkpt>
      <trkpt lat="47.52254" lon="-0.74237">
        <ele>52</ele>
        <time>2021-02-12T07:00:11Z</time>
      </trkpt>
      <trkpt lat="47.52266" lon="-0.7425">
        <ele>52</ele>
        <time>2021-02-12T07:00:08Z</time>
      </trkpt>
      <trkpt lat="47.52266" lon="-0.74262">
        <ele>53</ele>
        <time>2021-02-12T07:00:07Z</time>
      </trkpt>
      <trkpt lat="47.5227" lon="-0.74266">
        <ele>53</ele>
        <time>2021-02-12T07:00:06Z</time>
      </trkpt>
      <trkpt lat="47.52276" lon="-0.74266">
        <ele>53</ele>
        <time>2021-02-12T07:00:05Z</time>
      </trkpt>
      <trkpt lat="47.52284" lon="-0.74286">
        <ele>53</ele>
        <time>2021-02-12T07:00:02Z</time>
      </trkpt>
      <trkpt lat="47.52296" lon="-0.74306">
        <ele>54</ele>
        <time>2021-02-12T06:59:59Z</time>
      </trkpt>
      <trkpt lat="47.52395" lon="-0.74425">
        <ele>60</ele>
        <time>2021-02-12T06:59:36Z</time>
      </trkpt>
      <trkpt lat="47.52438" lon="-0.74456">
        <ele>62</ele>
        <time>2021-02-12T06:59:28Z</time>
      </trkpt>
      <trkpt lat="47.52467" lon="-0.74495">
        <ele>63</ele>
        <time>2021-02-12T06:59:21Z</time>
      </trkpt>
      <trkpt lat="47.52476" lon="-0.74511">
        <ele>64</ele>
        <time>2021-02-12T06:59:18Z</time>
      </trkpt>
      <trkpt lat="47.52482" lon="-0.74534">
        <ele>64</ele>
        <time>2021-02-12T06:59:15Z</time>
      </trkpt>
      <trkpt lat="47.52488" lon="-0.7458">
        <ele>65</ele>
        <time>2021-02-12T06:59:10Z</time>
      </trkpt>
      <trkpt lat="47.52491" lon="-0.74593">
        <ele>65</ele>
        <time>2021-02-12T06:59:08Z</time>
      </trkpt>
      <trkpt lat="47.52548" lon="-0.74593">
        <ele>65</ele>
        <time>2021-02-12T06:58:58Z</time>
      </trkpt>
      <trkpt lat="47.52571" lon="-0.74602">
        <ele>65</ele>
        <time>2021-02-12T06:58:54Z</time>
      </trkpt>
      <trkpt lat="47.52585" lon="-0.74611">
        <ele>65</ele>
        <time>2021-02-12T06:58:51Z</time>
      </trkpt>
      <trkpt lat="47.526" lon="-0.74624">
        <ele>64</ele>
        <time>2021-02-12T06:58:48Z</time>
      </trkpt>
      <trkpt lat="47.52614" lon="-0.74649">
        <ele>64</ele>
        <time>2021-02-12T06:58:44Z</time>
      </trkpt>
      <trkpt lat="47.52622" lon="-0.74667">
        <ele>64</ele>
        <time>2021-02-12T06:58:41Z</time>
      </trkpt>
      <trkpt lat="47.52644" lon="-0.74738">
        <ele>63</ele>
        <time>2021-02-12T06:58:32Z</time>
      </trkpt>
      <trkpt lat="47.5267" lon="-0.74779">
        <ele>63</ele>
        <time>2021-02-12T06:58:25Z</time>
      </trkpt>
      <trkpt lat="47.52816" lon="-0.74995">
        <ele>66</ele>
        <time>2021-02-12T06:57:48Z</time>
      </trkpt>
      <trkpt lat="47.52833" lon="-0.75023">
        <ele>67</ele>
        <time>2021-02-12T06:57:44Z</time>
      </trkpt>
      <trkpt lat="47.5285" lon="-0.75062">
        <ele>67</ele>
        <time>2021-02-12T06:57:38Z</time>
      </trkpt>
      <trkpt lat="47.52869" lon="-0.75127">
        <ele>67</ele>
        <time>2021-02-12T06:57:30Z</time>
      </trkpt>
      <trkpt lat="47.5289" lon="-0.75206">
        <ele>68</ele>
        <time>2021-02-12T06:57:20Z</time>
      </trkpt>
      <trkpt lat="47.52894" lon="-0.75239">
        <ele>69</ele>
        <time>2021-02-12T06:57:16Z</time>
      </trkpt>
      <trkpt lat="47.5289" lon="-0.75245">
        <ele>69</ele>
        <time>2021-02-12T06:57:15Z</time>
      </trkpt>
      <trkpt lat="47.5289" lon="-0.75251">
        <ele>69</ele>
        <time>2021-02-12T06:57:14Z</time>
      </trkpt>
      <trkpt lat="47.52893" lon="-0.75255">
        <ele>69</ele>
        <time>2021-02-12T06:57:13Z</time>
      </trkpt>
      <trkpt lat="47.52899" lon="-0.75255">
        <ele>69</ele>
        <time>2021-02-12T06:57:12Z</time>
      </trkpt>
      <trkpt lat="47.52907" lon="-0.75273">
        <ele>69</ele>
        <time>2021-02-12T06:57:10Z</time>
      </trkpt>
      <trkpt lat="47.5291" lon="-0.75286">
        <ele>69</ele>
        <time>2021-02-12T06:57:08Z</time>
      </trkpt>
      <trkpt lat="47.52921" lon="-0.75328">
        <ele>69</ele>
        <time>2021-02-12T06:57:02Z</time>
      </trkpt>
      <trkpt lat="47.5293" lon="-0.75372">
        <ele>69</ele>
        <time>2021-02-12T06:56:57Z</time>
      </trkpt>
      <trkpt lat="47.52963" lon="-0.75651">
        <ele>68</ele>
        <time>2021-02-12T06:56:23Z</time>
      </trkpt>
      <trkpt lat="47.52971" lon="-0.75696">
        <ele>68</ele>
        <time>2021-02-12T06:56:17Z</time>
      </trkpt>
      <trkpt lat="47.52982" lon="-0.75733">
        <ele>69</ele>
        <time>2021-02-12T06:56:12Z</time>
      </trkpt>
      <trkpt lat="47.53112" lon="-0.7606">
        <ele>69</ele>
        <time>2021-02-12T06:55:27Z</time>
      </trkpt>
      <trkpt lat="47.5312" lon="-0.76088">
        <ele>69</ele>
        <time>2021-02-12T06:55:23Z</time>
      </trkpt>
      <trkpt lat="47.53127" lon="-0.76121">
        <ele>68</ele>
        <time>2021-02-12T06:55:19Z</time>
      </trkpt>
      <trkpt lat="47.53131" lon="-0.76153">
        <ele>68</ele>
        <time>2021-02-12T06:55:15Z</time>
      </trkpt>
      <trkpt lat="47.53171" lon="-0.77057">
        <ele>70</ele>
        <time>2021-02-12T06:53:26Z</time>
      </trkpt>
      <trkpt lat="47.53179" lon="-0.77114">
        <ele>71</ele>
        <time>2021-02-12T06:53:19Z</time>
      </trkpt>
      <trkpt lat="47.53189" lon="-0.77158">
        <ele>71</ele>
        <time>2021-02-12T06:53:14Z</time>
      </trkpt>
      <trkpt lat="47.53246" lon="-0.77361">
        <ele>70</ele>
        <time>2021-02-12T06:52:47Z</time>
      </trkpt>
      <trkpt lat="47.53256" lon="-0.77394">
        <ele>70</ele>
        <time>2021-02-12T06:52:43Z</time>
      </trkpt>
      <trkpt lat="47.53265" lon="-0.77414">
        <ele>71</ele>
        <time>2021-02-12T06:52:40Z</time>
      </trkpt>
      <trkpt lat="47.5328" lon="-0.77439">
        <ele>70</ele>
        <time>2021-02-12T06:52:36Z</time>
      </trkpt>
      <trkpt lat="47.53296" lon="-0.77459">
        <ele>70</ele>
        <time>2021-02-12T06:52:32Z</time>
      </trkpt>
      <trkpt lat="47.5332" lon="-0.77479">
        <ele>70</ele>
        <time>2021-02-12T06:52:27Z</time>
      </trkpt>
      <trkpt lat="47.53341" lon="-0.7749">
        <ele>70</ele>
        <time>2021-02-12T06:52:24Z</time>
      </trkpt>
      <trkpt lat="47.53468" lon="-0.77537">
        <ele>66</ele>
        <time>2021-02-12T06:52:00Z</time>
      </trkpt>
      <trkpt lat="47.53487" lon="-0.77552">
        <ele>66</ele>
        <time>2021-02-12T06:51:56Z</time>
      </trkpt>
      <trkpt lat="47.53499" lon="-0.77566">
        <ele>66</ele>
        <time>2021-02-12T06:51:54Z</time>
      </trkpt>
      <trkpt lat="47.53514" lon="-0.77588">
        <ele>66</ele>
        <time>2021-02-12T06:51:50Z</time>
      </trkpt>
      <trkpt lat="47.53523" lon="-0.77608">
        <ele>66</ele>
        <time>2021-02-12T06:51:47Z</time>
      </trkpt>
      <trkpt lat="47.53598" lon="-0.7784">
        <ele>68</ele>
        <time>2021-02-12T06:51:16Z</time>
      </trkpt>
      <trkpt lat="47.53619" lon="-0.77894">
        <ele>68</ele>
        <time>2021-02-12T06:51:09Z</time>
      </trkpt>
      <trkpt lat="47.53637" lon="-0.77932">
        <ele>68</ele>
        <time>2021-02-12T06:51:03Z</time>
      </trkpt>
      <trkpt lat="47.53706" lon="-0.7806">
        <ele>68</ele>
        <time>2021-02-12T06:50:43Z</time>
      </trkpt>
      <trkpt lat="47.53726" lon="-0.78099">
        <ele>68</ele>
        <time>2021-02-12T06:50:38Z</time>
      </trkpt>
      <trkpt lat="47.53739" lon="-0.78133">
        <ele>69</ele>
        <time>2021-02-12T06:50:33Z</time>
      </trkpt>
      <trkpt lat="47.53783" lon="-0.78279">
        <ele>67</ele>
        <time>2021-02-12T06:50:14Z</time>
      </trkpt>
      <trkpt lat="47.53847" lon="-0.78504">
        <ele>61</ele>
        <time>2021-02-12T06:49:44Z</time>
      </trkpt>
      <trkpt lat="47.53857" lon="-0.78526">
        <ele>62</ele>
        <time>2021-02-12T06:49:41Z</time>
      </trkpt>
      <trkpt lat="47.53866" lon="-0.78543">
        <ele>62</ele>
        <time>2021-02-12T06:49:39Z</time>
      </trkpt>
      <trkpt lat="47.53878" lon="-0.78556">
        <ele>61</ele>
        <time>2021-02-12T06:49:36Z</time>
      </trkpt>
      <trkpt lat="47.53891" lon="-0.78564">
        <ele>61</ele>
        <time>2021-02-12T06:49:33Z</time>
      </trkpt>
      <trkpt lat="47.53913" lon="-0.7857">
        <ele>60</ele>
        <time>2021-02-12T06:49:29Z</time>
      </trkpt>
      <trkpt lat="47.53978" lon="-0.78576">
        <ele>57</ele>
        <time>2021-02-12T06:49:18Z</time>
      </trkpt>
      <trkpt lat="47.54011" lon="-0.78586">
        <ele>56</ele>
        <time>2021-02-12T06:49:12Z</time>
      </trkpt>
      <trkpt lat="47.54124" lon="-0.78655">
        <ele>55</ele>
        <time>2021-02-12T06:48:50Z</time>
      </trkpt>
      <trkpt lat="47.54178" lon="-0.78694">
        <ele>56</ele>
        <time>2021-02-12T06:48:39Z</time>
      </trkpt>
      <trkpt lat="47.54478" lon="-0.78968">
        <ele>54</ele>
        <time>2021-02-12T06:47:37Z</time>
      </trkpt>
      <trkpt lat="47.54495" lon="-0.78989">
        <ele>54</ele>
        <time>2021-02-12T06:47:33Z</time>
      </trkpt>
      <trkpt lat="47.54619" lon="-0.79156">
        <ele>55</ele>
        <time>2021-02-12T06:47:03Z</time>
      </trkpt>
      <trkpt lat="47.5464" lon="-0.79175">
        <ele>55</ele>
        <time>2021-02-12T06:46:59Z</time>
      </trkpt>
      <trkpt lat="47.54657" lon="-0.79184">
        <ele>55</ele>
        <time>2021-02-12T06:46:55Z</time>
      </trkpt>
      <trkpt lat="47.54742" lon="-0.7921">
        <ele>57</ele>
        <time>2021-02-12T06:46:40Z</time>
      </trkpt>
      <trkpt lat="47.54759" lon="-0.79222">
        <ele>57</ele>
        <time>2021-02-12T06:46:37Z</time>
      </trkpt>
      <trkpt lat="47.54771" lon="-0.79232">
        <ele>57</ele>
        <time>2021-02-12T06:46:34Z</time>
      </trkpt>
      <trkpt lat="47.54783" lon="-0.79249">
        <ele>57</ele>
        <time>2021-02-12T06:46:31Z</time>
      </trkpt>
      <trkpt lat="47.54794" lon="-0.79268">
        <ele>58</ele>
        <time>2021-02-12T06:46:28Z</time>
      </trkpt>
      <trkpt lat="47.54825" lon="-0.79353">
        <ele>59</ele>
        <time>2021-02-12T06:46:16Z</time>
      </trkpt>
      <trkpt lat="47.5484" lon="-0.79385">
        <ele>60</ele>
        <time>2021-02-12T06:46:12Z</time>
      </trkpt>
      <trkpt lat="47.54863" lon="-0.79417">
        <ele>61</ele>
        <time>2021-02-12T06:46:06Z</time>
      </trkpt>
      <trkpt lat="47.54887" lon="-0.79446">
        <ele>61</ele>
        <time>2021-02-12T06:46:01Z</time>
      </trkpt>
      <trkpt lat="47.54944" lon="-0.79504">
        <ele>60</ele>
        <time>2021-02-12T06:45:48Z</time>
      </trkpt>
      <trkpt lat="47.54958" lon="-0.79529">
        <ele>61</ele>
        <time>2021-02-12T06:45:44Z</time>
      </trkpt>
      <trkpt lat="47.54969" lon="-0.79555">
        <ele>62</ele>
        <time>2021-02-12T06:45:41Z</time>
      </trkpt>
      <trkpt lat="47.54977" lon="-0.79583">
        <ele>63</ele>
        <time>2021-02-12T06:45:37Z</time>
      </trkpt>
      <trkpt lat="47.55065" lon="-0.79971">
        <ele>67</ele>
        <time>2021-02-12T06:44:48Z</time>
      </trkpt>
      <trkpt lat="47.55094" lon="-0.80088">
        <ele>65</ele>
        <time>2021-02-12T06:44:33Z</time>
      </trkpt>
      <trkpt lat="47.55104" lon="-0.80135">
        <ele>64</ele>
        <time>2021-02-12T06:44:27Z</time>
      </trkpt>
      <trkpt lat="47.55108" lon="-0.80181">
        <ele>64</ele>
        <time>2021-02-12T06:44:22Z</time>
      </trkpt>
      <trkpt lat="47.5511" lon="-0.80238">
        <ele>64</ele>
        <time>2021-02-12T06:44:15Z</time>
      </trkpt>
      <trkpt lat="47.55112" lon="-0.80351">
        <ele>66</ele>
        <time>2021-02-12T06:44:01Z</time>
      </trkpt>
      <trkpt lat="47.55112" lon="-0.80362">
        <ele>66</ele>
        <time>2021-02-12T06:44:00Z</time>
      </trkpt>
      <trkpt lat="47.55114" lon="-0.80382">
        <ele>66</ele>
        <time>2021-02-12T06:43:57Z</time>
      </trkpt>
      <trkpt lat="47.55115" lon="-0.80394">
        <ele>67</ele>
        <time>2021-02-12T06:43:56Z</time>
      </trkpt>
      <trkpt lat="47.55122" lon="-0.80445">
        <ele>67</ele>
        <time>2021-02-12T06:43:50Z</time>
      </trkpt>
      <trkpt lat="47.55122" lon="-0.80448">
        <ele>67</ele>
        <time>2021-02-12T06:43:49Z</time>
      </trkpt>
      <trkpt lat="47.55125" lon="-0.80463">
        <ele>67</ele>
        <time>2021-02-12T06:43:47Z</time>
      </trkpt>
      <trkpt lat="47.55132" lon="-0.80504">
        <ele>68</ele>
        <time>2021-02-12T06:43:42Z</time>
      </trkpt>
      <trkpt lat="47.55134" lon="-0.80512">
        <ele>68</ele>
        <time>2021-02-12T06:43:41Z</time>
      </trkpt>
      <trkpt lat="47.55147" lon="-0.80572">
        <ele>67</ele>
        <time>2021-02-12T06:43:34Z</time>
      </trkpt>
      <trkpt lat="47.55159" lon="-0.80631">
        <ele>69</ele>
        <time>2021-02-12T06:43:26Z</time>
      </trkpt>
      <trkpt lat="47.55177" lon="-0.80739">
        <ele>70</ele>
        <time>2021-02-12T06:43:13Z</time>
      </trkpt>
      <trkpt lat="47.55188" lon="-0.80809">
        <ele>70</ele>
        <time>2021-02-12T06:43:04Z</time>
      </trkpt>
      <trkpt lat="47.55196" lon="-0.80864">
        <ele>71</ele>
        <time>2021-02-12T06:42:58Z</time>
      </trkpt>
      <trkpt lat="47.55204" lon="-0.80918">
        <ele>72</ele>
        <time>2021-02-12T06:42:51Z</time>
      </trkpt>
      <trkpt lat="47.55203" lon="-0.80923">
        <ele>72</ele>
        <time>2021-02-12T06:42:50Z</time>
      </trkpt>
      <trkpt lat="47.55206" lon="-0.80924">
        <ele>72</ele>
        <time>2021-02-12T06:42:50Z</time>
      </trkpt>
      <trkpt lat="47.55226" lon="-0.80929">
        <ele>72</ele>
        <time>2021-02-12T06:42:46Z</time>
      </trkpt>
      <trkpt lat="47.55233" lon="-0.8093">
        <ele>72</ele>
        <time>2021-02-12T06:42:45Z</time>
      </trkpt>
      <trkpt lat="47.55239" lon="-0.80932">
        <ele>72</ele>
        <time>2021-02-12T06:42:44Z</time>
      </trkpt>
      <trkpt lat="47.55243" lon="-0.80933">
        <ele>72</ele>
        <time>2021-02-12T06:42:43Z</time>
      </trkpt>
      <trkpt lat="47.55244" lon="-0.80933">
        <ele>72</ele>
        <time>2021-02-12T06:42:43Z</time>
      </trkpt>
      <trkpt lat="47.55253" lon="-0.80935">
        <ele>72</ele>
        <time>2021-02-12T06:42:41Z</time>
      </trkpt>
      <trkpt lat="47.55265" lon="-0.80938">
        <ele>71</ele>
        <time>2021-02-12T06:42:39Z</time>
      </trkpt>
      <trkpt lat="47.55275" lon="-0.80941">
        <ele>71</ele>
        <time>2021-02-12T06:42:37Z</time>
      </trkpt>
      <trkpt lat="47.55302" lon="-0.80949">
        <ele>70</ele>
        <time>2021-02-12T06:42:32Z</time>
      </trkpt>
      <trkpt lat="47.55306" lon="-0.80953">
        <ele>69</ele>
        <time>2021-02-12T06:42:32Z</time>
      </trkpt>
      <trkpt lat="47.55364" lon="-0.81061">
        <ele>69</ele>
        <time>2021-02-12T06:42:15Z</time>
      </trkpt>
      <trkpt lat="47.55378" lon="-0.81081">
        <ele>69</ele>
        <time>2021-02-12T06:42:12Z</time>
      </trkpt>
      <trkpt lat="47.55394" lon="-0.81092">
        <ele>70</ele>
        <time>2021-02-12T06:42:08Z</time>
      </trkpt>
      <trkpt lat="47.55709" lon="-0.81254">
        <ele>69</ele>
        <time>2021-02-12T06:41:09Z</time>
      </trkpt>
      <trkpt lat="47.5567" lon="-0.81543">
        <ele>70</ele>
        <time>2021-02-12T06:40:34Z</time>
      </trkpt>
      <trkpt lat="47.55618" lon="-0.81935">
        <ele>67</ele>
        <time>2021-02-12T06:39:46Z</time>
      </trkpt>
      <trkpt lat="47.55592" lon="-0.82109">
        <ele>66</ele>
        <time>2021-02-12T06:39:24Z</time>
      </trkpt>
      <trkpt lat="47.55582" lon="-0.82175">
        <ele>66</ele>
        <time>2021-02-12T06:39:16Z</time>
      </trkpt>
      <trkpt lat="47.55556" lon="-0.82293">
        <ele>67</ele>
        <time>2021-02-12T06:39:01Z</time>
      </trkpt>
      <trkpt lat="47.5555" lon="-0.82325">
        <ele>68</ele>
        <time>2021-02-12T06:38:57Z</time>
      </trkpt>
      <trkpt lat="47.55544" lon="-0.82384">
        <ele>69</ele>
        <time>2021-02-12T06:38:50Z</time>
      </trkpt>
      <trkpt lat="47.55544" lon="-0.82434">
        <ele>70</ele>
        <time>2021-02-12T06:38:44Z</time>
      </trkpt>
      <trkpt lat="47.55551" lon="-0.82489">
        <ele>71</ele>
        <time>2021-02-12T06:38:37Z</time>
      </trkpt>
      <trkpt lat="47.55563" lon="-0.82532">
        <ele>71</ele>
        <time>2021-02-12T06:38:32Z</time>
      </trkpt>
      <trkpt lat="47.5557" lon="-0.82553">
        <ele>71</ele>
        <time>2021-02-12T06:38:29Z</time>
      </trkpt>
      <trkpt lat="47.55609" lon="-0.82634">
        <ele>72</ele>
        <time>2021-02-12T06:38:17Z</time>
      </trkpt>
      <trkpt lat="47.55616" lon="-0.82661">
        <ele>71</ele>
        <time>2021-02-12T06:38:14Z</time>
      </trkpt>
      <trkpt lat="47.55619" lon="-0.82689">
        <ele>71</ele>
        <time>2021-02-12T06:38:10Z</time>
      </trkpt>
      <trkpt lat="47.55615" lon="-0.82728">
        <ele>71</ele>
        <time>2021-02-12T06:38:05Z</time>
      </trkpt>
      <trkpt lat="47.55605" lon="-0.8278">
        <ele>71</ele>
        <time>2021-02-12T06:37:59Z</time>
      </trkpt>
      <trkpt lat="47.55605" lon="-0.82815">
        <ele>71</ele>
        <time>2021-02-12T06:37:55Z</time>
      </trkpt>
      <trkpt lat="47.55608" lon="-0.8284">
        <ele>71</ele>
        <time>2021-02-12T06:37:52Z</time>
      </trkpt>
      <trkpt lat="47.55619" lon="-0.82889">
        <ele>71</ele>
        <time>2021-02-12T06:37:46Z</time>
      </trkpt>
      <trkpt lat="47.55661" lon="-0.83009">
        <ele>71</ele>
        <time>2021-02-12T06:37:29Z</time>
      </trkpt>
      <trkpt lat="47.55681" lon="-0.8306">
        <ele>70</ele>
        <time>2021-02-12T06:37:22Z</time>
      </trkpt>
      <trkpt lat="47.55714" lon="-0.83135">
        <ele>68</ele>
        <time>2021-02-12T06:37:11Z</time>
      </trkpt>
      <trkpt lat="47.55791" lon="-0.83355">
        <ele>70</ele>
        <time>2021-02-12T06:36:42Z</time>
      </trkpt>
      <trkpt lat="47.55809" lon="-0.83395">
        <ele>71</ele>
        <time>2021-02-12T06:36:36Z</time>
      </trkpt>
      <trkpt lat="47.55826" lon="-0.83425">
        <ele>72</ele>
        <time>2021-02-12T06:36:31Z</time>
      </trkpt>
      <trkpt lat="47.55833" lon="-0.83442">
        <ele>72</ele>
        <time>2021-02-12T06:36:29Z</time>
      </trkpt>
      <trkpt lat="47.5584" lon="-0.83467">
        <ele>72</ele>
        <time>2021-02-12T06:36:26Z</time>
      </trkpt>
      <trkpt lat="47.55861" lon="-0.83569">
        <ele>73</ele>
        <time>2021-02-12T06:36:13Z</time>
      </trkpt>
      <trkpt lat="47.55871" lon="-0.83646">
        <ele>75</ele>
        <time>2021-02-12T06:36:03Z</time>
      </trkpt>
      <trkpt lat="47.55884" lon="-0.83792">
        <ele>76</ele>
        <time>2021-02-12T06:35:46Z</time>
      </trkpt>
      <trkpt lat="47.55893" lon="-0.83854">
        <ele>77</ele>
        <time>2021-02-12T06:35:38Z</time>
      </trkpt>
      <trkpt lat="47.55903" lon="-0.83904">
        <ele>79</ele>
        <time>2021-02-12T06:35:32Z</time>
      </trkpt>
      <trkpt lat="47.55906" lon="-0.83904">
        <ele>79</ele>
        <time>2021-02-12T06:35:31Z</time>
      </trkpt>
      <trkpt lat="47.55944" lon="-0.83908">
        <ele>80</ele>
        <time>2021-02-12T06:35:24Z</time>
      </trkpt>
      <trkpt lat="47.55976" lon="-0.83913">
        <ele>79</ele>
        <time>2021-02-12T06:35:19Z</time>
      </trkpt>
      <trkpt lat="47.56029" lon="-0.83923">
        <ele>78</ele>
        <time>2021-02-12T06:35:09Z</time>
      </trkpt>
      <trkpt lat="47.5604" lon="-0.83925">
        <ele>78</ele>
        <time>2021-02-12T06:35:07Z</time>
      </trkpt>
      <trkpt lat="47.56061" lon="-0.83929">
        <ele>78</ele>
        <time>2021-02-12T06:35:04Z</time>
      </trkpt>
      <trkpt lat="47.56064" lon="-0.83929">
        <ele>77</ele>
        <time>2021-02-12T06:35:03Z</time>
      </trkpt>
      <trkpt lat="47.56073" lon="-0.8393">
        <ele>77</ele>
        <time>2021-02-12T06:35:01Z</time>
      </trkpt>
      <trkpt lat="47.56097" lon="-0.83927">
        <ele>77</ele>
        <time>2021-02-12T06:34:57Z</time>
      </trkpt>
      <trkpt lat="47.56114" lon="-0.83916">
        <ele>77</ele>
        <time>2021-02-12T06:34:54Z</time>
      </trkpt>
      <trkpt lat="47.56119" lon="-0.83912">
        <ele>77</ele>
        <time>2021-02-12T06:34:53Z</time>
      </trkpt>
      <trkpt lat="47.56125" lon="-0.83907">
        <ele>77</ele>
        <time>2021-02-12T06:34:52Z</time>
      </trkpt>
      <trkpt lat="47.56148" lon="-0.83886">
        <ele>77</ele>
        <time>2021-02-12T06:34:47Z</time>
      </trkpt>
      <trkpt lat="47.562" lon="-0.83838">
        <ele>76</ele>
        <time>2021-02-12T06:34:36Z</time>
      </trkpt>
      <trkpt lat="47.56202" lon="-0.83836">
        <ele>76</ele>
        <time>2021-02-12T06:34:35Z</time>
      </trkpt>
      <trkpt lat="47.56245" lon="-0.83796">
        <ele>76</ele>
        <time>2021-02-12T06:34:26Z</time>
      </trkpt>
      <trkpt lat="47.56278" lon="-0.83769">
        <ele>76</ele>
        <time>2021-02-12T06:34:20Z</time>
      </trkpt>
      <trkpt lat="47.56302" lon="-0.83756">
        <ele>76</ele>
        <time>2021-02-12T06:34:15Z</time>
      </trkpt>
      <trkpt lat="47.56308" lon="-0.83754">
        <ele>76</ele>
        <time>2021-02-12T06:34:14Z</time>
      </trkpt>
      <trkpt lat="47.56361" lon="-0.83735">
        <ele>76</ele>
        <time>2021-02-12T06:34:04Z</time>
      </trkpt>
      <trkpt lat="47.5638" lon="-0.8373">
        <ele>76</ele>
        <time>2021-02-12T06:34:01Z</time>
      </trkpt>
      <trkpt lat="47.56414" lon="-0.83733">
        <ele>76</ele>
        <time>2021-02-12T06:33:55Z</time>
      </trkpt>
      <trkpt lat="47.56431" lon="-0.83732">
        <ele>76</ele>
        <time>2021-02-12T06:33:52Z</time>
      </trkpt>
      <trkpt lat="47.56449" lon="-0.83727">
        <ele>75</ele>
        <time>2021-02-12T06:33:49Z</time>
      </trkpt>
      <trkpt lat="47.5648" lon="-0.83711">
        <ele>74</ele>
        <time>2021-02-12T06:33:43Z</time>
      </trkpt>
      <trkpt lat="47.56504" lon="-0.83702">
        <ele>74</ele>
        <time>2021-02-12T06:33:38Z</time>
      </trkpt>
      <trkpt lat="47.56517" lon="-0.83699">
        <ele>75</ele>
        <time>2021-02-12T06:33:36Z</time>
      </trkpt>
      <trkpt lat="47.56544" lon="-0.83699">
        <ele>76</ele>
        <time>2021-02-12T06:33:31Z</time>
      </trkpt>
      <trkpt lat="47.56589" lon="-0.83702">
        <ele>78</ele>
        <time>2021-02-12T06:33:23Z</time>
      </trkpt>
      <trkpt lat="47.56816" lon="-0.83722">
        <ele>73</ele>
        <time>2021-02-12T06:32:43Z</time>
      </trkpt>
      <trkpt lat="47.56843" lon="-0.83723">
        <ele>73</ele>
        <time>2021-02-12T06:32:38Z</time>
      </trkpt>
      <trkpt lat="47.56857" lon="-0.83723">
        <ele>73</ele>
        <time>2021-02-12T06:32:35Z</time>
      </trkpt>
      <trkpt lat="47.56891" lon="-0.8372">
        <ele>73</ele>
        <time>2021-02-12T06:32:29Z</time>
      </trkpt>
      <trkpt lat="47.57133" lon="-0.83681">
        <ele>72</ele>
        <time>2021-02-12T06:31:46Z</time>
      </trkpt>
      <trkpt lat="47.5715" lon="-0.83679">
        <ele>71</ele>
        <time>2021-02-12T06:31:43Z</time>
      </trkpt>
      <trkpt lat="47.57162" lon="-0.83678">
        <ele>71</ele>
        <time>2021-02-12T06:31:41Z</time>
      </trkpt>
      <trkpt lat="47.57187" lon="-0.83681">
        <ele>70</ele>
        <time>2021-02-12T06:31:36Z</time>
      </trkpt>
      <trkpt lat="47.57222" lon="-0.83692">
        <ele>68</ele>
        <time>2021-02-12T06:31:30Z</time>
      </trkpt>
      <trkpt lat="47.57236" lon="-0.83699">
        <ele>68</ele>
        <time>2021-02-12T06:31:27Z</time>
      </trkpt>
      <trkpt lat="47.57323" lon="-0.83742">
        <ele>68</ele>
        <time>2021-02-12T06:31:11Z</time>
      </trkpt>
      <trkpt lat="47.57336" lon="-0.83747">
        <ele>68</ele>
        <time>2021-02-12T06:31:09Z</time>
      </trkpt>
      <trkpt lat="47.5736" lon="-0.83754">
        <ele>67</ele>
        <time>2021-02-12T06:31:04Z</time>
      </trkpt>
      <trkpt lat="47.57385" lon="-0.83754">
        <ele>67</ele>
        <time>2021-02-12T06:31:00Z</time>
      </trkpt>
      <trkpt lat="47.57414" lon="-0.8375">
        <ele>66</ele>
        <time>2021-02-12T06:30:55Z</time>
      </trkpt>
      <trkpt lat="47.57457" lon="-0.83743">
        <ele>66</ele>
        <time>2021-02-12T06:30:47Z</time>
      </trkpt>
      <trkpt lat="47.57483" lon="-0.8374">
        <ele>65</ele>
        <time>2021-02-12T06:30:42Z</time>
      </trkpt>
      <trkpt lat="47.57519" lon="-0.83742">
        <ele>65</ele>
        <time>2021-02-12T06:30:36Z</time>
      </trkpt>
      <trkpt lat="47.57592" lon="-0.83764">
        <ele>64</ele>
        <time>2021-02-12T06:30:23Z</time>
      </trkpt>
      <trkpt lat="47.57615" lon="-0.83768">
        <ele>64</ele>
        <time>2021-02-12T06:30:19Z</time>
      </trkpt>
      <trkpt lat="47.57637" lon="-0.83765">
        <ele>64</ele>
        <time>2021-02-12T06:30:15Z</time>
      </trkpt>
      <trkpt lat="47.57721" lon="-0.83734">
        <ele>65</ele>
        <time>2021-02-12T06:29:59Z</time>
      </trkpt>
      <trkpt lat="47.57733" lon="-0.83732">
        <ele>66</ele>
        <time>2021-02-12T06:29:57Z</time>
      </trkpt>
      <trkpt lat="47.57752" lon="-0.83731">
        <ele>66</ele>
        <time>2021-02-12T06:29:54Z</time>
      </trkpt>
      <trkpt lat="47.5777" lon="-0.83734">
        <ele>66</ele>
        <time>2021-02-12T06:29:50Z</time>
      </trkpt>
      <trkpt lat="47.57787" lon="-0.83737">
        <ele>67</ele>
        <time>2021-02-12T06:29:47Z</time>
      </trkpt>
      <trkpt lat="47.57819" lon="-0.83736">
        <ele>67</ele>
        <time>2021-02-12T06:29:42Z</time>
      </trkpt>
      <trkpt lat="47.57922" lon="-0.83721">
        <ele>69</ele>
        <time>2021-02-12T06:29:23Z</time>
      </trkpt>
      <trkpt lat="47.57963" lon="-0.83728">
        <ele>69</ele>
        <time>2021-02-12T06:29:16Z</time>
      </trkpt>
      <trkpt lat="47.57968" lon="-0.83728">
        <ele>69</ele>
        <time>2021-02-12T06:29:15Z</time>
      </trkpt>
      <trkpt lat="47.57969" lon="-0.83733">
        <ele>69</ele>
        <time>2021-02-12T06:29:14Z</time>
      </trkpt>
      <trkpt lat="47.57974" lon="-0.83733">
        <ele>69</ele>
        <time>2021-02-12T06:29:14Z</time>
      </trkpt>
      <trkpt lat="47.58008" lon="-0.83729">
        <ele>70</ele>
        <time>2021-02-12T06:29:08Z</time>
      </trkpt>
      <trkpt lat="47.58021" lon="-0.83725">
        <ele>70</ele>
        <time>2021-02-12T06:29:05Z</time>
      </trkpt>
      <trkpt lat="47.58036" lon="-0.83717">
        <ele>70</ele>
        <time>2021-02-12T06:29:02Z</time>
      </trkpt>
      <trkpt lat="47.58158" lon="-0.8362">
        <ele>76</ele>
        <time>2021-02-12T06:28:38Z</time>
      </trkpt>
      <trkpt lat="47.58197" lon="-0.83592">
        <ele>79</ele>
        <time>2021-02-12T06:28:30Z</time>
      </trkpt>
      <trkpt lat="47.58213" lon="-0.83584">
        <ele>79</ele>
        <time>2021-02-12T06:28:27Z</time>
      </trkpt>
      <trkpt lat="47.58426" lon="-0.83495">
        <ele>78</ele>
        <time>2021-02-12T06:27:48Z</time>
      </trkpt>
      <trkpt lat="47.58481" lon="-0.83463">
        <ele>74</ele>
        <time>2021-02-12T06:27:37Z</time>
      </trkpt>
      <trkpt lat="47.58558" lon="-0.83409">
        <ele>68</ele>
        <time>2021-02-12T06:27:22Z</time>
      </trkpt>
      <trkpt lat="47.58734" lon="-0.83286">
        <ele>55</ele>
        <time>2021-02-12T06:26:47Z</time>
      </trkpt>
      <trkpt lat="47.58807" lon="-0.83235">
        <ele>54</ele>
        <time>2021-02-12T06:26:33Z</time>
      </trkpt>
      <trkpt lat="47.5882" lon="-0.83225">
        <ele>54</ele>
        <time>2021-02-12T06:26:30Z</time>
      </trkpt>
      <trkpt lat="47.58829" lon="-0.83217">
        <ele>54</ele>
        <time>2021-02-12T06:26:28Z</time>
      </trkpt>
      <trkpt lat="47.58832" lon="-0.83214">
        <ele>54</ele>
        <time>2021-02-12T06:26:28Z</time>
      </trkpt>
      <trkpt lat="47.59035" lon="-0.82993">
        <ele>51</ele>
        <time>2021-02-12T06:25:43Z</time>
      </trkpt>
      <trkpt lat="47.59045" lon="-0.82977">
        <ele>51</ele>
        <time>2021-02-12T06:25:40Z</time>
      </trkpt>
      <trkpt lat="47.59048" lon="-0.82968">
        <ele>51</ele>
        <time>2021-02-12T06:25:39Z</time>
      </trkpt>
      <trkpt lat="47.59511" lon="-0.83208">
        <ele>45</ele>
        <time>2021-02-12T06:24:12Z</time>
      </trkpt>
      <trkpt lat="47.5962" lon="-0.83265">
        <ele>43</ele>
        <time>2021-02-12T06:23:51Z</time>
      </trkpt>
      <trkpt lat="47.59679" lon="-0.83295">
        <ele>42</ele>
        <time>2021-02-12T06:23:40Z</time>
      </trkpt>
      <trkpt lat="47.59699" lon="-0.83308">
        <ele>43</ele>
        <time>2021-02-12T06:23:36Z</time>
      </trkpt>
      <trkpt lat="47.59745" lon="-0.83332">
        <ele>44</ele>
        <time>2021-02-12T06:23:28Z</time>
      </trkpt>
      <trkpt lat="47.59766" lon="-0.83344">
        <ele>44</ele>
        <time>2021-02-12T06:23:24Z</time>
      </trkpt>
      <trkpt lat="47.59796" lon="-0.8336">
        <ele>43</ele>
        <time>2021-02-12T06:23:18Z</time>
      </trkpt>
      <trkpt lat="47.59823" lon="-0.83371">
        <ele>43</ele>
        <time>2021-02-12T06:23:13Z</time>
      </trkpt>
      <trkpt lat="47.5983" lon="-0.83375">
        <ele>43</ele>
        <time>2021-02-12T06:23:12Z</time>
      </trkpt>
      <trkpt lat="47.59844" lon="-0.83384">
        <ele>42</ele>
        <time>2021-02-12T06:23:09Z</time>
      </trkpt>
      <trkpt lat="47.59916" lon="-0.83419">
        <ele>42</ele>
        <time>2021-02-12T06:22:55Z</time>
      </trkpt>
      <trkpt lat="47.60045" lon="-0.8344">
        <ele>44</ele>
        <time>2021-02-12T06:22:32Z</time>
      </trkpt>
      <trkpt lat="47.60036" lon="-0.83478">
        <ele>43</ele>
        <time>2021-02-12T06:22:28Z</time>
      </trkpt>
      <trkpt lat="47.60032" lon="-0.83538">
        <ele>42</ele>
        <time>2021-02-12T06:22:20Z</time>
      </trkpt>
      <trkpt lat="47.60019" lon="-0.83587">
        <ele>43</ele>
        <time>2021-02-12T06:22:14Z</time>
      </trkpt>
      <trkpt lat="47.60015" lon="-0.83601">
        <ele>43</ele>
        <time>2021-02-12T06:22:12Z</time>
      </trkpt>
      <trkpt lat="47.59998" lon="-0.83675">
        <ele>43</ele>
        <time>2021-02-12T06:22:03Z</time>
      </trkpt>
      <trkpt lat="47.60003" lon="-0.8368">
        <ele>43</ele>
        <time>2021-02-12T06:22:02Z</time>
      </trkpt>
      <trkpt lat="47.60008" lon="-0.83684">
        <ele>43</ele>
        <time>2021-02-12T06:22:01Z</time>
      </trkpt>
      <trkpt lat="47.60011" lon="-0.83687">
        <ele>43</ele>
        <time>2021-02-12T06:22:00Z</time>
      </trkpt>
      <trkpt lat="47.60012" lon="-0.83688">
        <ele>43</ele>
        <time>2021-02-12T06:22:00Z</time>
      </trkpt>
      <trkpt lat="47.60047" lon="-0.83728">
        <ele>43</ele>
        <time>2021-02-12T06:21:52Z</time>
      </trkpt>
      <trkpt lat="47.60056" lon="-0.83738">
        <ele>43</ele>
        <time>2021-02-12T06:21:50Z</time>
      </trkpt>
      <trkpt lat="47.60062" lon="-0.83748">
        <ele>42</ele>
        <time>2021-02-12T06:21:48Z</time>
      </trkpt>
      <trkpt lat="47.60078" lon="-0.83782">
        <ele>43</ele>
        <time>2021-02-12T06:21:43Z</time>
      </trkpt>
      <trkpt lat="47.60083" lon="-0.83798">
        <ele>43</ele>
        <time>2021-02-12T06:21:41Z</time>
      </trkpt>
      <trkpt lat="47.60085" lon="-0.83804">
        <ele>43</ele>
        <time>2021-02-12T06:21:41Z</time>
      </trkpt>
      <trkpt lat="47.60086" lon="-0.83806">
        <ele>43</ele>
        <time>2021-02-12T06:21:40Z</time>
      </trkpt>
      <trkpt lat="47.60092" lon="-0.8383">
        <ele>44</ele>
        <time>2021-02-12T06:21:37Z</time>
      </trkpt>
      <trkpt lat="47.60102" lon="-0.83874">
        <ele>44</ele>
        <time>2021-02-12T06:21:32Z</time>
      </trkpt>
      <trkpt lat="47.60109" lon="-0.839">
        <ele>44</ele>
        <time>2021-02-12T06:21:28Z</time>
      </trkpt>
      <trkpt lat="47.60134" lon="-0.83965">
        <ele>44</ele>
        <time>2021-02-12T06:21:19Z</time>
      </trkpt>
      <trkpt lat="47.60139" lon="-0.83981">
        <ele>45</ele>
        <time>2021-02-12T06:21:17Z</time>
      </trkpt>
      <trkpt lat="47.6015" lon="-0.8402">
        <ele>45</ele>
        <time>2021-02-12T06:21:12Z</time>
      </trkpt>
      <trkpt lat="47.60163" lon="-0.84088">
        <ele>46</ele>
        <time>2021-02-12T06:21:04Z</time>
      </trkpt>
      <trkpt lat="47.60167" lon="-0.84119">
        <ele>46</ele>
        <time>2021-02-12T06:21:00Z</time>
      </trkpt>
      <trkpt lat="47.60172" lon="-0.84212">
        <ele>44</ele>
        <time>2021-02-12T06:20:49Z</time>
      </trkpt>
      <trkpt lat="47.60174" lon="-0.84239">
        <ele>44</ele>
        <time>2021-02-12T06:20:45Z</time>
      </trkpt>
      <trkpt lat="47.60181" lon="-0.84271">
        <ele>44</ele>
        <time>2021-02-12T06:20:41Z</time>
      </trkpt>
      <trkpt lat="47.60185" lon="-0.84288">
        <ele>44</ele>
        <time>2021-02-12T06:20:39Z</time>
      </trkpt>
      <trkpt lat="47.60191" lon="-0.84309">
        <ele>44</ele>
        <time>2021-02-12T06:20:36Z</time>
      </trkpt>
      <trkpt lat="47.60203" lon="-0.84338">
        <ele>44</ele>
        <time>2021-02-12T06:20:32Z</time>
      </trkpt>
      <trkpt lat="47.60269" lon="-0.84468">
        <ele>44</ele>
        <time>2021-02-12T06:20:13Z</time>
      </trkpt>
      <trkpt lat="47.60285" lon="-0.84509">
        <ele>44</ele>
        <time>2021-02-12T06:20:07Z</time>
      </trkpt>
      <trkpt lat="47.60289" lon="-0.84523">
        <ele>44</ele>
        <time>2021-02-12T06:20:05Z</time>
      </trkpt>
      <trkpt lat="47.60307" lon="-0.84611">
        <ele>44</ele>
        <time>2021-02-12T06:19:54Z</time>
      </trkpt>
      <trkpt lat="47.60315" lon="-0.84649">
        <ele>43</ele>
        <time>2021-02-12T06:19:49Z</time>
      </trkpt>
      <trkpt lat="47.60328" lon="-0.84709">
        <ele>43</ele>
        <time>2021-02-12T06:19:42Z</time>
      </trkpt>
      <trkpt lat="47.60342" lon="-0.84752">
        <ele>43</ele>
        <time>2021-02-12T06:19:36Z</time>
      </trkpt>
      <trkpt lat="47.60469" lon="-0.8504">
        <ele>43</ele>
        <time>2021-02-12T06:18:55Z</time>
      </trkpt>
      <trkpt lat="47.60479" lon="-0.85057">
        <ele>44</ele>
        <time>2021-02-12T06:18:52Z</time>
      </trkpt>
      <trkpt lat="47.60502" lon="-0.85086">
        <ele>45</ele>
        <time>2021-02-12T06:18:47Z</time>
      </trkpt>
      <trkpt lat="47.60558" lon="-0.85144">
        <ele>45</ele>
        <time>2021-02-12T06:18:35Z</time>
      </trkpt>
      <trkpt lat="47.6058" lon="-0.85163">
        <ele>45</ele>
        <time>2021-02-12T06:18:30Z</time>
      </trkpt>
      <trkpt lat="47.60598" lon="-0.85179">
        <ele>45</ele>
        <time>2021-02-12T06:18:26Z</time>
      </trkpt>
      <trkpt lat="47.60636" lon="-0.85208">
        <ele>46</ele>
        <time>2021-02-12T06:18:19Z</time>
      </trkpt>
      <trkpt lat="47.60656" lon="-0.85218">
        <ele>46</ele>
        <time>2021-02-12T06:18:15Z</time>
      </trkpt>
      <trkpt lat="47.60694" lon="-0.85232">
        <ele>46</ele>
        <time>2021-02-12T06:18:08Z</time>
      </trkpt>
      <trkpt lat="47.60707" lon="-0.85234">
        <ele>46</ele>
        <time>2021-02-12T06:18:06Z</time>
      </trkpt>
      <trkpt lat="47.60829" lon="-0.85201">
        <ele>46</ele>
        <time>2021-02-12T06:17:44Z</time>
      </trkpt>
      <trkpt lat="47.60864" lon="-0.85194">
        <ele>46</ele>
        <time>2021-02-12T06:17:37Z</time>
      </trkpt>
      <trkpt lat="47.60882" lon="-0.85192">
        <ele>47</ele>
        <time>2021-02-12T06:17:34Z</time>
      </trkpt>
      <trkpt lat="47.60916" lon="-0.85198">
        <ele>47</ele>
        <time>2021-02-12T06:17:28Z</time>
      </trkpt>
      <trkpt lat="47.60929" lon="-0.85204">
        <ele>46</ele>
        <time>2021-02-12T06:17:26Z</time>
      </trkpt>
      <trkpt lat="47.60949" lon="-0.85216">
        <ele>45</ele>
        <time>2021-02-12T06:17:22Z</time>
      </trkpt>
      <trkpt lat="47.60967" lon="-0.85235">
        <ele>44</ele>
        <time>2021-02-12T06:17:18Z</time>
      </trkpt>
      <trkpt lat="47.60976" lon="-0.85249">
        <ele>43</ele>
        <time>2021-02-12T06:17:16Z</time>
      </trkpt>
      <trkpt lat="47.60982" lon="-0.85261">
        <ele>43</ele>
        <time>2021-02-12T06:17:14Z</time>
      </trkpt>
      <trkpt lat="47.60991" lon="-0.85288">
        <ele>43</ele>
        <time>2021-02-12T06:17:10Z</time>
      </trkpt>
      <trkpt lat="47.6102" lon="-0.85402">
        <ele>43</ele>
        <time>2021-02-12T06:16:56Z</time>
      </trkpt>
      <trkpt lat="47.61028" lon="-0.85448">
        <ele>43</ele>
        <time>2021-02-12T06:16:50Z</time>
      </trkpt>
      <trkpt lat="47.6104" lon="-0.85537">
        <ele>43</ele>
        <time>2021-02-12T06:16:39Z</time>
      </trkpt>
      <trkpt lat="47.61138" lon="-0.86001">
        <ele>40</ele>
        <time>2021-02-12T06:15:41Z</time>
      </trkpt>
      <trkpt lat="47.61145" lon="-0.86038">
        <ele>40</ele>
        <time>2021-02-12T06:15:36Z</time>
      </trkpt>
      <trkpt lat="47.61152" lon="-0.86072">
        <ele>40</ele>
        <time>2021-02-12T06:15:32Z</time>
      </trkpt>
      <trkpt lat="47.6116" lon="-0.86119">
        <ele>40</ele>
        <time>2021-02-12T06:15:26Z</time>
      </trkpt>
      <trkpt lat="47.61207" lon="-0.866">
        <ele>43</ele>
        <time>2021-02-12T06:14:28Z</time>
      </trkpt>
      <trkpt lat="47.61212" lon="-0.86648">
        <ele>43</ele>
        <time>2021-02-12T06:14:22Z</time>
      </trkpt>
      <trkpt lat="47.61221" lon="-0.8674">
        <ele>42</ele>
        <time>2021-02-12T06:14:11Z</time>
      </trkpt>
      <trkpt lat="47.61223" lon="-0.86761">
        <ele>42</ele>
        <time>2021-02-12T06:14:08Z</time>
      </trkpt>
      <trkpt lat="47.61225" lon="-0.86776">
        <ele>42</ele>
        <time>2021-02-12T06:14:06Z</time>
      </trkpt>
      <trkpt lat="47.61231" lon="-0.86797">
        <ele>42</ele>
        <time>2021-02-12T06:14:04Z</time>
      </trkpt>
      <trkpt lat="47.61256" lon="-0.86863">
        <ele>41</ele>
        <time>2021-02-12T06:13:55Z</time>
      </trkpt>
      <trkpt lat="47.61264" lon="-0.86884">
        <ele>41</ele>
        <time>2021-02-12T06:13:52Z</time>
      </trkpt>
      <trkpt lat="47.6131" lon="-0.87059">
        <ele>42</ele>
        <time>2021-02-12T06:13:29Z</time>
      </trkpt>
      <trkpt lat="47.61315" lon="-0.87087">
        <ele>42</ele>
        <time>2021-02-12T06:13:26Z</time>
      </trkpt>
      <trkpt lat="47.61316" lon="-0.87103">
        <ele>42</ele>
        <time>2021-02-12T06:13:24Z</time>
      </trkpt>
      <trkpt lat="47.61315" lon="-0.87122">
        <ele>42</ele>
        <time>2021-02-12T06:13:21Z</time>
      </trkpt>
      <trkpt lat="47.61291" lon="-0.87329">
        <ele>45</ele>
        <time>2021-02-12T06:12:56Z</time>
      </trkpt>
      <trkpt lat="47.61292" lon="-0.87363">
        <ele>45</ele>
        <time>2021-02-12T06:12:52Z</time>
      </trkpt>
      <trkpt lat="47.61297" lon="-0.87385">
        <ele>44</ele>
        <time>2021-02-12T06:12:49Z</time>
      </trkpt>
      <trkpt lat="47.61302" lon="-0.87399">
        <ele>44</ele>
        <time>2021-02-12T06:12:47Z</time>
      </trkpt>
      <trkpt lat="47.61349" lon="-0.87477">
        <ele>41</ele>
        <time>2021-02-12T06:12:35Z</time>
      </trkpt>
      <trkpt lat="47.6139" lon="-0.87544">
        <ele>43</ele>
        <time>2021-02-12T06:12:24Z</time>
      </trkpt>
      <trkpt lat="47.61397" lon="-0.87558">
        <ele>43</ele>
        <time>2021-02-12T06:12:22Z</time>
      </trkpt>
      <trkpt lat="47.61403" lon="-0.8757">
        <ele>43</ele>
        <time>2021-02-12T06:12:20Z</time>
      </trkpt>
      <trkpt lat="47.61413" lon="-0.87601">
        <ele>43</ele>
        <time>2021-02-12T06:12:16Z</time>
      </trkpt>
      <trkpt lat="47.61433" lon="-0.87693">
        <ele>43</ele>
        <time>2021-02-12T06:12:04Z</time>
      </trkpt>
      <trkpt lat="47.61435" lon="-0.87704">
        <ele>43</ele>
        <time>2021-02-12T06:12:03Z</time>
      </trkpt>
      <trkpt lat="47.6144" lon="-0.87716">
        <ele>43</ele>
        <time>2021-02-12T06:12:01Z</time>
      </trkpt>
      <trkpt lat="47.61458" lon="-0.87751">
        <ele>43</ele>
        <time>2021-02-12T06:11:56Z</time>
      </trkpt>
      <trkpt lat="47.61528" lon="-0.87862">
        <ele>43</ele>
        <time>2021-02-12T06:11:38Z</time>
      </trkpt>
      <trkpt lat="47.61554" lon="-0.87909">
        <ele>43</ele>
        <time>2021-02-12T06:11:31Z</time>
      </trkpt>
      <trkpt lat="47.61665" lon="-0.88206">
        <ele>43</ele>
        <time>2021-02-12T06:10:50Z</time>
      </trkpt>
      <trkpt lat="47.61683" lon="-0.88271">
        <ele>43</ele>
        <time>2021-02-12T06:10:41Z</time>
      </trkpt>
      <trkpt lat="47.61689" lon="-0.88297">
        <ele>42</ele>
        <time>2021-02-12T06:10:38Z</time>
      </trkpt>
      <trkpt lat="47.61714" lon="-0.88425">
        <ele>40</ele>
        <time>2021-02-12T06:10:22Z</time>
      </trkpt>
      <trkpt lat="47.6175" lon="-0.88574">
        <ele>38</ele>
        <time>2021-02-12T06:10:03Z</time>
      </trkpt>
      <trkpt lat="47.61762" lon="-0.88633">
        <ele>38</ele>
        <time>2021-02-12T06:09:56Z</time>
      </trkpt>
      <trkpt lat="47.6177" lon="-0.8867">
        <ele>38</ele>
        <time>2021-02-12T06:09:51Z</time>
      </trkpt>
      <trkpt lat="47.61769" lon="-0.8867">
        <ele>38</ele>
        <time>2021-02-12T06:09:51Z</time>
      </trkpt>
      <trkpt lat="47.61765" lon="-0.88678">
        <ele>38</ele>
        <time>2021-02-12T06:09:50Z</time>
      </trkpt>
      <trkpt lat="47.61764" lon="-0.88683">
        <ele>38</ele>
        <time>2021-02-12T06:09:49Z</time>
      </trkpt>
      <trkpt lat="47.61765" lon="-0.88688">
        <ele>37</ele>
        <time>2021-02-12T06:09:48Z</time>
      </trkpt>
      <trkpt lat="47.61767" lon="-0.88692">
        <ele>37</ele>
        <time>2021-02-12T06:09:48Z</time>
      </trkpt>
      <trkpt lat="47.6177" lon="-0.88695">
        <ele>37</ele>
        <time>2021-02-12T06:09:47Z</time>
      </trkpt>
      <trkpt lat="47.61773" lon="-0.88695">
        <ele>37</ele>
        <time>2021-02-12T06:09:47Z</time>
      </trkpt>
      <trkpt lat="47.61778" lon="-0.8874">
        <ele>36</ele>
        <time>2021-02-12T06:09:41Z</time>
      </trkpt>
      <trkpt lat="47.6178" lon="-0.88751">
        <ele>36</ele>
        <time>2021-02-12T06:09:40Z</time>
      </trkpt>
      <trkpt lat="47.6178" lon="-0.88754">
        <ele>36</ele>
        <time>2021-02-12T06:09:39Z</time>
      </trkpt>
      <trkpt lat="47.61782" lon="-0.88771">
        <ele>37</ele>
        <time>2021-02-12T06:09:37Z</time>
      </trkpt>
      <trkpt lat="47.61783" lon="-0.88776">
        <ele>37</ele>
        <time>2021-02-12T06:09:37Z</time>
      </trkpt>
      <trkpt lat="47.61789" lon="-0.88818">
        <ele>37</ele>
        <time>2021-02-12T06:09:32Z</time>
      </trkpt>
      <trkpt lat="47.61792" lon="-0.8883">
        <ele>37</ele>
        <time>2021-02-12T06:09:30Z</time>
      </trkpt>
      <trkpt lat="47.61812" lon="-0.88903">
        <ele>36</ele>
        <time>2021-02-12T06:09:21Z</time>
      </trkpt>
      <trkpt lat="47.6183" lon="-0.88961">
        <ele>35</ele>
        <time>2021-02-12T06:09:13Z</time>
      </trkpt>
      <trkpt lat="47.61835" lon="-0.88982">
        <ele>35</ele>
        <time>2021-02-12T06:09:10Z</time>
      </trkpt>
      <trkpt lat="47.61836" lon="-0.88984">
        <ele>35</ele>
        <time>2021-02-12T06:09:10Z</time>
      </trkpt>
      <trkpt lat="47.61838" lon="-0.88994">
        <ele>35</ele>
        <time>2021-02-12T06:09:09Z</time>
      </trkpt>
      <trkpt lat="47.61841" lon="-0.89035">
        <ele>34</ele>
        <time>2021-02-12T06:09:04Z</time>
      </trkpt>
      <trkpt lat="47.61842" lon="-0.8905">
        <ele>34</ele>
        <time>2021-02-12T06:09:02Z</time>
      </trkpt>
      <trkpt lat="47.61846" lon="-0.89048">
        <ele>34</ele>
        <time>2021-02-12T06:09:01Z</time>
      </trkpt>
      <trkpt lat="47.61859" lon="-0.89034">
        <ele>34</ele>
        <time>2021-02-12T06:08:58Z</time>
      </trkpt>
      <trkpt lat="47.61923" lon="-0.8894">
        <ele>35</ele>
        <time>2021-02-12T06:08:42Z</time>
      </trkpt>
      <trkpt lat="47.6193" lon="-0.88925">
        <ele>36</ele>
        <time>2021-02-12T06:08:40Z</time>
      </trkpt>
      <trkpt lat="47.61935" lon="-0.8891">
        <ele>36</ele>
        <time>2021-02-12T06:08:38Z</time>
      </trkpt>
      <trkpt lat="47.6194" lon="-0.88887">
        <ele>37</ele>
        <time>2021-02-12T06:08:35Z</time>
      </trkpt>
      <trkpt lat="47.61938" lon="-0.88824">
        <ele>38</ele>
        <time>2021-02-12T06:08:28Z</time>
      </trkpt>
      <trkpt lat="47.6194" lon="-0.88801">
        <ele>38</ele>
        <time>2021-02-12T06:08:25Z</time>
      </trkpt>
      <trkpt lat="47.61945" lon="-0.88783">
        <ele>37</ele>
        <time>2021-02-12T06:08:23Z</time>
      </trkpt>
      <trkpt lat="47.61969" lon="-0.88737">
        <ele>37</ele>
        <time>2021-02-12T06:08:16Z</time>
      </trkpt>
      <trkpt lat="47.61999" lon="-0.88689">
        <ele>37</ele>
        <time>2021-02-12T06:08:08Z</time>
      </trkpt>
      <trkpt lat="47.62024" lon="-0.88658">
        <ele>38</ele>
        <time>2021-02-12T06:08:02Z</time>
      </trkpt>
      <trkpt lat="47.62068" lon="-0.88606">
        <ele>39</ele>
        <time>2021-02-12T06:07:52Z</time>
      </trkpt>
      <trkpt lat="47.6211" lon="-0.88561">
        <ele>40</ele>
        <time>2021-02-12T06:07:43Z</time>
      </trkpt>
      <trkpt lat="47.62125" lon="-0.88541">
        <ele>40</ele>
        <time>2021-02-12T06:07:39Z</time>
      </trkpt>
      <trkpt lat="47.62142" lon="-0.88513">
        <ele>40</ele>
        <time>2021-02-12T06:07:35Z</time>
      </trkpt>
      <trkpt lat="47.62184" lon="-0.88462">
        <ele>39</ele>
        <time>2021-02-12T06:07:25Z</time>
      </trkpt>
      <trkpt lat="47.62212" lon="-0.88424">
        <ele>37</ele>
        <time>2021-02-12T06:07:18Z</time>
      </trkpt>
      <trkpt lat="47.62221" lon="-0.88408">
        <ele>37</ele>
        <time>2021-02-12T06:07:16Z</time>
      </trkpt>
      <trkpt lat="47.62242" lon="-0.88359">
        <ele>38</ele>
        <time>2021-02-12T06:07:09Z</time>
      </trkpt>
      <trkpt lat="47.62295" lon="-0.8828">
        <ele>37</ele>
        <time>2021-02-12T06:06:55Z</time>
      </trkpt>
      <trkpt lat="47.623" lon="-0.88248">
        <ele>37</ele>
        <time>2021-02-12T06:06:51Z</time>
      </trkpt>
      <trkpt lat="47.62304" lon="-0.88231">
        <ele>37</ele>
        <time>2021-02-12T06:06:49Z</time>
      </trkpt>
      <trkpt lat="47.62306" lon="-0.88224">
        <ele>37</ele>
        <time>2021-02-12T06:06:48Z</time>
      </trkpt>
      <trkpt lat="47.62318" lon="-0.88202">
        <ele>37</ele>
        <time>2021-02-12T06:06:45Z</time>
      </trkpt>
      <trkpt lat="47.62413" lon="-0.8809">
        <ele>37</ele>
        <time>2021-02-12T06:06:23Z</time>
      </trkpt>
      <trkpt lat="47.62436" lon="-0.88054">
        <ele>36</ele>
        <time>2021-02-12T06:06:17Z</time>
      </trkpt>
      <trkpt lat="47.62448" lon="-0.88033">
        <ele>36</ele>
        <time>2021-02-12T06:06:14Z</time>
      </trkpt>
      <trkpt lat="47.62466" lon="-0.87994">
        <ele>37</ele>
        <time>2021-02-12T06:06:09Z</time>
      </trkpt>
      <trkpt lat="47.62493" lon="-0.87923">
        <ele>38</ele>
        <time>2021-02-12T06:05:59Z</time>
      </trkpt>
      <trkpt lat="47.62528" lon="-0.8784">
        <ele>38</ele>
        <time>2021-02-12T06:05:47Z</time>
      </trkpt>
      <trkpt lat="47.62547" lon="-0.87805">
        <ele>38</ele>
        <time>2021-02-12T06:05:42Z</time>
      </trkpt>
      <trkpt lat="47.62558" lon="-0.87791">
        <ele>38</ele>
        <time>2021-02-12T06:05:39Z</time>
      </trkpt>
      <trkpt lat="47.62587" lon="-0.87769">
        <ele>38</ele>
        <time>2021-02-12T06:05:33Z</time>
      </trkpt>
      <trkpt lat="47.62661" lon="-0.87729">
        <ele>38</ele>
        <time>2021-02-12T06:05:19Z</time>
      </trkpt>
      <trkpt lat="47.62688" lon="-0.87717">
        <ele>39</ele>
        <time>2021-02-12T06:05:14Z</time>
      </trkpt>
      <trkpt lat="47.6272" lon="-0.87707">
        <ele>40</ele>
        <time>2021-02-12T06:05:08Z</time>
      </trkpt>
      <trkpt lat="47.62741" lon="-0.87706">
        <ele>40</ele>
        <time>2021-02-12T06:05:05Z</time>
      </trkpt>
      <trkpt lat="47.62799" lon="-0.8772">
        <ele>40</ele>
        <time>2021-02-12T06:04:54Z</time>
      </trkpt>
      <trkpt lat="47.62812" lon="-0.87721">
        <ele>40</ele>
        <time>2021-02-12T06:04:52Z</time>
      </trkpt>
      <trkpt lat="47.62817" lon="-0.87721">
        <ele>40</ele>
        <time>2021-02-12T06:04:51Z</time>
      </trkpt>
      <trkpt lat="47.62824" lon="-0.87721">
        <ele>40</ele>
        <time>2021-02-12T06:04:50Z</time>
      </trkpt>
      <trkpt lat="47.62914" lon="-0.87706">
        <ele>40</ele>
        <time>2021-02-12T06:04:34Z</time>
      </trkpt>
      <trkpt lat="47.62959" lon="-0.87712">
        <ele>39</ele>
        <time>2021-02-12T06:04:26Z</time>
      </trkpt>
      <trkpt lat="47.62999" lon="-0.8772">
        <ele>39</ele>
        <time>2021-02-12T06:04:18Z</time>
      </trkpt>
      <trkpt lat="47.63017" lon="-0.87717">
        <ele>39</ele>
        <time>2021-02-12T06:04:15Z</time>
      </trkpt>
      <trkpt lat="47.63028" lon="-0.87708">
        <ele>39</ele>
        <time>2021-02-12T06:04:13Z</time>
      </trkpt>
      <trkpt lat="47.63047" lon="-0.87688">
        <ele>40</ele>
        <time>2021-02-12T06:04:09Z</time>
      </trkpt>
      <trkpt lat="47.63097" lon="-0.87618">
        <ele>40</ele>
        <time>2021-02-12T06:03:57Z</time>
      </trkpt>
      <trkpt lat="47.63105" lon="-0.87609">
        <ele>40</ele>
        <time>2021-02-12T06:03:55Z</time>
      </trkpt>
      <trkpt lat="47.63129" lon="-0.87589">
        <ele>39</ele>
        <time>2021-02-12T06:03:50Z</time>
      </trkpt>
      <trkpt lat="47.63151" lon="-0.87578">
        <ele>39</ele>
        <time>2021-02-12T06:03:46Z</time>
      </trkpt>
      <trkpt lat="47.63197" lon="-0.87559">
        <ele>39</ele>
        <time>2021-02-12T06:03:37Z</time>
      </trkpt>
      <trkpt lat="47.6323" lon="-0.87541">
        <ele>39</ele>
        <time>2021-02-12T06:03:31Z</time>
      </trkpt>
      <trkpt lat="47.63265" lon="-0.87519">
        <ele>39</ele>
        <time>2021-02-12T06:03:24Z</time>
      </trkpt>
      <trkpt lat="47.63317" lon="-0.87482">
        <ele>38</ele>
        <time>2021-02-12T06:03:14Z</time>
      </trkpt>
      <trkpt lat="47.63365" lon="-0.87456">
        <ele>37</ele>
        <time>2021-02-12T06:03:05Z</time>
      </trkpt>
      <trkpt lat="47.63408" lon="-0.87416">
        <ele>36</ele>
        <time>2021-02-12T06:02:56Z</time>
      </trkpt>
      <trkpt lat="47.63424" lon="-0.8741">
        <ele>36</ele>
        <time>2021-02-12T06:02:53Z</time>
      </trkpt>
      <trkpt lat="47.63464" lon="-0.87402">
        <ele>35</ele>
        <time>2021-02-12T06:02:46Z</time>
      </trkpt>
      <trkpt lat="47.63479" lon="-0.87396">
        <ele>34</ele>
        <time>2021-02-12T06:02:43Z</time>
      </trkpt>
      <trkpt lat="47.63486" lon="-0.87389">
        <ele>34</ele>
        <time>2021-02-12T06:02:41Z</time>
      </trkpt>
      <trkpt lat="47.63529" lon="-0.87334">
        <ele>33</ele>
        <time>2021-02-12T06:02:31Z</time>
      </trkpt>
      <trkpt lat="47.63536" lon="-0.87321">
        <ele>33</ele>
        <time>2021-02-12T06:02:29Z</time>
      </trkpt>
      <trkpt lat="47.63537" lon="-0.87301">
        <ele>33</ele>
        <time>2021-02-12T06:02:27Z</time>
      </trkpt>
      <trkpt lat="47.63525" lon="-0.87239">
        <ele>34</ele>
        <time>2021-02-12T06:02:19Z</time>
      </trkpt>
      <trkpt lat="47.63522" lon="-0.87214">
        <ele>34</ele>
        <time>2021-02-12T06:02:16Z</time>
      </trkpt>
      <trkpt lat="47.63524" lon="-0.87176">
        <ele>35</ele>
        <time>2021-02-12T06:02:12Z</time>
      </trkpt>
      <trkpt lat="47.63525" lon="-0.8717">
        <ele>35</ele>
        <time>2021-02-12T06:02:11Z</time>
      </trkpt>
      <trkpt lat="47.63527" lon="-0.87163">
        <ele>35</ele>
        <time>2021-02-12T06:02:10Z</time>
      </trkpt>
      <trkpt lat="47.63535" lon="-0.87142">
        <ele>36</ele>
        <time>2021-02-12T06:02:07Z</time>
      </trkpt>
      <trkpt lat="47.6356" lon="-0.87106">
        <ele>36</ele>
        <time>2021-02-12T06:02:01Z</time>
      </trkpt>
      <trkpt lat="47.63575" lon="-0.8709">
        <ele>37</ele>
        <time>2021-02-12T06:01:58Z</time>
      </trkpt>
      <trkpt lat="47.6359" lon="-0.87077">
        <ele>37</ele>
        <time>2021-02-12T06:01:55Z</time>
      </trkpt>
      <trkpt lat="47.63666" lon="-0.87022">
        <ele>36</ele>
        <time>2021-02-12T06:01:39Z</time>
      </trkpt>
      <trkpt lat="47.63692" lon="-0.86999">
        <ele>36</ele>
        <time>2021-02-12T06:01:34Z</time>
      </trkpt>
      <trkpt lat="47.63755" lon="-0.86941">
        <ele>36</ele>
        <time>2021-02-12T06:01:21Z</time>
      </trkpt>
      <trkpt lat="47.63769" lon="-0.86927">
        <ele>36</ele>
        <time>2021-02-12T06:01:18Z</time>
      </trkpt>
      <trkpt lat="47.63774" lon="-0.86921">
        <ele>36</ele>
        <time>2021-02-12T06:01:17Z</time>
      </trkpt>
      <trkpt lat="47.6378" lon="-0.8691">
        <ele>36</ele>
        <time>2021-02-12T06:01:15Z</time>
      </trkpt>
      <trkpt lat="47.63786" lon="-0.86895">
        <ele>36</ele>
        <time>2021-02-12T06:01:13Z</time>
      </trkpt>
      <trkpt lat="47.6379" lon="-0.86866">
        <ele>36</ele>
        <time>2021-02-12T06:01:09Z</time>
      </trkpt>
      <trkpt lat="47.63789" lon="-0.86845">
        <ele>36</ele>
        <time>2021-02-12T06:01:07Z</time>
      </trkpt>
      <trkpt lat="47.63782" lon="-0.86783">
        <ele>35</ele>
        <time>2021-02-12T06:00:59Z</time>
      </trkpt>
      <trkpt lat="47.63771" lon="-0.86653">
        <ele>34</ele>
        <time>2021-02-12T06:00:44Z</time>
      </trkpt>
      <trkpt lat="47.63762" lon="-0.86547">
        <ele>33</ele>
        <time>2021-02-12T06:00:31Z</time>
      </trkpt>
      <trkpt lat="47.63755" lon="-0.86426">
        <ele>32</ele>
        <time>2021-02-12T06:00:16Z</time>
      </trkpt>
      <trkpt lat="47.63755" lon="-0.86392">
        <ele>31</ele>
        <time>2021-02-12T06:00:12Z</time>
      </trkpt>
      <trkpt lat="47.63759" lon="-0.86335">
        <ele>30</ele>
        <time>2021-02-12T06:00:05Z</time>
      </trkpt>
      <trkpt lat="47.63761" lon="-0.86302">
        <ele>30</ele>
        <time>2021-02-12T06:00:01Z</time>
      </trkpt>
      <trkpt lat="47.63762" lon="-0.86277">
        <ele>30</ele>
        <time>2021-02-12T05:59:58Z</time>
      </trkpt>
      <trkpt lat="47.63766" lon="-0.86211">
        <ele>30</ele>
        <time>2021-02-12T05:59:50Z</time>
      </trkpt>
      <trkpt lat="47.6377" lon="-0.86173">
        <ele>30</ele>
        <time>2021-02-12T05:59:46Z</time>
      </trkpt>
      <trkpt lat="47.63811" lon="-0.85986">
        <ele>33</ele>
        <time>2021-02-12T05:59:22Z</time>
      </trkpt>
      <trkpt lat="47.6382" lon="-0.85926">
        <ele>37</ele>
        <time>2021-02-12T05:59:15Z</time>
      </trkpt>
      <trkpt lat="47.6382" lon="-0.85925">
        <ele>37</ele>
        <time>2021-02-12T05:59:15Z</time>
      </trkpt>
      <trkpt lat="47.63824" lon="-0.85881">
        <ele>38</ele>
        <time>2021-02-12T05:59:09Z</time>
      </trkpt>
      <trkpt lat="47.63835" lon="-0.85835">
        <ele>39</ele>
        <time>2021-02-12T05:59:04Z</time>
      </trkpt>
      <trkpt lat="47.63837" lon="-0.85789">
        <ele>41</ele>
        <time>2021-02-12T05:58:58Z</time>
      </trkpt>
      <trkpt lat="47.63838" lon="-0.85782">
        <ele>41</ele>
        <time>2021-02-12T05:58:57Z</time>
      </trkpt>
      <trkpt lat="47.6384" lon="-0.85776">
        <ele>41</ele>
        <time>2021-02-12T05:58:56Z</time>
      </trkpt>
      <trkpt lat="47.63841" lon="-0.85773">
        <ele>41</ele>
        <time>2021-02-12T05:58:56Z</time>
      </trkpt>
      <trkpt lat="47.63815" lon="-0.85752">
        <ele>42</ele>
        <time>2021-02-12T05:58:51Z</time>
      </trkpt>
      <trkpt lat="47.638" lon="-0.85737">
        <ele>42</ele>
        <time>2021-02-12T05:58:47Z</time>
      </trkpt>
      <trkpt lat="47.6379" lon="-0.85722">
        <ele>43</ele>
        <time>2021-02-12T05:58:45Z</time>
      </trkpt>
      <trkpt lat="47.63785" lon="-0.8571">
        <ele>43</ele>
        <time>2021-02-12T05:58:43Z</time>
      </trkpt>
      <trkpt lat="47.6377" lon="-0.85655">
        <ele>43</ele>
        <time>2021-02-12T05:58:36Z</time>
      </trkpt>
      <trkpt lat="47.63685" lon="-0.85315">
        <ele>38</ele>
        <time>2021-02-12T05:57:53Z</time>
      </trkpt>
      <trkpt lat="47.63687" lon="-0.85313">
        <ele>38</ele>
        <time>2021-02-12T05:57:52Z</time>
      </trkpt>
      <trkpt lat="47.63696" lon="-0.85299">
        <ele>39</ele>
        <time>2021-02-12T05:57:50Z</time>
      </trkpt>
      <trkpt lat="47.63713" lon="-0.85246">
        <ele>40</ele>
        <time>2021-02-12T05:57:43Z</time>
      </trkpt>
      <trkpt lat="47.63721" lon="-0.85208">
        <ele>39</ele>
        <time>2021-02-12T05:57:38Z</time>
      </trkpt>
      <trkpt lat="47.63747" lon="-0.84979">
        <ele>37</ele>
        <time>2021-02-12T05:57:10Z</time>
      </trkpt>
      <trkpt lat="47.63754" lon="-0.84947">
        <ele>36</ele>
        <time>2021-02-12T05:57:06Z</time>
      </trkpt>
      <trkpt lat="47.63785" lon="-0.84861">
        <ele>37</ele>
        <time>2021-02-12T05:56:55Z</time>
      </trkpt>
      <trkpt lat="47.63797" lon="-0.84813">
        <ele>38</ele>
        <time>2021-02-12T05:56:48Z</time>
      </trkpt>
      <trkpt lat="47.63803" lon="-0.84783">
        <ele>39</ele>
        <time>2021-02-12T05:56:45Z</time>
      </trkpt>
      <trkpt lat="47.63805" lon="-0.84759">
        <ele>39</ele>
        <time>2021-02-12T05:56:42Z</time>
      </trkpt>
      <trkpt lat="47.63809" lon="-0.84697">
        <ele>38</ele>
        <time>2021-02-12T05:56:34Z</time>
      </trkpt>
      <trkpt lat="47.63818" lon="-0.84649">
        <ele>38</ele>
        <time>2021-02-12T05:56:28Z</time>
      </trkpt>
      <trkpt lat="47.63836" lon="-0.84574">
        <ele>38</ele>
        <time>2021-02-12T05:56:19Z</time>
      </trkpt>
      <trkpt lat="47.63842" lon="-0.84541">
        <ele>38</ele>
        <time>2021-02-12T05:56:15Z</time>
      </trkpt>
      <trkpt lat="47.63848" lon="-0.84482">
        <ele>37</ele>
        <time>2021-02-12T05:56:08Z</time>
      </trkpt>
      <trkpt lat="47.63863" lon="-0.84404">
        <ele>38</ele>
        <time>2021-02-12T05:55:58Z</time>
      </trkpt>
      <trkpt lat="47.63874" lon="-0.84333">
        <ele>38</ele>
        <time>2021-02-12T05:55:49Z</time>
      </trkpt>
      <trkpt lat="47.63873" lon="-0.84296">
        <ele>39</ele>
        <time>2021-02-12T05:55:45Z</time>
      </trkpt>
      <trkpt lat="47.6387" lon="-0.84273">
        <ele>39</ele>
        <time>2021-02-12T05:55:42Z</time>
      </trkpt>
      <trkpt lat="47.6383" lon="-0.8406">
        <ele>39</ele>
        <time>2021-02-12T05:55:15Z</time>
      </trkpt>
      <trkpt lat="47.63819" lon="-0.84019">
        <ele>39</ele>
        <time>2021-02-12T05:55:10Z</time>
      </trkpt>
      <trkpt lat="47.63815" lon="-0.83983">
        <ele>39</ele>
        <time>2021-02-12T05:55:06Z</time>
      </trkpt>
      <trkpt lat="47.63813" lon="-0.83959">
        <ele>39</ele>
        <time>2021-02-12T05:55:03Z</time>
      </trkpt>
      <trkpt lat="47.63818" lon="-0.83795">
        <ele>39</ele>
        <time>2021-02-12T05:54:43Z</time>
      </trkpt>
      <trkpt lat="47.6382" lon="-0.83774">
        <ele>39</ele>
        <time>2021-02-12T05:54:40Z</time>
      </trkpt>
      <trkpt lat="47.63831" lon="-0.83721">
        <ele>39</ele>
        <time>2021-02-12T05:54:34Z</time>
      </trkpt>
      <trkpt lat="47.6383" lon="-0.83678">
        <ele>39</ele>
        <time>2021-02-12T05:54:29Z</time>
      </trkpt>
      <trkpt lat="47.63833" lon="-0.83658">
        <ele>39</ele>
        <time>2021-02-12T05:54:26Z</time>
      </trkpt>
      <trkpt lat="47.63839" lon="-0.83635">
        <ele>39</ele>
        <time>2021-02-12T05:54:23Z</time>
      </trkpt>
      <trkpt lat="47.63853" lon="-0.83604">
        <ele>39</ele>
        <time>2021-02-12T05:54:19Z</time>
      </trkpt>
      <trkpt lat="47.6387" lon="-0.83573">
        <ele>39</ele>
        <time>2021-02-12T05:54:14Z</time>
      </trkpt>
      <trkpt lat="47.63918" lon="-0.83513">
        <ele>39</ele>
        <time>2021-02-12T05:54:03Z</time>
      </trkpt>
      <trkpt lat="47.63923" lon="-0.83502">
        <ele>39</ele>
        <time>2021-02-12T05:54:01Z</time>
      </trkpt>
      <trkpt lat="47.63926" lon="-0.83488">
        <ele>39</ele>
        <time>2021-02-12T05:53:59Z</time>
      </trkpt>
      <trkpt lat="47.63926" lon="-0.83398">
        <ele>39</ele>
        <time>2021-02-12T05:53:49Z</time>
      </trkpt>
      <trkpt lat="47.63916" lon="-0.83284">
        <ele>38</ele>
        <time>2021-02-12T05:53:35Z</time>
      </trkpt>
      <trkpt lat="47.63918" lon="-0.83195">
        <ele>38</ele>
        <time>2021-02-12T05:53:24Z</time>
      </trkpt>
      <trkpt lat="47.63916" lon="-0.83145">
        <ele>38</ele>
        <time>2021-02-12T05:53:18Z</time>
      </trkpt>
      <trkpt lat="47.63909" lon="-0.83088">
        <ele>38</ele>
        <time>2021-02-12T05:53:11Z</time>
      </trkpt>
      <trkpt lat="47.6389" lon="-0.82991">
        <ele>38</ele>
        <time>2021-02-12T05:52:59Z</time>
      </trkpt>
      <trkpt lat="47.63878" lon="-0.82911">
        <ele>38</ele>
        <time>2021-02-12T05:52:49Z</time>
      </trkpt>
      <trkpt lat="47.63873" lon="-0.8287">
        <ele>38</ele>
        <time>2021-02-12T05:52:44Z</time>
      </trkpt>
      <trkpt lat="47.63876" lon="-0.82821">
        <ele>38</ele>
        <time>2021-02-12T05:52:38Z</time>
      </trkpt>
      <trkpt lat="47.63884" lon="-0.82749">
        <ele>39</ele>
        <time>2021-02-12T05:52:30Z</time>
      </trkpt>
      <trkpt lat="47.63902" lon="-0.82647">
        <ele>38</ele>
        <time>2021-02-12T05:52:17Z</time>
      </trkpt>
      <trkpt lat="47.63907" lon="-0.82624">
        <ele>39</ele>
        <time>2021-02-12T05:52:14Z</time>
      </trkpt>
      <trkpt lat="47.63913" lon="-0.82606">
        <ele>39</ele>
        <time>2021-02-12T05:52:12Z</time>
      </trkpt>
      <trkpt lat="47.63936" lon="-0.82553">
        <ele>39</ele>
        <time>2021-02-12T05:52:04Z</time>
      </trkpt>
      <trkpt lat="47.63942" lon="-0.82532">
        <ele>39</ele>
        <time>2021-02-12T05:52:01Z</time>
      </trkpt>
      <trkpt lat="47.63943" lon="-0.82519">
        <ele>39</ele>
        <time>2021-02-12T05:52:00Z</time>
      </trkpt>
      <trkpt lat="47.63942" lon="-0.82494">
        <ele>40</ele>
        <time>2021-02-12T05:51:57Z</time>
      </trkpt>
      <trkpt lat="47.63936" lon="-0.82465">
        <ele>40</ele>
        <time>2021-02-12T05:51:53Z</time>
      </trkpt>
      <trkpt lat="47.63844" lon="-0.82219">
        <ele>40</ele>
        <time>2021-02-12T05:51:20Z</time>
      </trkpt>
      <trkpt lat="47.63831" lon="-0.82187">
        <ele>41</ele>
        <time>2021-02-12T05:51:15Z</time>
      </trkpt>
      <trkpt lat="47.63802" lon="-0.82133">
        <ele>41</ele>
        <time>2021-02-12T05:51:07Z</time>
      </trkpt>
      <trkpt lat="47.63748" lon="-0.82015">
        <ele>43</ele>
        <time>2021-02-12T05:50:50Z</time>
      </trkpt>
      <trkpt lat="47.63739" lon="-0.81982">
        <ele>43</ele>
        <time>2021-02-12T05:50:45Z</time>
      </trkpt>
      <trkpt lat="47.63724" lon="-0.81893">
        <ele>42</ele>
        <time>2021-02-12T05:50:34Z</time>
      </trkpt>
      <trkpt lat="47.63711" lon="-0.81829">
        <ele>42</ele>
        <time>2021-02-12T05:50:26Z</time>
      </trkpt>
      <trkpt lat="47.63701" lon="-0.81794">
        <ele>43</ele>
        <time>2021-02-12T05:50:22Z</time>
      </trkpt>
      <trkpt lat="47.63685" lon="-0.81745">
        <ele>43</ele>
        <time>2021-02-12T05:50:15Z</time>
      </trkpt>
      <trkpt lat="47.63664" lon="-0.81697">
        <ele>43</ele>
        <time>2021-02-12T05:50:08Z</time>
      </trkpt>
      <trkpt lat="47.63634" lon="-0.81635">
        <ele>43</ele>
        <time>2021-02-12T05:49:59Z</time>
      </trkpt>
      <trkpt lat="47.63588" lon="-0.81554">
        <ele>43</ele>
        <time>2021-02-12T05:49:47Z</time>
      </trkpt>
      <trkpt lat="47.63575" lon="-0.81522">
        <ele>43</ele>
        <time>2021-02-12T05:49:42Z</time>
      </trkpt>
      <trkpt lat="47.63568" lon="-0.81501">
        <ele>42</ele>
        <time>2021-02-12T05:49:39Z</time>
      </trkpt>
      <trkpt lat="47.6356" lon="-0.81461">
        <ele>42</ele>
        <time>2021-02-12T05:49:34Z</time>
      </trkpt>
      <trkpt lat="47.63555" lon="-0.81414">
        <ele>43</ele>
        <time>2021-02-12T05:49:29Z</time>
      </trkpt>
      <trkpt lat="47.63555" lon="-0.81261">
        <ele>45</ele>
        <time>2021-02-12T05:49:10Z</time>
      </trkpt>
      <trkpt lat="47.63552" lon="-0.81172">
        <ele>45</ele>
        <time>2021-02-12T05:49:00Z</time>
      </trkpt>
      <trkpt lat="47.63545" lon="-0.81123">
        <ele>45</ele>
        <time>2021-02-12T05:48:54Z</time>
      </trkpt>
      <trkpt lat="47.63536" lon="-0.81089">
        <ele>46</ele>
        <time>2021-02-12T05:48:49Z</time>
      </trkpt>
      <trkpt lat="47.63522" lon="-0.81049">
        <ele>45</ele>
        <time>2021-02-12T05:48:44Z</time>
      </trkpt>
      <trkpt lat="47.63506" lon="-0.81016">
        <ele>45</ele>
        <time>2021-02-12T05:48:39Z</time>
      </trkpt>
      <trkpt lat="47.63423" lon="-0.80899">
        <ele>43</ele>
        <time>2021-02-12T05:48:19Z</time>
      </trkpt>
      <trkpt lat="47.63339" lon="-0.80761">
        <ele>44</ele>
        <time>2021-02-12T05:47:56Z</time>
      </trkpt>
      <trkpt lat="47.63298" lon="-0.80684">
        <ele>43</ele>
        <time>2021-02-12T05:47:44Z</time>
      </trkpt>
      <trkpt lat="47.63258" lon="-0.80589">
        <ele>42</ele>
        <time>2021-02-12T05:47:31Z</time>
      </trkpt>
      <trkpt lat="47.63223" lon="-0.80526">
        <ele>42</ele>
        <time>2021-02-12T05:47:21Z</time>
      </trkpt>
      <trkpt lat="47.63209" lon="-0.8051">
        <ele>42</ele>
        <time>2021-02-12T05:47:18Z</time>
      </trkpt>
      <trkpt lat="47.63197" lon="-0.805">
        <ele>43</ele>
        <time>2021-02-12T05:47:16Z</time>
      </trkpt>
      <trkpt lat="47.63184" lon="-0.80493">
        <ele>43</ele>
        <time>2021-02-12T05:47:13Z</time>
      </trkpt>
      <trkpt lat="47.63145" lon="-0.80488">
        <ele>44</ele>
        <time>2021-02-12T05:47:06Z</time>
      </trkpt>
      <trkpt lat="47.63087" lon="-0.80493">
        <ele>45</ele>
        <time>2021-02-12T05:46:56Z</time>
      </trkpt>
      <trkpt lat="47.63079" lon="-0.80487">
        <ele>45</ele>
        <time>2021-02-12T05:46:54Z</time>
      </trkpt>
      <trkpt lat="47.63074" lon="-0.80477">
        <ele>45</ele>
        <time>2021-02-12T05:46:53Z</time>
      </trkpt>
      <trkpt lat="47.63067" lon="-0.80437">
        <ele>44</ele>
        <time>2021-02-12T05:46:48Z</time>
      </trkpt>
      <trkpt lat="47.63063" lon="-0.80402">
        <ele>44</ele>
        <time>2021-02-12T05:46:44Z</time>
      </trkpt>
      <trkpt lat="47.63064" lon="-0.80382">
        <ele>44</ele>
        <time>2021-02-12T05:46:41Z</time>
      </trkpt>
      <trkpt lat="47.63073" lon="-0.80287">
        <ele>45</ele>
        <time>2021-02-12T05:46:30Z</time>
      </trkpt>
      <trkpt lat="47.6307" lon="-0.80251">
        <ele>45</ele>
        <time>2021-02-12T05:46:25Z</time>
      </trkpt>
      <trkpt lat="47.63047" lon="-0.80253">
        <ele>44</ele>
        <time>2021-02-12T05:46:21Z</time>
      </trkpt>
      <trkpt lat="47.62996" lon="-0.80207">
        <ele>43</ele>
        <time>2021-02-12T05:46:11Z</time>
      </trkpt>
      <trkpt lat="47.62947" lon="-0.8018">
        <ele>43</ele>
        <time>2021-02-12T05:46:01Z</time>
      </trkpt>
      <trkpt lat="47.62937" lon="-0.80171">
        <ele>42</ele>
        <time>2021-02-12T05:45:59Z</time>
      </trkpt>
      <trkpt lat="47.6288" lon="-0.80113">
        <ele>42</ele>
        <time>2021-02-12T05:45:47Z</time>
      </trkpt>
      <trkpt lat="47.62862" lon="-0.80099">
        <ele>42</ele>
        <time>2021-02-12T05:45:43Z</time>
      </trkpt>
      <trkpt lat="47.62841" lon="-0.80091">
        <ele>42</ele>
        <time>2021-02-12T05:45:39Z</time>
      </trkpt>
      <trkpt lat="47.62819" lon="-0.80094">
        <ele>42</ele>
        <time>2021-02-12T05:45:36Z</time>
      </trkpt>
      <trkpt lat="47.62808" lon="-0.80101">
        <ele>42</ele>
        <time>2021-02-12T05:45:33Z</time>
      </trkpt>
      <trkpt lat="47.62772" lon="-0.80137">
        <ele>42</ele>
        <time>2021-02-12T05:45:26Z</time>
      </trkpt>
      <trkpt lat="47.62738" lon="-0.80156">
        <ele>42</ele>
        <time>2021-02-12T05:45:19Z</time>
      </trkpt>
      <trkpt lat="47.62658" lon="-0.80197">
        <ele>44</ele>
        <time>2021-02-12T05:45:04Z</time>
      </trkpt>
      <trkpt lat="47.62646" lon="-0.80206">
        <ele>44</ele>
        <time>2021-02-12T05:45:02Z</time>
      </trkpt>
      <trkpt lat="47.62628" lon="-0.80222">
        <ele>45</ele>
        <time>2021-02-12T05:44:58Z</time>
      </trkpt>
      <trkpt lat="47.62609" lon="-0.80251">
        <ele>45</ele>
        <time>2021-02-12T05:44:53Z</time>
      </trkpt>
      <trkpt lat="47.62577" lon="-0.80316">
        <ele>44</ele>
        <time>2021-02-12T05:44:44Z</time>
      </trkpt>
      <trkpt lat="47.62531" lon="-0.80404">
        <ele>46</ele>
        <time>2021-02-12T05:44:30Z</time>
      </trkpt>
      <trkpt lat="47.62515" lon="-0.80424">
        <ele>46</ele>
        <time>2021-02-12T05:44:26Z</time>
      </trkpt>
      <trkpt lat="47.62502" lon="-0.80433">
        <ele>47</ele>
        <time>2021-02-12T05:44:24Z</time>
      </trkpt>
      <trkpt lat="47.62436" lon="-0.80458">
        <ele>48</ele>
        <time>2021-02-12T05:44:12Z</time>
      </trkpt>
      <trkpt lat="47.62406" lon="-0.80482">
        <ele>49</ele>
        <time>2021-02-12T05:44:06Z</time>
      </trkpt>
      <trkpt lat="47.62377" lon="-0.80511">
        <ele>49</ele>
        <time>2021-02-12T05:43:59Z</time>
      </trkpt>
      <trkpt lat="47.62349" lon="-0.80533">
        <ele>49</ele>
        <time>2021-02-12T05:43:54Z</time>
      </trkpt>
      <trkpt lat="47.62333" lon="-0.80548">
        <ele>49</ele>
        <time>2021-02-12T05:43:50Z</time>
      </trkpt>
      <trkpt lat="47.62303" lon="-0.80586">
        <ele>49</ele>
        <time>2021-02-12T05:43:43Z</time>
      </trkpt>
      <trkpt lat="47.62292" lon="-0.80596">
        <ele>48</ele>
        <time>2021-02-12T05:43:41Z</time>
      </trkpt>
      <trkpt lat="47.6218" lon="-0.80669">
        <ele>48</ele>
        <time>2021-02-12T05:43:19Z</time>
      </trkpt>
      <trkpt lat="47.62161" lon="-0.80689">
        <ele>47</ele>
        <time>2021-02-12T05:43:15Z</time>
      </trkpt>
      <trkpt lat="47.62136" lon="-0.8072">
        <ele>47</ele>
        <time>2021-02-12T05:43:09Z</time>
      </trkpt>
      <trkpt lat="47.62112" lon="-0.80748">
        <ele>47</ele>
        <time>2021-02-12T05:43:04Z</time>
      </trkpt>
      <trkpt lat="47.62084" lon="-0.8077">
        <ele>47</ele>
        <time>2021-02-12T05:42:58Z</time>
      </trkpt>
      <trkpt lat="47.6205" lon="-0.80803">
        <ele>47</ele>
        <time>2021-02-12T05:42:51Z</time>
      </trkpt>
      <trkpt lat="47.62032" lon="-0.80816">
        <ele>47</ele>
        <time>2021-02-12T05:42:48Z</time>
      </trkpt>
      <trkpt lat="47.62017" lon="-0.80825">
        <ele>48</ele>
        <time>2021-02-12T05:42:45Z</time>
      </trkpt>
      <trkpt lat="47.61999" lon="-0.8083">
        <ele>48</ele>
        <time>2021-02-12T05:42:41Z</time>
      </trkpt>
      <trkpt lat="47.61931" lon="-0.8084">
        <ele>47</ele>
        <time>2021-02-12T05:42:29Z</time>
      </trkpt>
      <trkpt lat="47.61862" lon="-0.80864">
        <ele>48</ele>
        <time>2021-02-12T05:42:17Z</time>
      </trkpt>
      <trkpt lat="47.61836" lon="-0.80876">
        <ele>48</ele>
        <time>2021-02-12T05:42:12Z</time>
      </trkpt>
      <trkpt lat="47.61764" lon="-0.80915">
        <ele>47</ele>
        <time>2021-02-12T05:41:58Z</time>
      </trkpt>
      <trkpt lat="47.61753" lon="-0.80928">
        <ele>47</ele>
        <time>2021-02-12T05:41:56Z</time>
      </trkpt>
      <trkpt lat="47.61748" lon="-0.80943">
        <ele>47</ele>
        <time>2021-02-12T05:41:54Z</time>
      </trkpt>
      <trkpt lat="47.61747" lon="-0.80952">
        <ele>47</ele>
        <time>2021-02-12T05:41:53Z</time>
      </trkpt>
      <trkpt lat="47.61749" lon="-0.80979">
        <ele>47</ele>
        <time>2021-02-12T05:41:49Z</time>
      </trkpt>
      <trkpt lat="47.61757" lon="-0.8107">
        <ele>47</ele>
        <time>2021-02-12T05:41:38Z</time>
      </trkpt>
      <trkpt lat="47.61755" lon="-0.81089">
        <ele>47</ele>
        <time>2021-02-12T05:41:36Z</time>
      </trkpt>
      <trkpt lat="47.61752" lon="-0.81099">
        <ele>47</ele>
        <time>2021-02-12T05:41:35Z</time>
      </trkpt>
      <trkpt lat="47.61742" lon="-0.81119">
        <ele>47</ele>
        <time>2021-02-12T05:41:32Z</time>
      </trkpt>
      <trkpt lat="47.61734" lon="-0.8113">
        <ele>47</ele>
        <time>2021-02-12T05:41:30Z</time>
      </trkpt>
      <trkpt lat="47.61656" lon="-0.81226">
        <ele>48</ele>
        <time>2021-02-12T05:41:12Z</time>
      </trkpt>
      <trkpt lat="47.6164" lon="-0.81243">
        <ele>48</ele>
        <time>2021-02-12T05:41:08Z</time>
      </trkpt>
      <trkpt lat="47.61482" lon="-0.81334">
        <ele>45</ele>
        <time>2021-02-12T05:40:38Z</time>
      </trkpt>
      <trkpt lat="47.61447" lon="-0.8135">
        <ele>46</ele>
        <time>2021-02-12T05:40:32Z</time>
      </trkpt>
      <trkpt lat="47.61359" lon="-0.81384">
        <ele>46</ele>
        <time>2021-02-12T05:40:15Z</time>
      </trkpt>
      <trkpt lat="47.6134" lon="-0.81393">
        <ele>46</ele>
        <time>2021-02-12T05:40:12Z</time>
      </trkpt>
      <trkpt lat="47.61329" lon="-0.81313">
        <ele>45</ele>
        <time>2021-02-12T05:40:02Z</time>
      </trkpt>
      <trkpt lat="47.6133" lon="-0.81294">
        <ele>46</ele>
        <time>2021-02-12T05:40:00Z</time>
      </trkpt>
      <trkpt lat="47.61333" lon="-0.81276">
        <ele>46</ele>
        <time>2021-02-12T05:39:58Z</time>
      </trkpt>
      <trkpt lat="47.61355" lon="-0.81222">
        <ele>48</ele>
        <time>2021-02-12T05:39:50Z</time>
      </trkpt>
      <trkpt lat="47.61382" lon="-0.81135">
        <ele>50</ele>
        <time>2021-02-12T05:39:39Z</time>
      </trkpt>
      <trkpt lat="47.61389" lon="-0.81107">
        <ele>51</ele>
        <time>2021-02-12T05:39:35Z</time>
      </trkpt>
      <trkpt lat="47.61389" lon="-0.81087">
        <ele>52</ele>
        <time>2021-02-12T05:39:33Z</time>
      </trkpt>
      <trkpt lat="47.61384" lon="-0.81068">
        <ele>52</ele>
        <time>2021-02-12T05:39:30Z</time>
      </trkpt>
      <trkpt lat="47.61377" lon="-0.81049">
        <ele>52</ele>
        <time>2021-02-12T05:39:27Z</time>
      </trkpt>
      <trkpt lat="47.61367" lon="-0.81038">
        <ele>52</ele>
        <time>2021-02-12T05:39:25Z</time>
      </trkpt>
      <trkpt lat="47.61317" lon="-0.80998">
        <ele>50</ele>
        <time>2021-02-12T05:39:15Z</time>
      </trkpt>
      <trkpt lat="47.61301" lon="-0.80992">
        <ele>50</ele>
        <time>2021-02-12T05:39:12Z</time>
      </trkpt>
      <trkpt lat="47.61288" lon="-0.80991">
        <ele>49</ele>
        <time>2021-02-12T05:39:10Z</time>
      </trkpt>
      <trkpt lat="47.61237" lon="-0.81003">
        <ele>48</ele>
        <time>2021-02-12T05:39:01Z</time>
      </trkpt>
      <trkpt lat="47.61226" lon="-0.81007">
        <ele>47</ele>
        <time>2021-02-12T05:38:59Z</time>
      </trkpt>
      <trkpt lat="47.61217" lon="-0.81017">
        <ele>47</ele>
        <time>2021-02-12T05:38:57Z</time>
      </trkpt>
      <trkpt lat="47.61212" lon="-0.81029">
        <ele>47</ele>
        <time>2021-02-12T05:38:55Z</time>
      </trkpt>
      <trkpt lat="47.61207" lon="-0.81058">
        <ele>47</ele>
        <time>2021-02-12T05:38:51Z</time>
      </trkpt>
      <trkpt lat="47.61199" lon="-0.81071">
        <ele>47</ele>
        <time>2021-02-12T05:38:49Z</time>
      </trkpt>
      <trkpt lat="47.61189" lon="-0.81077">
        <ele>47</ele>
        <time>2021-02-12T05:38:47Z</time>
      </trkpt>
      <trkpt lat="47.61123" lon="-0.81095">
        <ele>46</ele>
        <time>2021-02-12T05:38:35Z</time>
      </trkpt>
      <trkpt lat="47.60998" lon="-0.81093">
        <ele>49</ele>
        <time>2021-02-12T05:38:13Z</time>
      </trkpt>
      <trkpt lat="47.60921" lon="-0.81084">
        <ele>47</ele>
        <time>2021-02-12T05:37:59Z</time>
      </trkpt>
      <trkpt lat="47.60907" lon="-0.81077">
        <ele>47</ele>
        <time>2021-02-12T05:37:57Z</time>
      </trkpt>
      <trkpt lat="47.60895" lon="-0.81066">
        <ele>47</ele>
        <time>2021-02-12T05:37:54Z</time>
      </trkpt>
      <trkpt lat="47.60873" lon="-0.81034">
        <ele>48</ele>
        <time>2021-02-12T05:37:49Z</time>
      </trkpt>
      <trkpt lat="47.60861" lon="-0.81028">
        <ele>48</ele>
        <time>2021-02-12T05:37:47Z</time>
      </trkpt>
      <trkpt lat="47.60854" lon="-0.81028">
        <ele>48</ele>
        <time>2021-02-12T05:37:45Z</time>
      </trkpt>
      <trkpt lat="47.60807" lon="-0.81048">
        <ele>48</ele>
        <time>2021-02-12T05:37:37Z</time>
      </trkpt>
      <trkpt lat="47.60788" lon="-0.81051">
        <ele>48</ele>
        <time>2021-02-12T05:37:33Z</time>
      </trkpt>
      <trkpt lat="47.60773" lon="-0.81045">
        <ele>48</ele>
        <time>2021-02-12T05:37:30Z</time>
      </trkpt>
      <trkpt lat="47.60758" lon="-0.8103">
        <ele>49</ele>
        <time>2021-02-12T05:37:27Z</time>
      </trkpt>
      <trkpt lat="47.60726" lon="-0.80964">
        <ele>49</ele>
        <time>2021-02-12T05:37:18Z</time>
      </trkpt>
      <trkpt lat="47.60712" lon="-0.80929">
        <ele>49</ele>
        <time>2021-02-12T05:37:13Z</time>
      </trkpt>
      <trkpt lat="47.60699" lon="-0.80882">
        <ele>50</ele>
        <time>2021-02-12T05:37:07Z</time>
      </trkpt>
      <trkpt lat="47.6069" lon="-0.80827">
        <ele>50</ele>
        <time>2021-02-12T05:37:00Z</time>
      </trkpt>
      <trkpt lat="47.60685" lon="-0.80808">
        <ele>50</ele>
        <time>2021-02-12T05:36:57Z</time>
      </trkpt>
      <trkpt lat="47.60679" lon="-0.80796">
        <ele>50</ele>
        <time>2021-02-12T05:36:56Z</time>
      </trkpt>
      <trkpt lat="47.60635" lon="-0.80732">
        <ele>51</ele>
        <time>2021-02-12T05:36:45Z</time>
      </trkpt>
      <trkpt lat="47.6062" lon="-0.80699">
        <ele>51</ele>
        <time>2021-02-12T05:36:40Z</time>
      </trkpt>
      <trkpt lat="47.60615" lon="-0.80696">
        <ele>51</ele>
        <time>2021-02-12T05:36:39Z</time>
      </trkpt>
      <trkpt lat="47.60619" lon="-0.80677">
        <ele>52</ele>
        <time>2021-02-12T05:36:36Z</time>
      </trkpt>
      <trkpt lat="47.6061" lon="-0.80668">
        <ele>52</ele>
        <time>2021-02-12T05:36:34Z</time>
      </trkpt>
      <trkpt lat="47.60561" lon="-0.80572">
        <ele>52</ele>
        <time>2021-02-12T05:36:20Z</time>
      </trkpt>
      <trkpt lat="47.60537" lon="-0.80536">
        <ele>52</ele>
        <time>2021-02-12T05:36:14Z</time>
      </trkpt>
      <trkpt lat="47.60458" lon="-0.80465">
        <ele>52</ele>
        <time>2021-02-12T05:35:58Z</time>
      </trkpt>
      <trkpt lat="47.60441" lon="-0.80443">
        <ele>52</ele>
        <time>2021-02-12T05:35:54Z</time>
      </trkpt>
      <trkpt lat="47.60428" lon="-0.80422">
        <ele>52</ele>
        <time>2021-02-12T05:35:50Z</time>
      </trkpt>
      <trkpt lat="47.60409" lon="-0.8038">
        <ele>52</ele>
        <time>2021-02-12T05:35:44Z</time>
      </trkpt>
      <trkpt lat="47.6039" lon="-0.80329">
        <ele>52</ele>
        <time>2021-02-12T05:35:37Z</time>
      </trkpt>
      <trkpt lat="47.60349" lon="-0.80192">
        <ele>54</ele>
        <time>2021-02-12T05:35:19Z</time>
      </trkpt>
      <trkpt lat="47.60336" lon="-0.80157">
        <ele>54</ele>
        <time>2021-02-12T05:35:14Z</time>
      </trkpt>
      <trkpt lat="47.60321" lon="-0.80127">
        <ele>55</ele>
        <time>2021-02-12T05:35:10Z</time>
      </trkpt>
      <trkpt lat="47.60274" lon="-0.80041">
        <ele>56</ele>
        <time>2021-02-12T05:34:57Z</time>
      </trkpt>
      <trkpt lat="47.60191" lon="-0.79838">
        <ele>60</ele>
        <time>2021-02-12T05:34:28Z</time>
      </trkpt>
      <trkpt lat="47.60183" lon="-0.79826">
        <ele>61</ele>
        <time>2021-02-12T05:34:26Z</time>
      </trkpt>
      <trkpt lat="47.60174" lon="-0.79819">
        <ele>61</ele>
        <time>2021-02-12T05:34:24Z</time>
      </trkpt>
      <trkpt lat="47.60153" lon="-0.79817">
        <ele>61</ele>
        <time>2021-02-12T05:34:20Z</time>
      </trkpt>
      <trkpt lat="47.60101" lon="-0.79824">
        <ele>62</ele>
        <time>2021-02-12T05:34:11Z</time>
      </trkpt>
      <trkpt lat="47.60074" lon="-0.79819">
        <ele>62</ele>
        <time>2021-02-12T05:34:06Z</time>
      </trkpt>
      <trkpt lat="47.60049" lon="-0.79807">
        <ele>63</ele>
        <time>2021-02-12T05:34:02Z</time>
      </trkpt>
      <trkpt lat="47.60016" lon="-0.79785">
        <ele>63</ele>
        <time>2021-02-12T05:33:55Z</time>
      </trkpt>
      <trkpt lat="47.59966" lon="-0.79769">
        <ele>64</ele>
        <time>2021-02-12T05:33:46Z</time>
      </trkpt>
      <trkpt lat="47.59946" lon="-0.79755">
        <ele>65</ele>
        <time>2021-02-12T05:33:42Z</time>
      </trkpt>
      <trkpt lat="47.59942" lon="-0.79745">
        <ele>65</ele>
        <time>2021-02-12T05:33:41Z</time>
      </trkpt>
      <trkpt lat="47.59941" lon="-0.79735">
        <ele>65</ele>
        <time>2021-02-12T05:33:40Z</time>
      </trkpt>
      <trkpt lat="47.59943" lon="-0.79723">
        <ele>65</ele>
        <time>2021-02-12T05:33:38Z</time>
      </trkpt>
      <trkpt lat="47.59992" lon="-0.79597">
        <ele>66</ele>
        <time>2021-02-12T05:33:21Z</time>
      </trkpt>
      <trkpt lat="47.59994" lon="-0.79584">
        <ele>66</ele>
        <time>2021-02-12T05:33:19Z</time>
      </trkpt>
      <trkpt lat="47.59993" lon="-0.79572">
        <ele>66</ele>
        <time>2021-02-12T05:33:18Z</time>
      </trkpt>
      <trkpt lat="47.59987" lon="-0.7956">
        <ele>66</ele>
        <time>2021-02-12T05:33:16Z</time>
      </trkpt>
      <trkpt lat="47.59971" lon="-0.79538">
        <ele>67</ele>
        <time>2021-02-12T05:33:12Z</time>
      </trkpt>
      <trkpt lat="47.59959" lon="-0.79519">
        <ele>67</ele>
        <time>2021-02-12T05:33:09Z</time>
      </trkpt>
      <trkpt lat="47.5995" lon="-0.79495">
        <ele>67</ele>
        <time>2021-02-12T05:33:05Z</time>
      </trkpt>
      <trkpt lat="47.59939" lon="-0.79453">
        <ele>67</ele>
        <time>2021-02-12T05:33:00Z</time>
      </trkpt>
      <trkpt lat="47.59897" lon="-0.79302">
        <ele>66</ele>
        <time>2021-02-12T05:32:40Z</time>
      </trkpt>
      <trkpt lat="47.59847" lon="-0.79129">
        <ele>65</ele>
        <time>2021-02-12T05:32:18Z</time>
      </trkpt>
      <trkpt lat="47.59836" lon="-0.79096">
        <ele>64</ele>
        <time>2021-02-12T05:32:13Z</time>
      </trkpt>
      <trkpt lat="47.59825" lon="-0.79072">
        <ele>64</ele>
        <time>2021-02-12T05:32:10Z</time>
      </trkpt>
      <trkpt lat="47.59811" lon="-0.7905">
        <ele>64</ele>
        <time>2021-02-12T05:32:06Z</time>
      </trkpt>
      <trkpt lat="47.59714" lon="-0.78915">
        <ele>65</ele>
        <time>2021-02-12T05:31:43Z</time>
      </trkpt>
      <trkpt lat="47.59704" lon="-0.78895">
        <ele>65</ele>
        <time>2021-02-12T05:31:40Z</time>
      </trkpt>
      <trkpt lat="47.59674" lon="-0.78807">
        <ele>65</ele>
        <time>2021-02-12T05:31:28Z</time>
      </trkpt>
      <trkpt lat="47.59646" lon="-0.78731">
        <ele>64</ele>
        <time>2021-02-12T05:31:17Z</time>
      </trkpt>
      <trkpt lat="47.59633" lon="-0.78673">
        <ele>63</ele>
        <time>2021-02-12T05:31:10Z</time>
      </trkpt>
      <trkpt lat="47.59626" lon="-0.78653">
        <ele>63</ele>
        <time>2021-02-12T05:31:07Z</time>
      </trkpt>
      <trkpt lat="47.59616" lon="-0.78633">
        <ele>63</ele>
        <time>2021-02-12T05:31:04Z</time>
      </trkpt>
      <trkpt lat="47.59594" lon="-0.78601">
        <ele>63</ele>
        <time>2021-02-12T05:30:59Z</time>
      </trkpt>
      <trkpt lat="47.59587" lon="-0.78585">
        <ele>63</ele>
        <time>2021-02-12T05:30:57Z</time>
      </trkpt>
      <trkpt lat="47.59582" lon="-0.7857">
        <ele>63</ele>
        <time>2021-02-12T05:30:55Z</time>
      </trkpt>
      <trkpt lat="47.59567" lon="-0.78504">
        <ele>65</ele>
        <time>2021-02-12T05:30:46Z</time>
      </trkpt>
      <trkpt lat="47.59557" lon="-0.78469">
        <ele>65</ele>
        <time>2021-02-12T05:30:42Z</time>
      </trkpt>
      <trkpt lat="47.59545" lon="-0.7844">
        <ele>65</ele>
        <time>2021-02-12T05:30:38Z</time>
      </trkpt>
      <trkpt lat="47.59528" lon="-0.78408">
        <ele>65</ele>
        <time>2021-02-12T05:30:33Z</time>
      </trkpt>
      <trkpt lat="47.59507" lon="-0.78374">
        <ele>64</ele>
        <time>2021-02-12T05:30:27Z</time>
      </trkpt>
      <trkpt lat="47.59494" lon="-0.78356">
        <ele>63</ele>
        <time>2021-02-12T05:30:24Z</time>
      </trkpt>
      <trkpt lat="47.59463" lon="-0.78328">
        <ele>63</ele>
        <time>2021-02-12T05:30:18Z</time>
      </trkpt>
      <trkpt lat="47.59351" lon="-0.78129">
        <ele>59</ele>
        <time>2021-02-12T05:29:47Z</time>
      </trkpt>
      <trkpt lat="47.59344" lon="-0.78111">
        <ele>59</ele>
        <time>2021-02-12T05:29:44Z</time>
      </trkpt>
      <trkpt lat="47.59337" lon="-0.78092">
        <ele>59</ele>
        <time>2021-02-12T05:29:41Z</time>
      </trkpt>
      <trkpt lat="47.59287" lon="-0.77896">
        <ele>61</ele>
        <time>2021-02-12T05:29:16Z</time>
      </trkpt>
      <trkpt lat="47.59283" lon="-0.77867">
        <ele>61</ele>
        <time>2021-02-12T05:29:13Z</time>
      </trkpt>
      <trkpt lat="47.59279" lon="-0.77822">
        <ele>61</ele>
        <time>2021-02-12T05:29:07Z</time>
      </trkpt>
      <trkpt lat="47.59277" lon="-0.77746">
        <ele>62</ele>
        <time>2021-02-12T05:28:58Z</time>
      </trkpt>
      <trkpt lat="47.5925" lon="-0.77528">
        <ele>66</ele>
        <time>2021-02-12T05:28:32Z</time>
      </trkpt>
      <trkpt lat="47.59245" lon="-0.77472">
        <ele>66</ele>
        <time>2021-02-12T05:28:25Z</time>
      </trkpt>
      <trkpt lat="47.59219" lon="-0.77352">
        <ele>65</ele>
        <time>2021-02-12T05:28:10Z</time>
      </trkpt>
      <trkpt lat="47.59211" lon="-0.7733">
        <ele>65</ele>
        <time>2021-02-12T05:28:07Z</time>
      </trkpt>
      <trkpt lat="47.59201" lon="-0.77307">
        <ele>65</ele>
        <time>2021-02-12T05:28:03Z</time>
      </trkpt>
      <trkpt lat="47.5915" lon="-0.77225">
        <ele>64</ele>
        <time>2021-02-12T05:27:50Z</time>
      </trkpt>
      <trkpt lat="47.59141" lon="-0.77206">
        <ele>64</ele>
        <time>2021-02-12T05:27:47Z</time>
      </trkpt>
      <trkpt lat="47.59133" lon="-0.77184">
        <ele>63</ele>
        <time>2021-02-12T05:27:44Z</time>
      </trkpt>
      <trkpt lat="47.5913" lon="-0.77162">
        <ele>62</ele>
        <time>2021-02-12T05:27:42Z</time>
      </trkpt>
      <trkpt lat="47.59132" lon="-0.77105">
        <ele>62</ele>
        <time>2021-02-12T05:27:35Z</time>
      </trkpt>
      <trkpt lat="47.59129" lon="-0.77085">
        <ele>61</ele>
        <time>2021-02-12T05:27:32Z</time>
      </trkpt>
      <trkpt lat="47.59117" lon="-0.7705">
        <ele>61</ele>
        <time>2021-02-12T05:27:28Z</time>
      </trkpt>
      <trkpt lat="47.59117" lon="-0.77038">
        <ele>60</ele>
        <time>2021-02-12T05:27:26Z</time>
      </trkpt>
      <trkpt lat="47.59067" lon="-0.77003">
        <ele>60</ele>
        <time>2021-02-12T05:27:16Z</time>
      </trkpt>
      <trkpt lat="47.59039" lon="-0.76974">
        <ele>60</ele>
        <time>2021-02-12T05:27:10Z</time>
      </trkpt>
      <trkpt lat="47.59015" lon="-0.76945">
        <ele>59</ele>
        <time>2021-02-12T05:27:05Z</time>
      </trkpt>
      <trkpt lat="47.58974" lon="-0.76884">
        <ele>60</ele>
        <time>2021-02-12T05:26:54Z</time>
      </trkpt>
      <trkpt lat="47.58955" lon="-0.76862">
        <ele>60</ele>
        <time>2021-02-12T05:26:50Z</time>
      </trkpt>
      <trkpt lat="47.5893" lon="-0.7684">
        <ele>61</ele>
        <time>2021-02-12T05:26:45Z</time>
      </trkpt>
      <trkpt lat="47.58879" lon="-0.76806">
        <ele>61</ele>
        <time>2021-02-12T05:26:35Z</time>
      </trkpt>
      <trkpt lat="47.58864" lon="-0.76787">
        <ele>62</ele>
        <time>2021-02-12T05:26:31Z</time>
      </trkpt>
      <trkpt lat="47.58851" lon="-0.76755">
        <ele>62</ele>
        <time>2021-02-12T05:26:27Z</time>
      </trkpt>
      <trkpt lat="47.58822" lon="-0.76651">
        <ele>62</ele>
        <time>2021-02-12T05:26:13Z</time>
      </trkpt>
      <trkpt lat="47.58811" lon="-0.76626">
        <ele>62</ele>
        <time>2021-02-12T05:26:10Z</time>
      </trkpt>
      <trkpt lat="47.5878" lon="-0.76578">
        <ele>61</ele>
        <time>2021-02-12T05:26:02Z</time>
      </trkpt>
      <trkpt lat="47.58762" lon="-0.76543">
        <ele>61</ele>
        <time>2021-02-12T05:25:57Z</time>
      </trkpt>
      <trkpt lat="47.58754" lon="-0.76522">
        <ele>62</ele>
        <time>2021-02-12T05:25:54Z</time>
      </trkpt>
      <trkpt lat="47.58739" lon="-0.76466">
        <ele>62</ele>
        <time>2021-02-12T05:25:46Z</time>
      </trkpt>
      <trkpt lat="47.58729" lon="-0.76439">
        <ele>62</ele>
        <time>2021-02-12T05:25:43Z</time>
      </trkpt>
      <trkpt lat="47.58722" lon="-0.76423">
        <ele>62</ele>
        <time>2021-02-12T05:25:40Z</time>
      </trkpt>
      <trkpt lat="47.58713" lon="-0.76412">
        <ele>62</ele>
        <time>2021-02-12T05:25:38Z</time>
      </trkpt>
      <trkpt lat="47.58669" lon="-0.76374">
        <ele>63</ele>
        <time>2021-02-12T05:25:29Z</time>
      </trkpt>
      <trkpt lat="47.58589" lon="-0.76268">
        <ele>66</ele>
        <time>2021-02-12T05:25:10Z</time>
      </trkpt>
      <trkpt lat="47.58562" lon="-0.76241">
        <ele>66</ele>
        <time>2021-02-12T05:25:04Z</time>
      </trkpt>
      <trkpt lat="47.58542" lon="-0.76228">
        <ele>67</ele>
        <time>2021-02-12T05:25:01Z</time>
      </trkpt>
      <trkpt lat="47.58502" lon="-0.76215">
        <ele>68</ele>
        <time>2021-02-12T05:24:53Z</time>
      </trkpt>
      <trkpt lat="47.58502" lon="-0.76176">
        <ele>69</ele>
        <time>2021-02-12T05:24:49Z</time>
      </trkpt>
      <trkpt lat="47.58499" lon="-0.7617">
        <ele>69</ele>
        <time>2021-02-12T05:24:48Z</time>
      </trkpt>
      <trkpt lat="47.58484" lon="-0.76164">
        <ele>70</ele>
        <time>2021-02-12T05:24:45Z</time>
      </trkpt>
      <trkpt lat="47.5846" lon="-0.7617">
        <ele>70</ele>
        <time>2021-02-12T05:24:41Z</time>
      </trkpt>
      <trkpt lat="47.58459" lon="-0.76142">
        <ele>70</ele>
        <time>2021-02-12T05:24:37Z</time>
      </trkpt>
      <trkpt lat="47.58451" lon="-0.76101">
        <ele>70</ele>
        <time>2021-02-12T05:24:32Z</time>
      </trkpt>
      <trkpt lat="47.58439" lon="-0.76053">
        <ele>69</ele>
        <time>2021-02-12T05:24:26Z</time>
      </trkpt>
      <trkpt lat="47.58433" lon="-0.76037">
        <ele>70</ele>
        <time>2021-02-12T05:24:24Z</time>
      </trkpt>
      <trkpt lat="47.58383" lon="-0.75923">
        <ele>73</ele>
        <time>2021-02-12T05:24:07Z</time>
      </trkpt>
      <trkpt lat="47.58186" lon="-0.75578">
        <ele>78</ele>
        <time>2021-02-12T05:23:13Z</time>
      </trkpt>
      <trkpt lat="47.58113" lon="-0.75459">
        <ele>75</ele>
        <time>2021-02-12T05:22:54Z</time>
      </trkpt>
      <trkpt lat="47.58096" lon="-0.75416">
        <ele>75</ele>
        <time>2021-02-12T05:22:48Z</time>
      </trkpt>
      <trkpt lat="47.58086" lon="-0.75377">
        <ele>76</ele>
        <time>2021-02-12T05:22:43Z</time>
      </trkpt>
      <trkpt lat="47.58037" lon="-0.75162">
        <ele>80</ele>
        <time>2021-02-12T05:22:16Z</time>
      </trkpt>
      <trkpt lat="47.58029" lon="-0.75116">
        <ele>81</ele>
        <time>2021-02-12T05:22:10Z</time>
      </trkpt>
      <trkpt lat="47.58001" lon="-0.74827">
        <ele>84</ele>
        <time>2021-02-12T05:21:35Z</time>
      </trkpt>
      <trkpt lat="47.57981" lon="-0.74712">
        <ele>83</ele>
        <time>2021-02-12T05:21:21Z</time>
      </trkpt>
      <trkpt lat="47.57953" lon="-0.7459">
        <ele>82</ele>
        <time>2021-02-12T05:21:05Z</time>
      </trkpt>
      <trkpt lat="47.57892" lon="-0.74392">
        <ele>78</ele>
        <time>2021-02-12T05:20:39Z</time>
      </trkpt>
      <trkpt lat="47.57848" lon="-0.7426">
        <ele>76</ele>
        <time>2021-02-12T05:20:21Z</time>
      </trkpt>
      <trkpt lat="47.57758" lon="-0.73979">
        <ele>75</ele>
        <time>2021-02-12T05:19:44Z</time>
      </trkpt>
      <trkpt lat="47.57698" lon="-0.738">
        <ele>74</ele>
        <time>2021-02-12T05:19:20Z</time>
      </trkpt>
      <trkpt lat="47.57687" lon="-0.73777">
        <ele>75</ele>
        <time>2021-02-12T05:19:17Z</time>
      </trkpt>
      <trkpt lat="47.57585" lon="-0.73582">
        <ele>80</ele>
        <time>2021-02-12T05:18:47Z</time>
      </trkpt>
      <trkpt lat="47.57575" lon="-0.73559">
        <ele>80</ele>
        <time>2021-02-12T05:18:44Z</time>
      </trkpt>
      <trkpt lat="47.57567" lon="-0.73535">
        <ele>81</ele>
        <time>2021-02-12T05:18:41Z</time>
      </trkpt>
      <trkpt lat="47.57532" lon="-0.73394">
        <ele>80</ele>
        <time>2021-02-12T05:18:23Z</time>
      </trkpt>
      <trkpt lat="47.57514" lon="-0.73342">
        <ele>78</ele>
        <time>2021-02-12T05:18:16Z</time>
      </trkpt>
      <trkpt lat="47.57502" lon="-0.73317">
        <ele>78</ele>
        <time>2021-02-12T05:18:12Z</time>
      </trkpt>
      <trkpt lat="47.5746" lon="-0.73247">
        <ele>76</ele>
        <time>2021-02-12T05:18:01Z</time>
      </trkpt>
      <trkpt lat="47.57456" lon="-0.7325">
        <ele>76</ele>
        <time>2021-02-12T05:18:00Z</time>
      </trkpt>
      <trkpt lat="47.57436" lon="-0.73262">
        <ele>77</ele>
        <time>2021-02-12T05:17:56Z</time>
      </trkpt>
      <trkpt lat="47.57412" lon="-0.73284">
        <ele>78</ele>
        <time>2021-02-12T05:17:51Z</time>
      </trkpt>
      <trkpt lat="47.57393" lon="-0.73309">
        <ele>78</ele>
        <time>2021-02-12T05:17:46Z</time>
      </trkpt>
      <trkpt lat="47.57378" lon="-0.73336">
        <ele>80</ele>
        <time>2021-02-12T05:17:42Z</time>
      </trkpt>
      <trkpt lat="47.57365" lon="-0.7337">
        <ele>80</ele>
        <time>2021-02-12T05:17:38Z</time>
      </trkpt>
      <trkpt lat="47.57279" lon="-0.73683">
        <ele>82</ele>
        <time>2021-02-12T05:16:57Z</time>
      </trkpt>
      <trkpt lat="47.57235" lon="-0.73801">
        <ele>82</ele>
        <time>2021-02-12T05:16:41Z</time>
      </trkpt>
      <trkpt lat="47.57223" lon="-0.73834">
        <ele>83</ele>
        <time>2021-02-12T05:16:36Z</time>
      </trkpt>
      <trkpt lat="47.57219" lon="-0.73846">
        <ele>83</ele>
        <time>2021-02-12T05:16:35Z</time>
      </trkpt>
      <trkpt lat="47.57209" lon="-0.73884">
        <ele>83</ele>
        <time>2021-02-12T05:16:30Z</time>
      </trkpt>
      <trkpt lat="47.57182" lon="-0.74086">
        <ele>84</ele>
        <time>2021-02-12T05:16:05Z</time>
      </trkpt>
      <trkpt lat="47.57169" lon="-0.74142">
        <ele>85</ele>
        <time>2021-02-12T05:15:58Z</time>
      </trkpt>
      <trkpt lat="47.57131" lon="-0.74238">
        <ele>84</ele>
        <time>2021-02-12T05:15:45Z</time>
      </trkpt>
      <trkpt lat="47.57118" lon="-0.74268">
        <ele>85</ele>
        <time>2021-02-12T05:15:40Z</time>
      </trkpt>
      <trkpt lat="47.57101" lon="-0.7429">
        <ele>86</ele>
        <time>2021-02-12T05:15:36Z</time>
      </trkpt>
      <trkpt lat="47.56911" lon="-0.74494">
        <ele>96</ele>
        <time>2021-02-12T05:14:55Z</time>
      </trkpt>
      <trkpt lat="47.56866" lon="-0.74509">
        <ele>97</ele>
        <time>2021-02-12T05:14:46Z</time>
      </trkpt>
      <trkpt lat="47.56837" lon="-0.74519">
        <ele>98</ele>
        <time>2021-02-12T05:14:41Z</time>
      </trkpt>
      <trkpt lat="47.5648" lon="-0.74638">
        <ele>105</ele>
        <time>2021-02-12T05:13:36Z</time>
      </trkpt>
      <trkpt lat="47.56299" lon="-0.74699">
        <ele>102</ele>
        <time>2021-02-12T05:13:03Z</time>
      </trkpt>
      <trkpt lat="47.56193" lon="-0.74742">
        <ele>97</ele>
        <time>2021-02-12T05:12:43Z</time>
      </trkpt>
      <trkpt lat="47.56168" lon="-0.74752">
        <ele>95</ele>
        <time>2021-02-12T05:12:39Z</time>
      </trkpt>
      <trkpt lat="47.55876" lon="-0.74871">
        <ele>91</ele>
        <time>2021-02-12T05:11:45Z</time>
      </trkpt>
      <trkpt lat="47.55806" lon="-0.74907">
        <ele>90</ele>
        <time>2021-02-12T05:11:32Z</time>
      </trkpt>
      <trkpt lat="47.55788" lon="-0.7492">
        <ele>89</ele>
        <time>2021-02-12T05:11:28Z</time>
      </trkpt>
      <trkpt lat="47.55772" lon="-0.74934">
        <ele>89</ele>
        <time>2021-02-12T05:11:25Z</time>
      </trkpt>
      <trkpt lat="47.55759" lon="-0.74946">
        <ele>89</ele>
        <time>2021-02-12T05:11:22Z</time>
      </trkpt>
      <trkpt lat="47.55757" lon="-0.74943">
        <ele>89</ele>
        <time>2021-02-12T05:11:22Z</time>
      </trkpt>
      <trkpt lat="47.55753" lon="-0.74932">
        <ele>89</ele>
        <time>2021-02-12T05:11:20Z</time>
      </trkpt>
      <trkpt lat="47.5575" lon="-0.74912">
        <ele>89</ele>
        <time>2021-02-12T05:11:18Z</time>
      </trkpt>
      <trkpt lat="47.55744" lon="-0.74838">
        <ele>89</ele>
        <time>2021-02-12T05:11:09Z</time>
      </trkpt>
      <trkpt lat="47.55744" lon="-0.74811">
        <ele>89</ele>
        <time>2021-02-12T05:11:05Z</time>
      </trkpt>
      <trkpt lat="47.55747" lon="-0.74769">
        <ele>88</ele>
        <time>2021-02-12T05:11:00Z</time>
      </trkpt>
      <trkpt lat="47.55765" lon="-0.74586">
        <ele>88</ele>
        <time>2021-02-12T05:10:38Z</time>
      </trkpt>
      <trkpt lat="47.55768" lon="-0.74529">
        <ele>87</ele>
        <time>2021-02-12T05:10:31Z</time>
      </trkpt>
      <trkpt lat="47.55767" lon="-0.74499">
        <ele>86</ele>
        <time>2021-02-12T05:10:28Z</time>
      </trkpt>
      <trkpt lat="47.55762" lon="-0.74468">
        <ele>86</ele>
        <time>2021-02-12T05:10:24Z</time>
      </trkpt>
      <trkpt lat="47.55752" lon="-0.7444">
        <ele>86</ele>
        <time>2021-02-12T05:10:20Z</time>
      </trkpt>
      <trkpt lat="47.5568" lon="-0.74325">
        <ele>86</ele>
        <time>2021-02-12T05:10:01Z</time>
      </trkpt>
      <trkpt lat="47.55672" lon="-0.74307">
        <ele>86</ele>
        <time>2021-02-12T05:09:59Z</time>
      </trkpt>
      <trkpt lat="47.55664" lon="-0.74274">
        <ele>86</ele>
        <time>2021-02-12T05:09:54Z</time>
      </trkpt>
      <trkpt lat="47.55663" lon="-0.74251">
        <ele>86</ele>
        <time>2021-02-12T05:09:52Z</time>
      </trkpt>
      <trkpt lat="47.55662" lon="-0.74038">
        <ele>84</ele>
        <time>2021-02-12T05:09:26Z</time>
      </trkpt>
      <trkpt lat="47.55646" lon="-0.73921">
        <ele>85</ele>
        <time>2021-02-12T05:09:12Z</time>
      </trkpt>
      <trkpt lat="47.55632" lon="-0.7383">
        <ele>86</ele>
        <time>2021-02-12T05:09:01Z</time>
      </trkpt>
      <trkpt lat="47.55627" lon="-0.738">
        <ele>86</ele>
        <time>2021-02-12T05:08:57Z</time>
      </trkpt>
      <trkpt lat="47.55599" lon="-0.73618">
        <ele>88</ele>
        <time>2021-02-12T05:08:34Z</time>
      </trkpt>
      <trkpt lat="47.55584" lon="-0.73555">
        <ele>89</ele>
        <time>2021-02-12T05:08:26Z</time>
      </trkpt>
      <trkpt lat="47.5556" lon="-0.73527">
        <ele>90</ele>
        <time>2021-02-12T05:08:21Z</time>
      </trkpt>
      <trkpt lat="47.55509" lon="-0.73487">
        <ele>91</ele>
        <time>2021-02-12T05:08:11Z</time>
      </trkpt>
      <trkpt lat="47.55392" lon="-0.73388">
        <ele>90</ele>
        <time>2021-02-12T05:07:47Z</time>
      </trkpt>
      <trkpt lat="47.55348" lon="-0.73346">
        <ele>91</ele>
        <time>2021-02-12T05:07:37Z</time>
      </trkpt>
      <trkpt lat="47.55319" lon="-0.733">
        <ele>90</ele>
        <time>2021-02-12T05:07:30Z</time>
      </trkpt>
      <trkpt lat="47.55297" lon="-0.73266">
        <ele>90</ele>
        <time>2021-02-12T05:07:24Z</time>
      </trkpt>
      <trkpt lat="47.55244" lon="-0.73183">
        <ele>90</ele>
        <time>2021-02-12T05:07:10Z</time>
      </trkpt>
      <trkpt lat="47.55202" lon="-0.73094">
        <ele>90</ele>
        <time>2021-02-12T05:06:57Z</time>
      </trkpt>
      <trkpt lat="47.55095" lon="-0.72845">
        <ele>88</ele>
        <time>2021-02-12T05:06:22Z</time>
      </trkpt>
      <trkpt lat="47.55082" lon="-0.72818">
        <ele>88</ele>
        <time>2021-02-12T05:06:18Z</time>
      </trkpt>
      <trkpt lat="47.55074" lon="-0.72805">
        <ele>88</ele>
        <time>2021-02-12T05:06:16Z</time>
      </trkpt>
      <trkpt lat="47.55063" lon="-0.72789">
        <ele>88</ele>
        <time>2021-02-12T05:06:13Z</time>
      </trkpt>
      <trkpt lat="47.55032" lon="-0.72765">
        <ele>88</ele>
        <time>2021-02-12T05:06:07Z</time>
      </trkpt>
      <trkpt lat="47.5495" lon="-0.72719">
        <ele>88</ele>
        <time>2021-02-12T05:05:51Z</time>
      </trkpt>
      <trkpt lat="47.54928" lon="-0.72703">
        <ele>87</ele>
        <time>2021-02-12T05:05:47Z</time>
      </trkpt>
      <trkpt lat="47.54911" lon="-0.72686">
        <ele>87</ele>
        <time>2021-02-12T05:05:43Z</time>
      </trkpt>
      <trkpt lat="47.54876" lon="-0.72636">
        <ele>87</ele>
        <time>2021-02-12T05:05:35Z</time>
      </trkpt>
      <trkpt lat="47.54857" lon="-0.72617">
        <ele>87</ele>
        <time>2021-02-12T05:05:31Z</time>
      </trkpt>
      <trkpt lat="47.54846" lon="-0.7261">
        <ele>87</ele>
        <time>2021-02-12T05:05:28Z</time>
      </trkpt>
      <trkpt lat="47.5483" lon="-0.72604">
        <ele>88</ele>
        <time>2021-02-12T05:05:25Z</time>
      </trkpt>
      <trkpt lat="47.54807" lon="-0.72604">
        <ele>88</ele>
        <time>2021-02-12T05:05:21Z</time>
      </trkpt>
      <trkpt lat="47.54584" lon="-0.72672">
        <ele>84</ele>
        <time>2021-02-12T05:04:41Z</time>
      </trkpt>
      <trkpt lat="47.5454" lon="-0.72672">
        <ele>83</ele>
        <time>2021-02-12T05:04:33Z</time>
      </trkpt>
      <trkpt lat="47.54515" lon="-0.72667">
        <ele>83</ele>
        <time>2021-02-12T05:04:29Z</time>
      </trkpt>
      <trkpt lat="47.54488" lon="-0.72655">
        <ele>83</ele>
        <time>2021-02-12T05:04:24Z</time>
      </trkpt>
      <trkpt lat="47.54464" lon="-0.72639">
        <ele>82</ele>
        <time>2021-02-12T05:04:19Z</time>
      </trkpt>
      <trkpt lat="47.54454" lon="-0.72628">
        <ele>81</ele>
        <time>2021-02-12T05:04:17Z</time>
      </trkpt>
      <trkpt lat="47.54447" lon="-0.72617">
        <ele>81</ele>
        <time>2021-02-12T05:04:15Z</time>
      </trkpt>
      <trkpt lat="47.54441" lon="-0.726">
        <ele>81</ele>
        <time>2021-02-12T05:04:13Z</time>
      </trkpt>
      <trkpt lat="47.54429" lon="-0.72545">
        <ele>79</ele>
        <time>2021-02-12T05:04:06Z</time>
      </trkpt>
      <trkpt lat="47.54421" lon="-0.72488">
        <ele>77</ele>
        <time>2021-02-12T05:03:59Z</time>
      </trkpt>
      <trkpt lat="47.54409" lon="-0.72341">
        <ele>75</ele>
        <time>2021-02-12T05:03:41Z</time>
      </trkpt>
      <trkpt lat="47.54407" lon="-0.72287">
        <ele>74</ele>
        <time>2021-02-12T05:03:34Z</time>
      </trkpt>
      <trkpt lat="47.54409" lon="-0.72246">
        <ele>73</ele>
        <time>2021-02-12T05:03:29Z</time>
      </trkpt>
      <trkpt lat="47.54416" lon="-0.72219">
        <ele>73</ele>
        <time>2021-02-12T05:03:26Z</time>
      </trkpt>
      <trkpt lat="47.54434" lon="-0.72162">
        <ele>72</ele>
        <time>2021-02-12T05:03:18Z</time>
      </trkpt>
      <trkpt lat="47.54438" lon="-0.7214">
        <ele>73</ele>
        <time>2021-02-12T05:03:16Z</time>
      </trkpt>
      <trkpt lat="47.5444" lon="-0.7212">
        <ele>74</ele>
        <time>2021-02-12T05:03:13Z</time>
      </trkpt>
      <trkpt lat="47.54435" lon="-0.72066">
        <ele>75</ele>
        <time>2021-02-12T05:03:07Z</time>
      </trkpt>
      <trkpt lat="47.54428" lon="-0.72016">
        <ele>77</ele>
        <time>2021-02-12T05:03:00Z</time>
      </trkpt>
      <trkpt lat="47.54419" lon="-0.71983">
        <ele>77</ele>
        <time>2021-02-12T05:02:56Z</time>
      </trkpt>
      <trkpt lat="47.54372" lon="-0.7186">
        <ele>76</ele>
        <time>2021-02-12T05:02:39Z</time>
      </trkpt>
      <trkpt lat="47.54363" lon="-0.71841">
        <ele>75</ele>
        <time>2021-02-12T05:02:36Z</time>
      </trkpt>
      <trkpt lat="47.54351" lon="-0.71825">
        <ele>75</ele>
        <time>2021-02-12T05:02:34Z</time>
      </trkpt>
      <trkpt lat="47.54212" lon="-0.71689">
        <ele>80</ele>
        <time>2021-02-12T05:02:04Z</time>
      </trkpt>
      <trkpt lat="47.54191" lon="-0.71668">
        <ele>81</ele>
        <time>2021-02-12T05:01:59Z</time>
      </trkpt>
      <trkpt lat="47.54189" lon="-0.71665">
        <ele>81</ele>
        <time>2021-02-12T05:01:59Z</time>
      </trkpt>
      <trkpt lat="47.54187" lon="-0.71662">
        <ele>81</ele>
        <time>2021-02-12T05:01:58Z</time>
      </trkpt>
      <trkpt lat="47.54145" lon="-0.71595">
        <ele>82</ele>
        <time>2021-02-12T05:01:47Z</time>
      </trkpt>
      <trkpt lat="47.54109" lon="-0.71539">
        <ele>84</ele>
        <time>2021-02-12T05:01:38Z</time>
      </trkpt>
      <trkpt lat="47.54032" lon="-0.71411">
        <ele>85</ele>
        <time>2021-02-12T05:01:18Z</time>
      </trkpt>
      <trkpt lat="47.54007" lon="-0.71367">
        <ele>85</ele>
        <time>2021-02-12T05:01:11Z</time>
      </trkpt>
      <trkpt lat="47.53992" lon="-0.71328">
        <ele>85</ele>
        <time>2021-02-12T05:01:05Z</time>
      </trkpt>
      <trkpt lat="47.5394" lon="-0.71145">
        <ele>84</ele>
        <time>2021-02-12T05:00:41Z</time>
      </trkpt>
      <trkpt lat="47.53911" lon="-0.71056">
        <ele>84</ele>
        <time>2021-02-12T05:00:30Z</time>
      </trkpt>
      <trkpt lat="47.53872" lon="-0.70953">
        <ele>82</ele>
        <time>2021-02-12T05:00:15Z</time>
      </trkpt>
      <trkpt lat="47.53871" lon="-0.7094">
        <ele>81</ele>
        <time>2021-02-12T05:00:14Z</time>
      </trkpt>
      <trkpt lat="47.53871" lon="-0.70922">
        <ele>81</ele>
        <time>2021-02-12T05:00:12Z</time>
      </trkpt>
      <trkpt lat="47.53877" lon="-0.70885">
        <ele>82</ele>
        <time>2021-02-12T05:00:07Z</time>
      </trkpt>
      <trkpt lat="47.53882" lon="-0.70838">
        <ele>82</ele>
        <time>2021-02-12T05:00:01Z</time>
      </trkpt>
      <trkpt lat="47.53883" lon="-0.70806">
        <ele>82</ele>
        <time>2021-02-12T04:59:57Z</time>
      </trkpt>
      <trkpt lat="47.53883" lon="-0.70768">
        <ele>81</ele>
        <time>2021-02-12T04:59:53Z</time>
      </trkpt>
      <trkpt lat="47.53872" lon="-0.70612">
        <ele>80</ele>
        <time>2021-02-12T04:59:34Z</time>
      </trkpt>
      <trkpt lat="47.53865" lon="-0.70565">
        <ele>79</ele>
        <time>2021-02-12T04:59:28Z</time>
      </trkpt>
      <trkpt lat="47.53823" lon="-0.70326">
        <ele>81</ele>
        <time>2021-02-12T04:58:59Z</time>
      </trkpt>
      <trkpt lat="47.53791" lon="-0.7012">
        <ele>80</ele>
        <time>2021-02-12T04:58:33Z</time>
      </trkpt>
      <trkpt lat="47.53777" lon="-0.70059">
        <ele>80</ele>
        <time>2021-02-12T04:58:26Z</time>
      </trkpt>
      <trkpt lat="47.53747" lon="-0.69957">
        <ele>83</ele>
        <time>2021-02-12T04:58:12Z</time>
      </trkpt>
      <trkpt lat="47.53722" lon="-0.69878">
        <ele>81</ele>
        <time>2021-02-12T04:58:02Z</time>
      </trkpt>
      <trkpt lat="47.53697" lon="-0.69795">
        <ele>78</ele>
        <time>2021-02-12T04:57:51Z</time>
      </trkpt>
      <trkpt lat="47.53682" lon="-0.69764">
        <ele>77</ele>
        <time>2021-02-12T04:57:46Z</time>
      </trkpt>
      <trkpt lat="47.53617" lon="-0.69682">
        <ele>75</ele>
        <time>2021-02-12T04:57:31Z</time>
      </trkpt>
      <trkpt lat="47.53581" lon="-0.69628">
        <ele>75</ele>
        <time>2021-02-12T04:57:22Z</time>
      </trkpt>
      <trkpt lat="47.53551" lon="-0.69566">
        <ele>75</ele>
        <time>2021-02-12T04:57:13Z</time>
      </trkpt>
      <trkpt lat="47.53507" lon="-0.69492">
        <ele>74</ele>
        <time>2021-02-12T04:57:01Z</time>
      </trkpt>
      <trkpt lat="47.53469" lon="-0.69435">
        <ele>73</ele>
        <time>2021-02-12T04:56:51Z</time>
      </trkpt>
      <trkpt lat="47.53465" lon="-0.69429">
        <ele>73</ele>
        <time>2021-02-12T04:56:50Z</time>
      </trkpt>
      <trkpt lat="47.53459" lon="-0.69421">
        <ele>73</ele>
        <time>2021-02-12T04:56:49Z</time>
      </trkpt>
      <trkpt lat="47.53451" lon="-0.69407">
        <ele>73</ele>
        <time>2021-02-12T04:56:47Z</time>
      </trkpt>
      <trkpt lat="47.53431" lon="-0.69379">
        <ele>72</ele>
        <time>2021-02-12T04:56:42Z</time>
      </trkpt>
      <trkpt lat="47.53413" lon="-0.69348">
        <ele>72</ele>
        <time>2021-02-12T04:56:37Z</time>
      </trkpt>
      <trkpt lat="47.53375" lon="-0.69261">
        <ele>72</ele>
        <time>2021-02-12T04:56:24Z</time>
      </trkpt>
      <trkpt lat="47.53359" lon="-0.69233">
        <ele>72</ele>
        <time>2021-02-12T04:56:20Z</time>
      </trkpt>
      <trkpt lat="47.53338" lon="-0.69203">
        <ele>71</ele>
        <time>2021-02-12T04:56:15Z</time>
      </trkpt>
      <trkpt lat="47.53305" lon="-0.69169">
        <ele>71</ele>
        <time>2021-02-12T04:56:08Z</time>
      </trkpt>
      <trkpt lat="47.53281" lon="-0.69151">
        <ele>71</ele>
        <time>2021-02-12T04:56:03Z</time>
      </trkpt>
      <trkpt lat="47.53258" lon="-0.69135">
        <ele>70</ele>
        <time>2021-02-12T04:55:58Z</time>
      </trkpt>
      <trkpt lat="47.53235" lon="-0.69117">
        <ele>70</ele>
        <time>2021-02-12T04:55:54Z</time>
      </trkpt>
      <trkpt lat="47.5322" lon="-0.691">
        <ele>69</ele>
        <time>2021-02-12T04:55:50Z</time>
      </trkpt>
      <trkpt lat="47.53208" lon="-0.69079">
        <ele>69</ele>
        <time>2021-02-12T04:55:47Z</time>
      </trkpt>
      <trkpt lat="47.53151" lon="-0.68966">
        <ele>69</ele>
        <time>2021-02-12T04:55:30Z</time>
      </trkpt>
      <trkpt lat="47.5311" lon="-0.68885">
        <ele>68</ele>
        <time>2021-02-12T04:55:18Z</time>
      </trkpt>
      <trkpt lat="47.53093" lon="-0.68849">
        <ele>67</ele>
        <time>2021-02-12T04:55:13Z</time>
      </trkpt>
      <trkpt lat="47.53041" lon="-0.68731">
        <ele>66</ele>
        <time>2021-02-12T04:54:56Z</time>
      </trkpt>
      <trkpt lat="47.53024" lon="-0.68694">
        <ele>65</ele>
        <time>2021-02-12T04:54:50Z</time>
      </trkpt>
      <trkpt lat="47.53022" lon="-0.68691">
        <ele>65</ele>
        <time>2021-02-12T04:54:50Z</time>
      </trkpt>
      <trkpt lat="47.53001" lon="-0.68644">
        <ele>65</ele>
        <time>2021-02-12T04:54:43Z</time>
      </trkpt>
      <trkpt lat="47.52982" lon="-0.68605">
        <ele>65</ele>
        <time>2021-02-12T04:54:37Z</time>
      </trkpt>
      <trkpt lat="47.52939" lon="-0.68533">
        <ele>65</ele>
        <time>2021-02-12T04:54:26Z</time>
      </trkpt>
      <trkpt lat="47.52917" lon="-0.68503">
        <ele>65</ele>
        <time>2021-02-12T04:54:20Z</time>
      </trkpt>
      <trkpt lat="47.52822" lon="-0.68414">
        <ele>64</ele>
        <time>2021-02-12T04:54:00Z</time>
      </trkpt>
      <trkpt lat="47.52808" lon="-0.68395">
        <ele>64</ele>
        <time>2021-02-12T04:53:57Z</time>
      </trkpt>
      <trkpt lat="47.52794" lon="-0.68372">
        <ele>65</ele>
        <time>2021-02-12T04:53:53Z</time>
      </trkpt>
      <trkpt lat="47.52762" lon="-0.68312">
        <ele>65</ele>
        <time>2021-02-12T04:53:44Z</time>
      </trkpt>
      <trkpt lat="47.52741" lon="-0.68279">
        <ele>65</ele>
        <time>2021-02-12T04:53:39Z</time>
      </trkpt>
      <trkpt lat="47.52726" lon="-0.68262">
        <ele>64</ele>
        <time>2021-02-12T04:53:35Z</time>
      </trkpt>
      <trkpt lat="47.52667" lon="-0.68211">
        <ele>61</ele>
        <time>2021-02-12T04:53:23Z</time>
      </trkpt>
      <trkpt lat="47.52653" lon="-0.68191">
        <ele>60</ele>
        <time>2021-02-12T04:53:20Z</time>
      </trkpt>
      <trkpt lat="47.5262" lon="-0.68126">
        <ele>57</ele>
        <time>2021-02-12T04:53:10Z</time>
      </trkpt>
      <trkpt lat="47.52563" lon="-0.68045">
        <ele>52</ele>
        <time>2021-02-12T04:52:56Z</time>
      </trkpt>
      <trkpt lat="47.52528" lon="-0.6799">
        <ele>50</ele>
        <time>2021-02-12T04:52:47Z</time>
      </trkpt>
      <trkpt lat="47.52516" lon="-0.67972">
        <ele>49</ele>
        <time>2021-02-12T04:52:44Z</time>
      </trkpt>
      <trkpt lat="47.52503" lon="-0.67955">
        <ele>48</ele>
        <time>2021-02-12T04:52:41Z</time>
      </trkpt>
      <trkpt lat="47.52434" lon="-0.67899">
        <ele>42</ele>
        <time>2021-02-12T04:52:27Z</time>
      </trkpt>
      <trkpt lat="47.52408" lon="-0.67873">
        <ele>40</ele>
        <time>2021-02-12T04:52:21Z</time>
      </trkpt>
      <trkpt lat="47.52339" lon="-0.67792">
        <ele>35</ele>
        <time>2021-02-12T04:52:05Z</time>
      </trkpt>
      <trkpt lat="47.52309" lon="-0.6775">
        <ele>34</ele>
        <time>2021-02-12T04:51:58Z</time>
      </trkpt>
      <trkpt lat="47.52294" lon="-0.67726">
        <ele>34</ele>
        <time>2021-02-12T04:51:54Z</time>
      </trkpt>
      <trkpt lat="47.52268" lon="-0.67681">
        <ele>34</ele>
        <time>2021-02-12T04:51:47Z</time>
      </trkpt>
      <trkpt lat="47.52244" lon="-0.67635">
        <ele>34</ele>
        <time>2021-02-12T04:51:40Z</time>
      </trkpt>
      <trkpt lat="47.52149" lon="-0.67423">
        <ele>38</ele>
        <time>2021-02-12T04:51:09Z</time>
      </trkpt>
      <trkpt lat="47.52095" lon="-0.67332">
        <ele>38</ele>
        <time>2021-02-12T04:50:55Z</time>
      </trkpt>
      <trkpt lat="47.52081" lon="-0.67299">
        <ele>39</ele>
        <time>2021-02-12T04:50:50Z</time>
      </trkpt>
      <trkpt lat="47.52069" lon="-0.67256">
        <ele>39</ele>
        <time>2021-02-12T04:50:45Z</time>
      </trkpt>
      <trkpt lat="47.52055" lon="-0.67179">
        <ele>42</ele>
        <time>2021-02-12T04:50:35Z</time>
      </trkpt>
      <trkpt lat="47.52018" lon="-0.67005">
        <ele>44</ele>
        <time>2021-02-12T04:50:13Z</time>
      </trkpt>
      <trkpt lat="47.52015" lon="-0.66999">
        <ele>44</ele>
        <time>2021-02-12T04:50:12Z</time>
      </trkpt>
      <trkpt lat="47.52007" lon="-0.66996">
        <ele>44</ele>
        <time>2021-02-12T04:50:11Z</time>
      </trkpt>
      <trkpt lat="47.51998" lon="-0.6696">
        <ele>43</ele>
        <time>2021-02-12T04:50:06Z</time>
      </trkpt>
      <trkpt lat="47.51989" lon="-0.66905">
        <ele>42</ele>
        <time>2021-02-12T04:49:59Z</time>
      </trkpt>
      <trkpt lat="47.51979" lon="-0.66861">
        <ele>40</ele>
        <time>2021-02-12T04:49:54Z</time>
      </trkpt>
      <trkpt lat="47.51971" lon="-0.66835">
        <ele>39</ele>
        <time>2021-02-12T04:49:50Z</time>
      </trkpt>
      <trkpt lat="47.51949" lon="-0.66835">
        <ele>38</ele>
        <time>2021-02-12T04:49:46Z</time>
      </trkpt>
      <trkpt lat="47.51939" lon="-0.66782">
        <ele>37</ele>
        <time>2021-02-12T04:49:40Z</time>
      </trkpt>
      <trkpt lat="47.51921" lon="-0.66776">
        <ele>36</ele>
        <time>2021-02-12T04:49:36Z</time>
      </trkpt>
      <trkpt lat="47.51893" lon="-0.6676">
        <ele>34</ele>
        <time>2021-02-12T04:49:31Z</time>
      </trkpt>
      <trkpt lat="47.51891" lon="-0.6675">
        <ele>34</ele>
        <time>2021-02-12T04:49:30Z</time>
      </trkpt>
      <trkpt lat="47.51886" lon="-0.66748">
        <ele>34</ele>
        <time>2021-02-12T04:49:29Z</time>
      </trkpt>
      <trkpt lat="47.51877" lon="-0.66717">
        <ele>34</ele>
        <time>2021-02-12T04:49:25Z</time>
      </trkpt>
      <trkpt lat="47.51865" lon="-0.66661">
        <ele>34</ele>
        <time>2021-02-12T04:49:18Z</time>
      </trkpt>
      <trkpt lat="47.51859" lon="-0.66631">
        <ele>34</ele>
        <time>2021-02-12T04:49:14Z</time>
      </trkpt>
      <trkpt lat="47.51852" lon="-0.66605">
        <ele>35</ele>
        <time>2021-02-12T04:49:11Z</time>
      </trkpt>
      <trkpt lat="47.51842" lon="-0.66575">
        <ele>35</ele>
        <time>2021-02-12T04:49:07Z</time>
      </trkpt>
      <trkpt lat="47.5183" lon="-0.66549">
        <ele>37</ele>
        <time>2021-02-12T04:49:03Z</time>
      </trkpt>
      <trkpt lat="47.51818" lon="-0.66529">
        <ele>38</ele>
        <time>2021-02-12T04:49:00Z</time>
      </trkpt>
      <trkpt lat="47.5181" lon="-0.6652">
        <ele>38</ele>
        <time>2021-02-12T04:48:58Z</time>
      </trkpt>
      <trkpt lat="47.51799" lon="-0.66512">
        <ele>37</ele>
        <time>2021-02-12T04:48:56Z</time>
      </trkpt>
      <trkpt lat="47.51733" lon="-0.66481">
        <ele>34</ele>
        <time>2021-02-12T04:48:43Z</time>
      </trkpt>
      <trkpt lat="47.51715" lon="-0.66468">
        <ele>34</ele>
        <time>2021-02-12T04:48:40Z</time>
      </trkpt>
      <trkpt lat="47.51698" lon="-0.66451">
        <ele>34</ele>
        <time>2021-02-12T04:48:36Z</time>
      </trkpt>
      <trkpt lat="47.51681" lon="-0.66428">
        <ele>33</ele>
        <time>2021-02-12T04:48:32Z</time>
      </trkpt>
      <trkpt lat="47.5163" lon="-0.66332">
        <ele>35</ele>
        <time>2021-02-12T04:48:17Z</time>
      </trkpt>
      <trkpt lat="47.5159" lon="-0.66254">
        <ele>37</ele>
        <time>2021-02-12T04:48:06Z</time>
      </trkpt>
      <trkpt lat="47.51582" lon="-0.66238">
        <ele>37</ele>
        <time>2021-02-12T04:48:03Z</time>
      </trkpt>
      <trkpt lat="47.51545" lon="-0.66166">
        <ele>39</ele>
        <time>2021-02-12T04:47:52Z</time>
      </trkpt>
      <trkpt lat="47.51525" lon="-0.66121">
        <ele>40</ele>
        <time>2021-02-12T04:47:46Z</time>
      </trkpt>
      <trkpt lat="47.51499" lon="-0.66055">
        <ele>41</ele>
        <time>2021-02-12T04:47:37Z</time>
      </trkpt>
      <trkpt lat="47.51483" lon="-0.66019">
        <ele>42</ele>
        <time>2021-02-12T04:47:32Z</time>
      </trkpt>
      <trkpt lat="47.51456" lon="-0.65968">
        <ele>42</ele>
        <time>2021-02-12T04:47:24Z</time>
      </trkpt>
      <trkpt lat="47.51446" lon="-0.65953">
        <ele>42</ele>
        <time>2021-02-12T04:47:21Z</time>
      </trkpt>
      <trkpt lat="47.51442" lon="-0.65947">
        <ele>42</ele>
        <time>2021-02-12T04:47:20Z</time>
      </trkpt>
      <trkpt lat="47.51423" lon="-0.6592">
        <ele>43</ele>
        <time>2021-02-12T04:47:16Z</time>
      </trkpt>
      <trkpt lat="47.51365" lon="-0.65842">
        <ele>41</ele>
        <time>2021-02-12T04:47:02Z</time>
      </trkpt>
      <trkpt lat="47.51346" lon="-0.65811">
        <ele>40</ele>
        <time>2021-02-12T04:46:57Z</time>
      </trkpt>
      <trkpt lat="47.51313" lon="-0.65745">
        <ele>37</ele>
        <time>2021-02-12T04:46:47Z</time>
      </trkpt>
      <trkpt lat="47.51299" lon="-0.65712">
        <ele>36</ele>
        <time>2021-02-12T04:46:42Z</time>
      </trkpt>
      <trkpt lat="47.51275" lon="-0.65645">
        <ele>34</ele>
        <time>2021-02-12T04:46:33Z</time>
      </trkpt>
      <trkpt lat="47.51265" lon="-0.65623">
        <ele>34</ele>
        <time>2021-02-12T04:46:30Z</time>
      </trkpt>
      <trkpt lat="47.51178" lon="-0.65478">
        <ele>39</ele>
        <time>2021-02-12T04:46:06Z</time>
      </trkpt>
      <trkpt lat="47.51154" lon="-0.65425">
        <ele>40</ele>
        <time>2021-02-12T04:45:59Z</time>
      </trkpt>
      <trkpt lat="47.51132" lon="-0.65359">
        <ele>40</ele>
        <time>2021-02-12T04:45:50Z</time>
      </trkpt>
      <trkpt lat="47.51119" lon="-0.65319">
        <ele>40</ele>
        <time>2021-02-12T04:45:45Z</time>
      </trkpt>
      <trkpt lat="47.51109" lon="-0.65288">
        <ele>40</ele>
        <time>2021-02-12T04:45:40Z</time>
      </trkpt>
      <trkpt lat="47.51087" lon="-0.65219">
        <ele>40</ele>
        <time>2021-02-12T04:45:31Z</time>
      </trkpt>
      <trkpt lat="47.51075" lon="-0.65171">
        <ele>39</ele>
        <time>2021-02-12T04:45:25Z</time>
      </trkpt>
      <trkpt lat="47.51057" lon="-0.65086">
        <ele>38</ele>
        <time>2021-02-12T04:45:14Z</time>
      </trkpt>
      <trkpt lat="47.51045" lon="-0.64992">
        <ele>38</ele>
        <time>2021-02-12T04:45:03Z</time>
      </trkpt>
      <trkpt lat="47.5104" lon="-0.64962">
        <ele>39</ele>
        <time>2021-02-12T04:44:59Z</time>
      </trkpt>
      <trkpt lat="47.51033" lon="-0.64915">
        <ele>40</ele>
        <time>2021-02-12T04:44:53Z</time>
      </trkpt>
      <trkpt lat="47.51018" lon="-0.64839">
        <ele>44</ele>
        <time>2021-02-12T04:44:44Z</time>
      </trkpt>
      <trkpt lat="47.51006" lon="-0.64793">
        <ele>45</ele>
        <time>2021-02-12T04:44:38Z</time>
      </trkpt>
      <trkpt lat="47.5099" lon="-0.64745">
        <ele>45</ele>
        <time>2021-02-12T04:44:32Z</time>
      </trkpt>
      <trkpt lat="47.50961" lon="-0.64666">
        <ele>45</ele>
        <time>2021-02-12T04:44:21Z</time>
      </trkpt>
      <trkpt lat="47.50953" lon="-0.64645">
        <ele>45</ele>
        <time>2021-02-12T04:44:18Z</time>
      </trkpt>
      <trkpt lat="47.50942" lon="-0.64616">
        <ele>45</ele>
        <time>2021-02-12T04:44:14Z</time>
      </trkpt>
      <trkpt lat="47.50936" lon="-0.64604">
        <ele>45</ele>
        <time>2021-02-12T04:44:12Z</time>
      </trkpt>
      <trkpt lat="47.5091" lon="-0.6454">
        <ele>45</ele>
        <time>2021-02-12T04:44:03Z</time>
      </trkpt>
      <trkpt lat="47.50882" lon="-0.64472">
        <ele>44</ele>
        <time>2021-02-12T04:43:53Z</time>
      </trkpt>
      <trkpt lat="47.50871" lon="-0.64448">
        <ele>43</ele>
        <time>2021-02-12T04:43:50Z</time>
      </trkpt>
      <trkpt lat="47.50849" lon="-0.64415">
        <ele>43</ele>
        <time>2021-02-12T04:43:44Z</time>
      </trkpt>
      <trkpt lat="47.50824" lon="-0.64386">
        <ele>41</ele>
        <time>2021-02-12T04:43:39Z</time>
      </trkpt>
      <trkpt lat="47.50815" lon="-0.64378">
        <ele>41</ele>
        <time>2021-02-12T04:43:37Z</time>
      </trkpt>
      <trkpt lat="47.50734" lon="-0.64321">
        <ele>36</ele>
        <time>2021-02-12T04:43:21Z</time>
      </trkpt>
      <trkpt lat="47.50707" lon="-0.64298">
        <ele>36</ele>
        <time>2021-02-12T04:43:15Z</time>
      </trkpt>
      <trkpt lat="47.50689" lon="-0.64275">
        <ele>35</ele>
        <time>2021-02-12T04:43:11Z</time>
      </trkpt>
      <trkpt lat="47.50674" lon="-0.64253">
        <ele>35</ele>
        <time>2021-02-12T04:43:07Z</time>
      </trkpt>
      <trkpt lat="47.50661" lon="-0.64228">
        <ele>35</ele>
        <time>2021-02-12T04:43:04Z</time>
      </trkpt>
      <trkpt lat="47.50648" lon="-0.64197">
        <ele>36</ele>
        <time>2021-02-12T04:42:59Z</time>
      </trkpt>
      <trkpt lat="47.50615" lon="-0.64113">
        <ele>37</ele>
        <time>2021-02-12T04:42:48Z</time>
      </trkpt>
      <trkpt lat="47.50556" lon="-0.63962">
        <ele>37</ele>
        <time>2021-02-12T04:42:27Z</time>
      </trkpt>
      <trkpt lat="47.50524" lon="-0.63878">
        <ele>37</ele>
        <time>2021-02-12T04:42:15Z</time>
      </trkpt>
      <trkpt lat="47.50461" lon="-0.63729">
        <ele>37</ele>
        <time>2021-02-12T04:41:54Z</time>
      </trkpt>
      <trkpt lat="47.50437" lon="-0.6366">
        <ele>36</ele>
        <time>2021-02-12T04:41:45Z</time>
      </trkpt>
      <trkpt lat="47.5042" lon="-0.63598">
        <ele>37</ele>
        <time>2021-02-12T04:41:37Z</time>
      </trkpt>
      <trkpt lat="47.5037" lon="-0.63377">
        <ele>39</ele>
        <time>2021-02-12T04:41:09Z</time>
      </trkpt>
      <trkpt lat="47.50363" lon="-0.63345">
        <ele>39</ele>
        <time>2021-02-12T04:41:04Z</time>
      </trkpt>
      <trkpt lat="47.50343" lon="-0.63251">
        <ele>39</ele>
        <time>2021-02-12T04:40:53Z</time>
      </trkpt>
      <trkpt lat="47.50334" lon="-0.63212">
        <ele>39</ele>
        <time>2021-02-12T04:40:48Z</time>
      </trkpt>
      <trkpt lat="47.50322" lon="-0.63172">
        <ele>39</ele>
        <time>2021-02-12T04:40:42Z</time>
      </trkpt>
      <trkpt lat="47.50273" lon="-0.63006">
        <ele>40</ele>
        <time>2021-02-12T04:40:21Z</time>
      </trkpt>
      <trkpt lat="47.50233" lon="-0.62873">
        <ele>39</ele>
        <time>2021-02-12T04:40:03Z</time>
      </trkpt>
      <trkpt lat="47.50129" lon="-0.62515">
        <ele>33</ele>
        <time>2021-02-12T04:39:16Z</time>
      </trkpt>
      <trkpt lat="47.50115" lon="-0.62473">
        <ele>33</ele>
        <time>2021-02-12T04:39:11Z</time>
      </trkpt>
      <trkpt lat="47.50102" lon="-0.62439">
        <ele>32</ele>
        <time>2021-02-12T04:39:06Z</time>
      </trkpt>
      <trkpt lat="47.50086" lon="-0.62405">
        <ele>32</ele>
        <time>2021-02-12T04:39:01Z</time>
      </trkpt>
      <trkpt lat="47.50039" lon="-0.62312">
        <ele>26</ele>
        <time>2021-02-12T04:38:47Z</time>
      </trkpt>
      <trkpt lat="47.50025" lon="-0.6228">
        <ele>24</ele>
        <time>2021-02-12T04:38:42Z</time>
      </trkpt>
      <trkpt lat="47.50002" lon="-0.6222">
        <ele>25</ele>
        <time>2021-02-12T04:38:34Z</time>
      </trkpt>
      <trkpt lat="47.49968" lon="-0.62111">
        <ele>25</ele>
        <time>2021-02-12T04:38:20Z</time>
      </trkpt>
      <trkpt lat="47.4993" lon="-0.61976">
        <ele>23</ele>
        <time>2021-02-12T04:38:02Z</time>
      </trkpt>
      <trkpt lat="47.49922" lon="-0.61943">
        <ele>24</ele>
        <time>2021-02-12T04:37:58Z</time>
      </trkpt>
      <trkpt lat="47.49915" lon="-0.619">
        <ele>24</ele>
        <time>2021-02-12T04:37:53Z</time>
      </trkpt>
      <trkpt lat="47.49891" lon="-0.61702">
        <ele>25</ele>
        <time>2021-02-12T04:37:28Z</time>
      </trkpt>
      <trkpt lat="47.49885" lon="-0.61666">
        <ele>25</ele>
        <time>2021-02-12T04:37:24Z</time>
      </trkpt>
      <trkpt lat="47.49841" lon="-0.61505">
        <ele>25</ele>
        <time>2021-02-12T04:37:03Z</time>
      </trkpt>
      <trkpt lat="47.49833" lon="-0.61463">
        <ele>27</ele>
        <time>2021-02-12T04:36:58Z</time>
      </trkpt>
      <trkpt lat="47.49819" lon="-0.61369">
        <ele>31</ele>
        <time>2021-02-12T04:36:46Z</time>
      </trkpt>
      <trkpt lat="47.49814" lon="-0.61334">
        <ele>32</ele>
        <time>2021-02-12T04:36:42Z</time>
      </trkpt>
      <trkpt lat="47.49797" lon="-0.61267">
        <ele>31</ele>
        <time>2021-02-12T04:36:33Z</time>
      </trkpt>
      <trkpt lat="47.49788" lon="-0.61236">
        <ele>30</ele>
        <time>2021-02-12T04:36:29Z</time>
      </trkpt>
      <trkpt lat="47.4977" lon="-0.6119">
        <ele>30</ele>
        <time>2021-02-12T04:36:23Z</time>
      </trkpt>
      <trkpt lat="47.49754" lon="-0.61155">
        <ele>29</ele>
        <time>2021-02-12T04:36:18Z</time>
      </trkpt>
      <trkpt lat="47.49725" lon="-0.61105">
        <ele>28</ele>
        <time>2021-02-12T04:36:10Z</time>
      </trkpt>
      <trkpt lat="47.49695" lon="-0.61065">
        <ele>27</ele>
        <time>2021-02-12T04:36:03Z</time>
      </trkpt>
      <trkpt lat="47.49629" lon="-0.60986">
        <ele>26</ele>
        <time>2021-02-12T04:35:48Z</time>
      </trkpt>
      <trkpt lat="47.49607" lon="-0.60952">
        <ele>25</ele>
        <time>2021-02-12T04:35:42Z</time>
      </trkpt>
      <trkpt lat="47.49589" lon="-0.60922">
        <ele>24</ele>
        <time>2021-02-12T04:35:37Z</time>
      </trkpt>
      <trkpt lat="47.4957" lon="-0.60878">
        <ele>24</ele>
        <time>2021-02-12T04:35:31Z</time>
      </trkpt>
      <trkpt lat="47.49556" lon="-0.60842">
        <ele>24</ele>
        <time>2021-02-12T04:35:26Z</time>
      </trkpt>
      <trkpt lat="47.49544" lon="-0.60798">
        <ele>24</ele>
        <time>2021-02-12T04:35:20Z</time>
      </trkpt>
      <trkpt lat="47.49533" lon="-0.60741">
        <ele>25</ele>
        <time>2021-02-12T04:35:13Z</time>
      </trkpt>
      <trkpt lat="47.49528" lon="-0.60701">
        <ele>26</ele>
        <time>2021-02-12T04:35:08Z</time>
      </trkpt>
      <trkpt lat="47.49506" lon="-0.60439">
        <ele>29</ele>
        <time>2021-02-12T04:34:36Z</time>
      </trkpt>
      <trkpt lat="47.49495" lon="-0.60349">
        <ele>31</ele>
        <time>2021-02-12T04:34:25Z</time>
      </trkpt>
      <trkpt lat="47.49482" lon="-0.6027">
        <ele>33</ele>
        <time>2021-02-12T04:34:16Z</time>
      </trkpt>
      <trkpt lat="47.49456" lon="-0.6013">
        <ele>34</ele>
        <time>2021-02-12T04:33:58Z</time>
      </trkpt>
      <trkpt lat="47.49429" lon="-0.60013">
        <ele>34</ele>
        <time>2021-02-12T04:33:43Z</time>
      </trkpt>
      <trkpt lat="47.49385" lon="-0.59849">
        <ele>32</ele>
        <time>2021-02-12T04:33:22Z</time>
      </trkpt>
      <trkpt lat="47.49359" lon="-0.59766">
        <ele>32</ele>
        <time>2021-02-12T04:33:11Z</time>
      </trkpt>
      <trkpt lat="47.49296" lon="-0.59584">
        <ele>32</ele>
        <time>2021-02-12T04:32:47Z</time>
      </trkpt>
      <trkpt lat="47.49266" lon="-0.59488">
        <ele>31</ele>
        <time>2021-02-12T04:32:34Z</time>
      </trkpt>
      <trkpt lat="47.49245" lon="-0.59413">
        <ele>33</ele>
        <time>2021-02-12T04:32:24Z</time>
      </trkpt>
      <trkpt lat="47.49217" lon="-0.59299">
        <ele>33</ele>
        <time>2021-02-12T04:32:09Z</time>
      </trkpt>
      <trkpt lat="47.49203" lon="-0.59231">
        <ele>33</ele>
        <time>2021-02-12T04:32:01Z</time>
      </trkpt>
      <trkpt lat="47.492" lon="-0.59204">
        <ele>33</ele>
        <time>2021-02-12T04:31:58Z</time>
      </trkpt>
      <trkpt lat="47.49204" lon="-0.5919">
        <ele>34</ele>
        <time>2021-02-12T04:31:56Z</time>
      </trkpt>
      <trkpt lat="47.49204" lon="-0.59183">
        <ele>34</ele>
        <time>2021-02-12T04:31:55Z</time>
      </trkpt>
      <trkpt lat="47.49199" lon="-0.5917">
        <ele>34</ele>
        <time>2021-02-12T04:31:53Z</time>
      </trkpt>
      <trkpt lat="47.49194" lon="-0.59165">
        <ele>34</ele>
        <time>2021-02-12T04:31:52Z</time>
      </trkpt>
      <trkpt lat="47.49189" lon="-0.59163">
        <ele>34</ele>
        <time>2021-02-12T04:31:51Z</time>
      </trkpt>
      <trkpt lat="47.49178" lon="-0.59166">
        <ele>34</ele>
        <time>2021-02-12T04:31:49Z</time>
      </trkpt>
      <trkpt lat="47.49162" lon="-0.59164">
        <ele>34</ele>
        <time>2021-02-12T04:31:46Z</time>
      </trkpt>
      <trkpt lat="47.49144" lon="-0.59157">
        <ele>35</ele>
        <time>2021-02-12T04:31:43Z</time>
      </trkpt>
      <trkpt lat="47.49084" lon="-0.59115">
        <ele>38</ele>
        <time>2021-02-12T04:31:31Z</time>
      </trkpt>
      <trkpt lat="47.49061" lon="-0.59095">
        <ele>38</ele>
        <time>2021-02-12T04:31:26Z</time>
      </trkpt>
      <trkpt lat="47.4903" lon="-0.59064">
        <ele>38</ele>
        <time>2021-02-12T04:31:20Z</time>
      </trkpt>
      <trkpt lat="47.48986" lon="-0.59">
        <ele>39</ele>
        <time>2021-02-12T04:31:09Z</time>
      </trkpt>
      <trkpt lat="47.48893" lon="-0.58858">
        <ele>42</ele>
        <time>2021-02-12T04:30:45Z</time>
      </trkpt>
      <trkpt lat="47.48879" lon="-0.58842">
        <ele>43</ele>
        <time>2021-02-12T04:30:42Z</time>
      </trkpt>
      <trkpt lat="47.48827" lon="-0.58763">
        <ele>43</ele>
        <time>2021-02-12T04:30:29Z</time>
      </trkpt>
      <trkpt lat="47.488" lon="-0.58717">
        <ele>44</ele>
        <time>2021-02-12T04:30:21Z</time>
      </trkpt>
      <trkpt lat="47.48805" lon="-0.58708">
        <ele>44</ele>
        <time>2021-02-12T04:30:20Z</time>
      </trkpt>
      <trkpt lat="47.48804" lon="-0.58694">
        <ele>45</ele>
        <time>2021-02-12T04:30:18Z</time>
      </trkpt>
      <trkpt lat="47.488" lon="-0.58688">
        <ele>45</ele>
        <time>2021-02-12T04:30:17Z</time>
      </trkpt>
      <trkpt lat="47.48795" lon="-0.58686">
        <ele>45</ele>
        <time>2021-02-12T04:30:16Z</time>
      </trkpt>
      <trkpt lat="47.48789" lon="-0.58688">
        <ele>45</ele>
        <time>2021-02-12T04:30:15Z</time>
      </trkpt>
      <trkpt lat="47.48786" lon="-0.58692">
        <ele>45</ele>
        <time>2021-02-12T04:30:14Z</time>
      </trkpt>
      <trkpt lat="47.48781" lon="-0.58686">
        <ele>46</ele>
        <time>2021-02-12T04:30:13Z</time>
      </trkpt>
      <trkpt lat="47.4878" lon="-0.58685">
        <ele>46</ele>
        <time>2021-02-12T04:30:13Z</time>
      </trkpt>
      <trkpt lat="47.48772" lon="-0.58672">
        <ele>46</ele>
        <time>2021-02-12T04:30:11Z</time>
      </trkpt>
      <trkpt lat="47.48756" lon="-0.58652">
        <ele>47</ele>
        <time>2021-02-12T04:30:07Z</time>
      </trkpt>
      <trkpt lat="47.48741" lon="-0.58628">
        <ele>48</ele>
        <time>2021-02-12T04:30:03Z</time>
      </trkpt>
      <trkpt lat="47.48729" lon="-0.5861">
        <ele>48</ele>
        <time>2021-02-12T04:30:00Z</time>
      </trkpt>
      <trkpt lat="47.48716" lon="-0.5859">
        <ele>49</ele>
        <time>2021-02-12T04:29:57Z</time>
      </trkpt>
      <trkpt lat="47.48689" lon="-0.58552">
        <ele>49</ele>
        <time>2021-02-12T04:29:50Z</time>
      </trkpt>
      <trkpt lat="47.48672" lon="-0.58535">
        <ele>49</ele>
        <time>2021-02-12T04:29:47Z</time>
      </trkpt>
      <trkpt lat="47.48663" lon="-0.58525">
        <ele>49</ele>
        <time>2021-02-12T04:29:45Z</time>
      </trkpt>
      <trkpt lat="47.48635" lon="-0.585">
        <ele>49</ele>
        <time>2021-02-12T04:29:39Z</time>
      </trkpt>
      <trkpt lat="47.48614" lon="-0.5848">
        <ele>49</ele>
        <time>2021-02-12T04:29:34Z</time>
      </trkpt>
      <trkpt lat="47.48607" lon="-0.58473">
        <ele>49</ele>
        <time>2021-02-12T04:29:33Z</time>
      </trkpt>
      <trkpt lat="47.486" lon="-0.58468">
        <ele>49</ele>
        <time>2021-02-12T04:29:32Z</time>
      </trkpt>
      <trkpt lat="47.48581" lon="-0.58452">
        <ele>49</ele>
        <time>2021-02-12T04:29:28Z</time>
      </trkpt>
      <trkpt lat="47.48571" lon="-0.58445">
        <ele>50</ele>
        <time>2021-02-12T04:29:26Z</time>
      </trkpt>
      <trkpt lat="47.4857" lon="-0.58444">
        <ele>50</ele>
        <time>2021-02-12T04:29:25Z</time>
      </trkpt>
      <trkpt lat="47.48563" lon="-0.58438">
        <ele>50</ele>
        <time>2021-02-12T04:29:24Z</time>
      </trkpt>
      <trkpt lat="47.4855" lon="-0.58429">
        <ele>50</ele>
        <time>2021-02-12T04:29:21Z</time>
      </trkpt>
      <trkpt lat="47.48538" lon="-0.58421">
        <ele>51</ele>
        <time>2021-02-12T04:29:19Z</time>
      </trkpt>
      <trkpt lat="47.48518" lon="-0.58406">
        <ele>51</ele>
        <time>2021-02-12T04:29:15Z</time>
      </trkpt>
      <trkpt lat="47.48504" lon="-0.58397">
        <ele>51</ele>
        <time>2021-02-12T04:29:12Z</time>
      </trkpt>
      <trkpt lat="47.48493" lon="-0.58392">
        <ele>52</ele>
        <time>2021-02-12T04:29:10Z</time>
      </trkpt>
      <trkpt lat="47.48495" lon="-0.58385">
        <ele>51</ele>
        <time>2021-02-12T04:29:09Z</time>
      </trkpt>
      <trkpt lat="47.48493" lon="-0.58373">
        <ele>51</ele>
        <time>2021-02-12T04:29:08Z</time>
      </trkpt>
      <trkpt lat="47.48489" lon="-0.58367">
        <ele>51</ele>
        <time>2021-02-12T04:29:07Z</time>
      </trkpt>
      <trkpt lat="47.48485" lon="-0.58365">
        <ele>51</ele>
        <time>2021-02-12T04:29:06Z</time>
      </trkpt>
      <trkpt lat="47.4848" lon="-0.58365">
        <ele>52</ele>
        <time>2021-02-12T04:29:05Z</time>
      </trkpt>
      <trkpt lat="47.48468" lon="-0.58335">
        <ele>52</ele>
        <time>2021-02-12T04:29:01Z</time>
      </trkpt>
      <trkpt lat="47.48454" lon="-0.583">
        <ele>51</ele>
        <time>2021-02-12T04:28:56Z</time>
      </trkpt>
      <trkpt lat="47.48432" lon="-0.58256">
        <ele>50</ele>
        <time>2021-02-12T04:28:50Z</time>
      </trkpt>
      <trkpt lat="47.48424" lon="-0.5824">
        <ele>50</ele>
        <time>2021-02-12T04:28:47Z</time>
      </trkpt>
      <trkpt lat="47.48414" lon="-0.58224">
        <ele>49</ele>
        <time>2021-02-12T04:28:45Z</time>
      </trkpt>
      <trkpt lat="47.48389" lon="-0.58179">
        <ele>47</ele>
        <time>2021-02-12T04:28:38Z</time>
      </trkpt>
      <trkpt lat="47.48381" lon="-0.58168">
        <ele>47</ele>
        <time>2021-02-12T04:28:36Z</time>
      </trkpt>
      <trkpt lat="47.48298" lon="-0.58066">
        <ele>44</ele>
        <time>2021-02-12T04:28:16Z</time>
      </trkpt>
      <trkpt lat="47.48287" lon="-0.58051">
        <ele>43</ele>
        <time>2021-02-12T04:28:14Z</time>
      </trkpt>
      <trkpt lat="47.48276" lon="-0.58032">
        <ele>42</ele>
        <time>2021-02-12T04:28:11Z</time>
      </trkpt>
      <trkpt lat="47.48264" lon="-0.58013">
        <ele>42</ele>
        <time>2021-02-12T04:28:08Z</time>
      </trkpt>
      <trkpt lat="47.48246" lon="-0.57972">
        <ele>42</ele>
        <time>2021-02-12T04:28:02Z</time>
      </trkpt>
      <trkpt lat="47.48235" lon="-0.57943">
        <ele>42</ele>
        <time>2021-02-12T04:27:58Z</time>
      </trkpt>
      <trkpt lat="47.48225" lon="-0.57911">
        <ele>43</ele>
        <time>2021-02-12T04:27:54Z</time>
      </trkpt>
      <trkpt lat="47.48216" lon="-0.57871">
        <ele>42</ele>
        <time>2021-02-12T04:27:49Z</time>
      </trkpt>
      <trkpt lat="47.48205" lon="-0.57785">
        <ele>43</ele>
        <time>2021-02-12T04:27:38Z</time>
      </trkpt>
      <trkpt lat="47.48201" lon="-0.57752">
        <ele>45</ele>
        <time>2021-02-12T04:27:34Z</time>
      </trkpt>
      <trkpt lat="47.48199" lon="-0.5774">
        <ele>45</ele>
        <time>2021-02-12T04:27:32Z</time>
      </trkpt>
      <trkpt lat="47.48196" lon="-0.57719">
        <ele>46</ele>
        <time>2021-02-12T04:27:30Z</time>
      </trkpt>
      <trkpt lat="47.48193" lon="-0.57697">
        <ele>47</ele>
        <time>2021-02-12T04:27:27Z</time>
      </trkpt>
      <trkpt lat="47.48177" lon="-0.57598">
        <ele>49</ele>
        <time>2021-02-12T04:27:15Z</time>
      </trkpt>
      <trkpt lat="47.48175" lon="-0.57586">
        <ele>49</ele>
        <time>2021-02-12T04:27:13Z</time>
      </trkpt>
      <trkpt lat="47.48174" lon="-0.57578">
        <ele>49</ele>
        <time>2021-02-12T04:27:12Z</time>
      </trkpt>
      <trkpt lat="47.4815" lon="-0.57461">
        <ele>49</ele>
        <time>2021-02-12T04:26:58Z</time>
      </trkpt>
      <trkpt lat="47.48144" lon="-0.57438">
        <ele>49</ele>
        <time>2021-02-12T04:26:55Z</time>
      </trkpt>
      <trkpt lat="47.4813" lon="-0.57406">
        <ele>49</ele>
        <time>2021-02-12T04:26:50Z</time>
      </trkpt>
      <trkpt lat="47.4811" lon="-0.57374">
        <ele>49</ele>
        <time>2021-02-12T04:26:45Z</time>
      </trkpt>
      <trkpt lat="47.48112" lon="-0.57365">
        <ele>49</ele>
        <time>2021-02-12T04:26:44Z</time>
      </trkpt>
      <trkpt lat="47.48109" lon="-0.57355">
        <ele>49</ele>
        <time>2021-02-12T04:26:43Z</time>
      </trkpt>
      <trkpt lat="47.48107" lon="-0.57353">
        <ele>49</ele>
        <time>2021-02-12T04:26:42Z</time>
      </trkpt>
      <trkpt lat="47.48099" lon="-0.57352">
        <ele>49</ele>
        <time>2021-02-12T04:26:41Z</time>
      </trkpt>
      <trkpt lat="47.48097" lon="-0.57353">
        <ele>49</ele>
        <time>2021-02-12T04:26:40Z</time>
      </trkpt>
      <trkpt lat="47.48092" lon="-0.57349">
        <ele>49</ele>
        <time>2021-02-12T04:26:39Z</time>
      </trkpt>
      <trkpt lat="47.48049" lon="-0.57288">
        <ele>48</ele>
        <time>2021-02-12T04:26:29Z</time>
      </trkpt>
      <trkpt lat="47.47965" lon="-0.57149">
        <ele>45</ele>
        <time>2021-02-12T04:26:06Z</time>
      </trkpt>
      <trkpt lat="47.47892" lon="-0.5701">
        <ele>40</ele>
        <time>2021-02-12T04:25:45Z</time>
      </trkpt>
      <trkpt lat="47.47783" lon="-0.56838">
        <ele>39</ele>
        <time>2021-02-12T04:25:17Z</time>
      </trkpt>
      <trkpt lat="47.47762" lon="-0.56813">
        <ele>39</ele>
        <time>2021-02-12T04:25:12Z</time>
      </trkpt>
      <trkpt lat="47.47759" lon="-0.56797">
        <ele>39</ele>
        <time>2021-02-12T04:25:10Z</time>
      </trkpt>
      <trkpt lat="47.47753" lon="-0.56791">
        <ele>39</ele>
        <time>2021-02-12T04:25:09Z</time>
      </trkpt>
      <trkpt lat="47.47747" lon="-0.56792">
        <ele>39</ele>
        <time>2021-02-12T04:25:08Z</time>
      </trkpt>
      <trkpt lat="47.47743" lon="-0.568">
        <ele>39</ele>
        <time>2021-02-12T04:25:06Z</time>
      </trkpt>
      <trkpt lat="47.4773" lon="-0.56791">
        <ele>39</ele>
        <time>2021-02-12T04:25:04Z</time>
      </trkpt>
      <trkpt lat="47.47697" lon="-0.56758">
        <ele>40</ele>
        <time>2021-02-12T04:24:57Z</time>
      </trkpt>
      <trkpt lat="47.47685" lon="-0.5674">
        <ele>40</ele>
        <time>2021-02-12T04:24:54Z</time>
      </trkpt>
      <trkpt lat="47.47647" lon="-0.56663">
        <ele>39</ele>
        <time>2021-02-12T04:24:42Z</time>
      </trkpt>
      <trkpt lat="47.47635" lon="-0.56646">
        <ele>39</ele>
        <time>2021-02-12T04:24:39Z</time>
      </trkpt>
      <trkpt lat="47.4749" lon="-0.56727">
        <ele>32</ele>
        <time>2021-02-12T04:24:12Z</time>
      </trkpt>
      <trkpt lat="47.47474" lon="-0.56725">
        <ele>32</ele>
        <time>2021-02-12T04:24:09Z</time>
      </trkpt>
      <trkpt lat="47.47426" lon="-0.56711">
        <ele>32</ele>
        <time>2021-02-12T04:24:00Z</time>
      </trkpt>
      <trkpt lat="47.47413" lon="-0.56711">
        <ele>32</ele>
        <time>2021-02-12T04:23:58Z</time>
      </trkpt>
      <trkpt lat="47.47369" lon="-0.567">
        <ele>30</ele>
        <time>2021-02-12T04:23:50Z</time>
      </trkpt>
      <trkpt lat="47.47349" lon="-0.5669">
        <ele>30</ele>
        <time>2021-02-12T04:23:46Z</time>
      </trkpt>
      <trkpt lat="47.47298" lon="-0.5662">
        <ele>27</ele>
        <time>2021-02-12T04:23:34Z</time>
      </trkpt>
      <trkpt lat="47.47265" lon="-0.56581">
        <ele>26</ele>
        <time>2021-02-12T04:23:26Z</time>
      </trkpt>
      <trkpt lat="47.47266" lon="-0.5658">
        <ele>26</ele>
        <time>2021-02-12T04:23:26Z</time>
      </trkpt>
      <trkpt lat="47.47162" lon="-0.5644">
        <ele>22</ele>
        <time>2021-02-12T04:23:01Z</time>
      </trkpt>
      <trkpt lat="47.47162" lon="-0.5644">
        <ele>22</ele>
        <time>2021-02-12T04:23:01Z</time>
      </trkpt>
      <trkpt lat="47.47201" lon="-0.5638">
        <ele>21</ele>
        <time>2021-02-12T04:22:51Z</time>
      </trkpt>
      <trkpt lat="47.47201" lon="-0.5638">
        <ele>21</ele>
        <time>2021-02-12T04:22:51Z</time>
      </trkpt>
    </trkseg>
  </trk>
</gpx>